<?xml version="1.0" encoding="UTF-8" standalone="no" ?>
<gpx xmlns="http://www.topografix.com/GPX/1/1" xmlns:xsi="http://www.w3.org/2001/XMLSchema-instance" xsi:schemaLocation="http://www.topografix.com/GPX/1/1 http://www.topografix.com/GPX/1/1/gpx.xsd" version="1.1" creator="VisuGPX - https://www.visugpx.com">
  <metadata>
    <name>Le mayet  la prugne 34 kms</name>
    <desc><![CDATA[rando au depart du mayet ou de st clement peut se faire dans les deux sens ]]></desc>
  </metadata>
  <trk>
    <name><![CDATA[2012-06-09 14:00]]></name>
    <desc><![CDATA[<h1>OruxMaps</h1><br /><hr align="center" width="480" style="height: 2px; width: 517px"/><h2>Nom: 2012-06-09 14:00</h2><br /><p>Temps de départ: 06/09/2012 14:00</p><p>Temps d'arrivée: 06/09/2012 17:30</p><p>Distance: 34,3 km (03:28)</p><p>Temps déplacement: 01:59</p><p>Vitesse moyenne: 9,9 km/h</p><p>Vitesse moyenne: 17,2 km/h</p><p>Vitess Max.: 44 km/h</p><p>Altitude minimale: 482 m</p><p>Altitude maximale: 960 m</p><p>Vitesse d'élévation: 540,2 m/h</p><p>Vitesse de descente: -992,9 m/h</p><p>Gain Altitude: 1062 m</p><p>Perte Altitude: -1084 m</p><p>Temps d'élévation: 01:58</p><p>Temps de descente: 01:05</p><hr align="center" width="480" style="height: 2px; width: 517px"/>]]></desc>
    <trkseg>
      <trkpt lat="46.06948" lon="3.66591">
        <ele>544.553</ele>
        <time>2012-06-09T12:02:22Z</time>
      </trkpt>
      <trkpt lat="46.06966" lon="3.66604">
        <ele>541.5952</ele>
        <time>2012-06-09T12:06:22Z</time>
      </trkpt>
      <trkpt lat="46.06982" lon="3.66619">
        <ele>540.79266</ele>
        <time>2012-06-09T12:06:32Z</time>
      </trkpt>
      <trkpt lat="46.07001" lon="3.66634">
        <ele>539.553</ele>
        <time>2012-06-09T12:07:44Z</time>
      </trkpt>
      <trkpt lat="46.07015" lon="3.66654">
        <ele>539.553</ele>
        <time>2012-06-09T12:07:50Z</time>
      </trkpt>
      <trkpt lat="46.07026" lon="3.66679">
        <ele>539.9375</ele>
        <time>2012-06-09T12:07:56Z</time>
      </trkpt>
      <trkpt lat="46.07016" lon="3.66703">
        <ele>539.18396</ele>
        <time>2012-06-09T12:08:02Z</time>
      </trkpt>
      <trkpt lat="46.06999" lon="3.66714">
        <ele>538.0191</ele>
        <time>2012-06-09T12:08:07Z</time>
      </trkpt>
      <trkpt lat="46.0698" lon="3.66722">
        <ele>537.636</ele>
        <time>2012-06-09T12:08:13Z</time>
      </trkpt>
      <trkpt lat="46.06962" lon="3.66729">
        <ele>537.119</ele>
        <time>2012-06-09T12:08:24Z</time>
      </trkpt>
      <trkpt lat="46.06963" lon="3.66757">
        <ele>535.98834</ele>
        <time>2012-06-09T12:08:37Z</time>
      </trkpt>
      <trkpt lat="46.06978" lon="3.66772">
        <ele>534.9275</ele>
        <time>2012-06-09T12:08:44Z</time>
      </trkpt>
      <trkpt lat="46.06993" lon="3.66787">
        <ele>533.7976</ele>
        <time>2012-06-09T12:08:50Z</time>
      </trkpt>
      <trkpt lat="46.07008" lon="3.66804">
        <ele>532.82294</ele>
        <time>2012-06-09T12:08:57Z</time>
      </trkpt>
      <trkpt lat="46.07026" lon="3.66815">
        <ele>532.58</ele>
        <time>2012-06-09T12:09:05Z</time>
      </trkpt>
      <trkpt lat="46.07042" lon="3.66832">
        <ele>532.8057</ele>
        <time>2012-06-09T12:09:13Z</time>
      </trkpt>
      <trkpt lat="46.07053" lon="3.66855">
        <ele>533.4782</ele>
        <time>2012-06-09T12:09:21Z</time>
      </trkpt>
      <trkpt lat="46.07061" lon="3.66879">
        <ele>534.36505</ele>
        <time>2012-06-09T12:09:28Z</time>
      </trkpt>
      <trkpt lat="46.07068" lon="3.66903">
        <ele>536.04193</ele>
        <time>2012-06-09T12:09:37Z</time>
      </trkpt>
      <trkpt lat="46.07078" lon="3.66926">
        <ele>537.3367</ele>
        <time>2012-06-09T12:09:46Z</time>
      </trkpt>
      <trkpt lat="46.07075" lon="3.66952">
        <ele>539.2472</ele>
        <time>2012-06-09T12:09:56Z</time>
      </trkpt>
      <trkpt lat="46.07059" lon="3.66965">
        <ele>541.0331</ele>
        <time>2012-06-09T12:10:05Z</time>
      </trkpt>
      <trkpt lat="46.07043" lon="3.66978">
        <ele>542.1976</ele>
        <time>2012-06-09T12:10:14Z</time>
      </trkpt>
      <trkpt lat="46.07026" lon="3.66988">
        <ele>542.78296</ele>
        <time>2012-06-09T12:10:24Z</time>
      </trkpt>
      <trkpt lat="46.07009" lon="3.67001">
        <ele>544.08777</ele>
        <time>2012-06-09T12:10:34Z</time>
      </trkpt>
      <trkpt lat="46.06992" lon="3.67012">
        <ele>546.10156</ele>
        <time>2012-06-09T12:10:43Z</time>
      </trkpt>
      <trkpt lat="46.06974" lon="3.67016">
        <ele>547.98584</ele>
        <time>2012-06-09T12:10:51Z</time>
      </trkpt>
      <trkpt lat="46.06955" lon="3.67021">
        <ele>549.9551</ele>
        <time>2012-06-09T12:11:00Z</time>
      </trkpt>
      <trkpt lat="46.06934" lon="3.67021">
        <ele>551.5652</ele>
        <time>2012-06-09T12:11:08Z</time>
      </trkpt>
      <trkpt lat="46.06916" lon="3.67027">
        <ele>553.2415</ele>
        <time>2012-06-09T12:11:17Z</time>
      </trkpt>
      <trkpt lat="46.06898" lon="3.67036">
        <ele>555.1381</ele>
        <time>2012-06-09T12:11:26Z</time>
      </trkpt>
      <trkpt lat="46.06879" lon="3.6704">
        <ele>556.8337</ele>
        <time>2012-06-09T12:11:36Z</time>
      </trkpt>
      <trkpt lat="46.06859" lon="3.67046">
        <ele>559.6969</ele>
        <time>2012-06-09T12:11:46Z</time>
      </trkpt>
      <trkpt lat="46.06839" lon="3.67053">
        <ele>563.3277</ele>
        <time>2012-06-09T12:11:56Z</time>
      </trkpt>
      <trkpt lat="46.06821" lon="3.67053">
        <ele>565.63055</ele>
        <time>2012-06-09T12:12:04Z</time>
      </trkpt>
      <trkpt lat="46.06802" lon="3.67051">
        <ele>567.008</ele>
        <time>2012-06-09T12:12:11Z</time>
      </trkpt>
      <trkpt lat="46.06782" lon="3.67044">
        <ele>567.456</ele>
        <time>2012-06-09T12:12:17Z</time>
      </trkpt>
      <trkpt lat="46.06763" lon="3.67046">
        <ele>567.96747</ele>
        <time>2012-06-09T12:12:22Z</time>
      </trkpt>
      <trkpt lat="46.06743" lon="3.67055">
        <ele>568.91235</ele>
        <time>2012-06-09T12:12:29Z</time>
      </trkpt>
      <trkpt lat="46.06726" lon="3.67068">
        <ele>569.46747</ele>
        <time>2012-06-09T12:12:36Z</time>
      </trkpt>
      <trkpt lat="46.06708" lon="3.67081">
        <ele>569.5378</ele>
        <time>2012-06-09T12:12:42Z</time>
      </trkpt>
      <trkpt lat="46.06692" lon="3.67094">
        <ele>569.5494</ele>
        <time>2012-06-09T12:12:47Z</time>
      </trkpt>
      <trkpt lat="46.06674" lon="3.67113">
        <ele>569.9896</ele>
        <time>2012-06-09T12:12:52Z</time>
      </trkpt>
      <trkpt lat="46.06656" lon="3.67132">
        <ele>570.37476</ele>
        <time>2012-06-09T12:12:56Z</time>
      </trkpt>
      <trkpt lat="46.06641" lon="3.67149">
        <ele>570.4966</ele>
        <time>2012-06-09T12:13:00Z</time>
      </trkpt>
      <trkpt lat="46.06624" lon="3.67167">
        <ele>570.9771</ele>
        <time>2012-06-09T12:13:05Z</time>
      </trkpt>
      <trkpt lat="46.06606" lon="3.67182">
        <ele>572.0999</ele>
        <time>2012-06-09T12:13:10Z</time>
      </trkpt>
      <trkpt lat="46.0659" lon="3.67197">
        <ele>573.1291</ele>
        <time>2012-06-09T12:13:15Z</time>
      </trkpt>
      <trkpt lat="46.06575" lon="3.67214">
        <ele>574.16113</ele>
        <time>2012-06-09T12:13:21Z</time>
      </trkpt>
      <trkpt lat="46.06559" lon="3.67229">
        <ele>575.1669</ele>
        <time>2012-06-09T12:13:27Z</time>
      </trkpt>
      <trkpt lat="46.06544" lon="3.67246">
        <ele>575.46136</ele>
        <time>2012-06-09T12:13:32Z</time>
      </trkpt>
      <trkpt lat="46.0653" lon="3.67267">
        <ele>576.21484</ele>
        <time>2012-06-09T12:13:37Z</time>
      </trkpt>
      <trkpt lat="46.06516" lon="3.67289">
        <ele>577.2555</ele>
        <time>2012-06-09T12:13:43Z</time>
      </trkpt>
      <trkpt lat="46.06503" lon="3.6731">
        <ele>578.7728</ele>
        <time>2012-06-09T12:13:50Z</time>
      </trkpt>
      <trkpt lat="46.06492" lon="3.67334">
        <ele>580.027</ele>
        <time>2012-06-09T12:13:57Z</time>
      </trkpt>
      <trkpt lat="46.0648" lon="3.67355">
        <ele>581.5724</ele>
        <time>2012-06-09T12:14:05Z</time>
      </trkpt>
      <trkpt lat="46.06472" lon="3.67379">
        <ele>583.03296</ele>
        <time>2012-06-09T12:14:13Z</time>
      </trkpt>
      <trkpt lat="46.06464" lon="3.67403">
        <ele>584.8684</ele>
        <time>2012-06-09T12:14:24Z</time>
      </trkpt>
      <trkpt lat="46.06457" lon="3.67426">
        <ele>586.3906</ele>
        <time>2012-06-09T12:14:35Z</time>
      </trkpt>
      <trkpt lat="46.06445" lon="3.67448">
        <ele>588.2789</ele>
        <time>2012-06-09T12:14:47Z</time>
      </trkpt>
      <trkpt lat="46.06431" lon="3.67471">
        <ele>589.40405</ele>
        <time>2012-06-09T12:14:57Z</time>
      </trkpt>
      <trkpt lat="46.06418" lon="3.67491">
        <ele>590.09576</ele>
        <time>2012-06-09T12:15:02Z</time>
      </trkpt>
      <trkpt lat="46.06401" lon="3.67518">
        <ele>589.1427</ele>
        <time>2012-06-09T12:15:06Z</time>
      </trkpt>
      <trkpt lat="46.06389" lon="3.67544">
        <ele>587.208</ele>
        <time>2012-06-09T12:15:09Z</time>
      </trkpt>
      <trkpt lat="46.06376" lon="3.6757">
        <ele>585.4231</ele>
        <time>2012-06-09T12:15:12Z</time>
      </trkpt>
      <trkpt lat="46.06365" lon="3.67591">
        <ele>584.0919</ele>
        <time>2012-06-09T12:15:15Z</time>
      </trkpt>
      <trkpt lat="46.06352" lon="3.67611">
        <ele>582.6024</ele>
        <time>2012-06-09T12:15:19Z</time>
      </trkpt>
      <trkpt lat="46.06336" lon="3.6763">
        <ele>581.4081</ele>
        <time>2012-06-09T12:15:27Z</time>
      </trkpt>
      <trkpt lat="46.06321" lon="3.67649">
        <ele>580.1778</ele>
        <time>2012-06-09T12:15:32Z</time>
      </trkpt>
      <trkpt lat="46.06307" lon="3.67669">
        <ele>578.40466</ele>
        <time>2012-06-09T12:15:38Z</time>
      </trkpt>
      <trkpt lat="46.06292" lon="3.67688">
        <ele>577.2671</ele>
        <time>2012-06-09T12:15:44Z</time>
      </trkpt>
      <trkpt lat="46.06278" lon="3.67709">
        <ele>576.285</ele>
        <time>2012-06-09T12:15:49Z</time>
      </trkpt>
      <trkpt lat="46.06264" lon="3.67733">
        <ele>575.7267</ele>
        <time>2012-06-09T12:15:54Z</time>
      </trkpt>
      <trkpt lat="46.06249" lon="3.67754">
        <ele>575.59424</ele>
        <time>2012-06-09T12:15:59Z</time>
      </trkpt>
      <trkpt lat="46.06233" lon="3.67776">
        <ele>575.17584</ele>
        <time>2012-06-09T12:16:05Z</time>
      </trkpt>
      <trkpt lat="46.06218" lon="3.67795">
        <ele>575.48584</ele>
        <time>2012-06-09T12:16:11Z</time>
      </trkpt>
      <trkpt lat="46.06203" lon="3.67815">
        <ele>575.5411</ele>
        <time>2012-06-09T12:16:17Z</time>
      </trkpt>
      <trkpt lat="46.06187" lon="3.67832">
        <ele>576.12994</ele>
        <time>2012-06-09T12:16:25Z</time>
      </trkpt>
      <trkpt lat="46.06166" lon="3.67853">
        <ele>576.78516</ele>
        <time>2012-06-09T12:16:36Z</time>
      </trkpt>
      <trkpt lat="46.06151" lon="3.67868">
        <ele>577.553</ele>
        <time>2012-06-09T12:17:41Z</time>
      </trkpt>
      <trkpt lat="46.06134" lon="3.67887">
        <ele>576.97485</ele>
        <time>2012-06-09T12:17:45Z</time>
      </trkpt>
      <trkpt lat="46.0612" lon="3.67907">
        <ele>576.075</ele>
        <time>2012-06-09T12:17:50Z</time>
      </trkpt>
      <trkpt lat="46.06103" lon="3.67924">
        <ele>574.4457</ele>
        <time>2012-06-09T12:17:56Z</time>
      </trkpt>
      <trkpt lat="46.06086" lon="3.67948">
        <ele>566.132</ele>
        <time>2012-06-09T12:18:01Z</time>
      </trkpt>
      <trkpt lat="46.06072" lon="3.67971">
        <ele>561.64105</ele>
        <time>2012-06-09T12:18:04Z</time>
      </trkpt>
      <trkpt lat="46.06062" lon="3.68003">
        <ele>558.012</ele>
        <time>2012-06-09T12:18:07Z</time>
      </trkpt>
      <trkpt lat="46.0605" lon="3.68029">
        <ele>555.57477</ele>
        <time>2012-06-09T12:18:10Z</time>
      </trkpt>
      <trkpt lat="46.0604" lon="3.68051">
        <ele>553.8278</ele>
        <time>2012-06-09T12:18:13Z</time>
      </trkpt>
      <trkpt lat="46.06025" lon="3.68068">
        <ele>551.8252</ele>
        <time>2012-06-09T12:18:16Z</time>
      </trkpt>
      <trkpt lat="46.06009" lon="3.68087">
        <ele>549.496</ele>
        <time>2012-06-09T12:18:19Z</time>
      </trkpt>
      <trkpt lat="46.05991" lon="3.68104">
        <ele>547.79456</ele>
        <time>2012-06-09T12:18:22Z</time>
      </trkpt>
      <trkpt lat="46.05971" lon="3.68117">
        <ele>547.0768</ele>
        <time>2012-06-09T12:18:25Z</time>
      </trkpt>
      <trkpt lat="46.05947" lon="3.68113">
        <ele>545.25836</ele>
        <time>2012-06-09T12:18:28Z</time>
      </trkpt>
      <trkpt lat="46.05924" lon="3.68115">
        <ele>542.4287</ele>
        <time>2012-06-09T12:18:31Z</time>
      </trkpt>
      <trkpt lat="46.05899" lon="3.68119">
        <ele>541.12555</ele>
        <time>2012-06-09T12:18:34Z</time>
      </trkpt>
      <trkpt lat="46.05881" lon="3.68121">
        <ele>542.25006</ele>
        <time>2012-06-09T12:18:36Z</time>
      </trkpt>
      <trkpt lat="46.05855" lon="3.68132">
        <ele>544.59705</ele>
        <time>2012-06-09T12:18:39Z</time>
      </trkpt>
      <trkpt lat="46.05831" lon="3.68149">
        <ele>546.99347</ele>
        <time>2012-06-09T12:18:42Z</time>
      </trkpt>
      <trkpt lat="46.0581" lon="3.68166">
        <ele>550.31696</ele>
        <time>2012-06-09T12:18:45Z</time>
      </trkpt>
      <trkpt lat="46.05788" lon="3.68173">
        <ele>554.9941</ele>
        <time>2012-06-09T12:18:50Z</time>
      </trkpt>
      <trkpt lat="46.05767" lon="3.68181">
        <ele>558.0268</ele>
        <time>2012-06-09T12:18:55Z</time>
      </trkpt>
      <trkpt lat="46.05746" lon="3.68186">
        <ele>561.5444</ele>
        <time>2012-06-09T12:19:00Z</time>
      </trkpt>
      <trkpt lat="46.05728" lon="3.68196">
        <ele>562.9174</ele>
        <time>2012-06-09T12:19:04Z</time>
      </trkpt>
      <trkpt lat="46.05711" lon="3.68205">
        <ele>563.3519</ele>
        <time>2012-06-09T12:19:08Z</time>
      </trkpt>
      <trkpt lat="46.05694" lon="3.68216">
        <ele>563.4894</ele>
        <time>2012-06-09T12:19:12Z</time>
      </trkpt>
      <trkpt lat="46.05675" lon="3.68224">
        <ele>563.5379</ele>
        <time>2012-06-09T12:19:17Z</time>
      </trkpt>
      <trkpt lat="46.05654" lon="3.68227">
        <ele>563.55096</ele>
        <time>2012-06-09T12:19:24Z</time>
      </trkpt>
      <trkpt lat="46.05636" lon="3.68229">
        <ele>563.99005</ele>
        <time>2012-06-09T12:19:29Z</time>
      </trkpt>
      <trkpt lat="46.05618" lon="3.68235">
        <ele>564.4194</ele>
        <time>2012-06-09T12:19:34Z</time>
      </trkpt>
      <trkpt lat="46.05601" lon="3.68246">
        <ele>564.53516</ele>
        <time>2012-06-09T12:19:41Z</time>
      </trkpt>
      <trkpt lat="46.05576" lon="3.68263">
        <ele>565.7459</ele>
        <time>2012-06-09T12:19:52Z</time>
      </trkpt>
      <trkpt lat="46.05559" lon="3.68272">
        <ele>566.44525</ele>
        <time>2012-06-09T12:19:59Z</time>
      </trkpt>
      <trkpt lat="46.05537" lon="3.68276">
        <ele>567.984</ele>
        <time>2012-06-09T12:20:05Z</time>
      </trkpt>
      <trkpt lat="46.05517" lon="3.68272">
        <ele>570.4424</ele>
        <time>2012-06-09T12:20:10Z</time>
      </trkpt>
      <trkpt lat="46.05498" lon="3.68263">
        <ele>572.3021</ele>
        <time>2012-06-09T12:20:15Z</time>
      </trkpt>
      <trkpt lat="46.05477" lon="3.68252">
        <ele>573.25616</ele>
        <time>2012-06-09T12:20:20Z</time>
      </trkpt>
      <trkpt lat="46.05457" lon="3.68244">
        <ele>574.06067</ele>
        <time>2012-06-09T12:20:25Z</time>
      </trkpt>
      <trkpt lat="46.0544" lon="3.68235">
        <ele>574.8347</ele>
        <time>2012-06-09T12:20:29Z</time>
      </trkpt>
      <trkpt lat="46.0542" lon="3.68224">
        <ele>575.38257</ele>
        <time>2012-06-09T12:20:34Z</time>
      </trkpt>
      <trkpt lat="46.05401" lon="3.68216">
        <ele>575.5126</ele>
        <time>2012-06-09T12:20:39Z</time>
      </trkpt>
      <trkpt lat="46.05381" lon="3.68209">
        <ele>575.5434</ele>
        <time>2012-06-09T12:20:44Z</time>
      </trkpt>
      <trkpt lat="46.05361" lon="3.68205">
        <ele>574.9726</ele>
        <time>2012-06-09T12:20:49Z</time>
      </trkpt>
      <trkpt lat="46.05342" lon="3.68201">
        <ele>574.6526</ele>
        <time>2012-06-09T12:20:54Z</time>
      </trkpt>
      <trkpt lat="46.05321" lon="3.68196">
        <ele>575.1547</ele>
        <time>2012-06-09T12:20:59Z</time>
      </trkpt>
      <trkpt lat="46.053" lon="3.68192">
        <ele>574.7749</ele>
        <time>2012-06-09T12:21:04Z</time>
      </trkpt>
      <trkpt lat="46.0528" lon="3.6819">
        <ele>574.60565</ele>
        <time>2012-06-09T12:21:09Z</time>
      </trkpt>
      <trkpt lat="46.05258" lon="3.6819">
        <ele>574.5624</ele>
        <time>2012-06-09T12:21:15Z</time>
      </trkpt>
      <trkpt lat="46.05239" lon="3.68188">
        <ele>575.92633</ele>
        <time>2012-06-09T12:21:20Z</time>
      </trkpt>
      <trkpt lat="46.05219" lon="3.68184">
        <ele>578.5078</ele>
        <time>2012-06-09T12:21:25Z</time>
      </trkpt>
      <trkpt lat="46.05199" lon="3.68179">
        <ele>580.3177</ele>
        <time>2012-06-09T12:21:30Z</time>
      </trkpt>
      <trkpt lat="46.0518" lon="3.68173">
        <ele>581.2598</ele>
        <time>2012-06-09T12:21:35Z</time>
      </trkpt>
      <trkpt lat="46.05162" lon="3.68166">
        <ele>581.48346</ele>
        <time>2012-06-09T12:21:40Z</time>
      </trkpt>
      <trkpt lat="46.05143" lon="3.68164">
        <ele>581.099</ele>
        <time>2012-06-09T12:21:45Z</time>
      </trkpt>
      <trkpt lat="46.05121" lon="3.68164">
        <ele>580.35443</ele>
        <time>2012-06-09T12:21:50Z</time>
      </trkpt>
      <trkpt lat="46.05115" lon="3.6819">
        <ele>580.50586</ele>
        <time>2012-06-09T12:21:55Z</time>
      </trkpt>
      <trkpt lat="46.05107" lon="3.68214">
        <ele>580.5381</ele>
        <time>2012-06-09T12:21:59Z</time>
      </trkpt>
      <trkpt lat="46.051" lon="3.68239">
        <ele>579.97015</ele>
        <time>2012-06-09T12:22:03Z</time>
      </trkpt>
      <trkpt lat="46.05092" lon="3.68269">
        <ele>579.402</ele>
        <time>2012-06-09T12:22:08Z</time>
      </trkpt>
      <trkpt lat="46.05101" lon="3.68297">
        <ele>578.17633</ele>
        <time>2012-06-09T12:22:13Z</time>
      </trkpt>
      <trkpt lat="46.05116" lon="3.68321">
        <ele>576.68823</ele>
        <time>2012-06-09T12:22:18Z</time>
      </trkpt>
      <trkpt lat="46.05123" lon="3.68345">
        <ele>575.8224</ele>
        <time>2012-06-09T12:22:23Z</time>
      </trkpt>
      <trkpt lat="46.05137" lon="3.68364">
        <ele>575.589</ele>
        <time>2012-06-09T12:22:30Z</time>
      </trkpt>
      <trkpt lat="46.05157" lon="3.68372">
        <ele>576.42224</ele>
        <time>2012-06-09T12:22:39Z</time>
      </trkpt>
      <trkpt lat="46.05173" lon="3.68387">
        <ele>576.098</ele>
        <time>2012-06-09T12:22:46Z</time>
      </trkpt>
      <trkpt lat="46.05188" lon="3.68405">
        <ele>575.62573</ele>
        <time>2012-06-09T12:22:53Z</time>
      </trkpt>
      <trkpt lat="46.05208" lon="3.68424">
        <ele>575.5603</ele>
        <time>2012-06-09T12:23:01Z</time>
      </trkpt>
      <trkpt lat="46.05222" lon="3.68441">
        <ele>574.87115</ele>
        <time>2012-06-09T12:23:06Z</time>
      </trkpt>
      <trkpt lat="46.05235" lon="3.68465">
        <ele>574.6096</ele>
        <time>2012-06-09T12:23:12Z</time>
      </trkpt>
      <trkpt lat="46.05247" lon="3.68486">
        <ele>574.5664</ele>
        <time>2012-06-09T12:23:17Z</time>
      </trkpt>
      <trkpt lat="46.05265" lon="3.68514">
        <ele>575.6713</ele>
        <time>2012-06-09T12:23:24Z</time>
      </trkpt>
      <trkpt lat="46.05278" lon="3.68536">
        <ele>576.64606</ele>
        <time>2012-06-09T12:23:30Z</time>
      </trkpt>
      <trkpt lat="46.05293" lon="3.68559">
        <ele>578.3252</ele>
        <time>2012-06-09T12:23:36Z</time>
      </trkpt>
      <trkpt lat="46.05306" lon="3.68578">
        <ele>580.26807</ele>
        <time>2012-06-09T12:23:42Z</time>
      </trkpt>
      <trkpt lat="46.05322" lon="3.686">
        <ele>581.6744</ele>
        <time>2012-06-09T12:23:50Z</time>
      </trkpt>
      <trkpt lat="46.05338" lon="3.68621">
        <ele>583.8322</ele>
        <time>2012-06-09T12:23:58Z</time>
      </trkpt>
      <trkpt lat="46.05353" lon="3.68643">
        <ele>585.18744</ele>
        <time>2012-06-09T12:24:04Z</time>
      </trkpt>
      <trkpt lat="46.05364" lon="3.68664">
        <ele>585.4879</ele>
        <time>2012-06-09T12:24:10Z</time>
      </trkpt>
      <trkpt lat="46.05379" lon="3.68679">
        <ele>584.77875</ele>
        <time>2012-06-09T12:24:16Z</time>
      </trkpt>
      <trkpt lat="46.05396" lon="3.6869">
        <ele>584.60657</ele>
        <time>2012-06-09T12:24:21Z</time>
      </trkpt>
      <trkpt lat="46.05412" lon="3.68709">
        <ele>583.88635</ele>
        <time>2012-06-09T12:24:25Z</time>
      </trkpt>
      <trkpt lat="46.0543" lon="3.68726">
        <ele>582.53735</ele>
        <time>2012-06-09T12:24:29Z</time>
      </trkpt>
      <trkpt lat="46.05449" lon="3.68742">
        <ele>582.30194</ele>
        <time>2012-06-09T12:24:33Z</time>
      </trkpt>
      <trkpt lat="46.05463" lon="3.68761">
        <ele>582.4736</ele>
        <time>2012-06-09T12:24:37Z</time>
      </trkpt>
      <trkpt lat="46.05473" lon="3.68793">
        <ele>582.9654</ele>
        <time>2012-06-09T12:24:41Z</time>
      </trkpt>
      <trkpt lat="46.05482" lon="3.68817">
        <ele>583.3051</ele>
        <time>2012-06-09T12:24:44Z</time>
      </trkpt>
      <trkpt lat="46.05486" lon="3.68842">
        <ele>582.7609</ele>
        <time>2012-06-09T12:24:47Z</time>
      </trkpt>
      <trkpt lat="46.05482" lon="3.6887">
        <ele>581.2516</ele>
        <time>2012-06-09T12:24:51Z</time>
      </trkpt>
      <trkpt lat="46.05473" lon="3.689">
        <ele>582.14514</ele>
        <time>2012-06-09T12:24:55Z</time>
      </trkpt>
      <trkpt lat="46.05461" lon="3.68928">
        <ele>584.36926</ele>
        <time>2012-06-09T12:24:59Z</time>
      </trkpt>
      <trkpt lat="46.05445" lon="3.68943">
        <ele>584.92847</ele>
        <time>2012-06-09T12:25:03Z</time>
      </trkpt>
      <trkpt lat="46.05424" lon="3.68952">
        <ele>584.06396</ele>
        <time>2012-06-09T12:25:08Z</time>
      </trkpt>
      <trkpt lat="46.05404" lon="3.68954">
        <ele>583.67426</ele>
        <time>2012-06-09T12:25:13Z</time>
      </trkpt>
      <trkpt lat="46.05385" lon="3.68958">
        <ele>583.5818</ele>
        <time>2012-06-09T12:25:18Z</time>
      </trkpt>
      <trkpt lat="46.05364" lon="3.6896">
        <ele>583.5581</ele>
        <time>2012-06-09T12:25:24Z</time>
      </trkpt>
      <trkpt lat="46.05344" lon="3.68963">
        <ele>582.9761</ele>
        <time>2012-06-09T12:25:29Z</time>
      </trkpt>
      <trkpt lat="46.05326" lon="3.68965">
        <ele>582.6534</ele>
        <time>2012-06-09T12:25:34Z</time>
      </trkpt>
      <trkpt lat="46.05307" lon="3.68967">
        <ele>582.57086</ele>
        <time>2012-06-09T12:25:40Z</time>
      </trkpt>
      <trkpt lat="46.05286" lon="3.68973">
        <ele>582.55615</ele>
        <time>2012-06-09T12:25:46Z</time>
      </trkpt>
      <trkpt lat="46.05271" lon="3.68988">
        <ele>582.5536</ele>
        <time>2012-06-09T12:25:52Z</time>
      </trkpt>
      <trkpt lat="46.05269" lon="3.69014">
        <ele>583.3158</ele>
        <time>2012-06-09T12:25:59Z</time>
      </trkpt>
      <trkpt lat="46.05282" lon="3.69035">
        <ele>584.2735</ele>
        <time>2012-06-09T12:26:05Z</time>
      </trkpt>
      <trkpt lat="46.05296" lon="3.69055">
        <ele>585.1703</ele>
        <time>2012-06-09T12:26:10Z</time>
      </trkpt>
      <trkpt lat="46.05311" lon="3.6907">
        <ele>586.14575</ele>
        <time>2012-06-09T12:26:15Z</time>
      </trkpt>
      <trkpt lat="46.05328" lon="3.69087">
        <ele>588.8392</ele>
        <time>2012-06-09T12:26:20Z</time>
      </trkpt>
      <trkpt lat="46.05343" lon="3.69102">
        <ele>590.1463</ele>
        <time>2012-06-09T12:26:25Z</time>
      </trkpt>
      <trkpt lat="46.05358" lon="3.69117">
        <ele>590.4565</ele>
        <time>2012-06-09T12:26:30Z</time>
      </trkpt>
      <trkpt lat="46.05375" lon="3.69136">
        <ele>590.5301</ele>
        <time>2012-06-09T12:26:35Z</time>
      </trkpt>
      <trkpt lat="46.05389" lon="3.6916">
        <ele>590.54895</ele>
        <time>2012-06-09T12:26:41Z</time>
      </trkpt>
      <trkpt lat="46.05386" lon="3.69186">
        <ele>590.80225</ele>
        <time>2012-06-09T12:26:47Z</time>
      </trkpt>
      <trkpt lat="46.05372" lon="3.69207">
        <ele>591.72784</ele>
        <time>2012-06-09T12:26:55Z</time>
      </trkpt>
      <trkpt lat="46.05357" lon="3.69226">
        <ele>592.4429</ele>
        <time>2012-06-09T12:27:02Z</time>
      </trkpt>
      <trkpt lat="46.05343" lon="3.69246">
        <ele>593.2961</ele>
        <time>2012-06-09T12:27:08Z</time>
      </trkpt>
      <trkpt lat="46.05328" lon="3.69263">
        <ele>593.94476</ele>
        <time>2012-06-09T12:27:14Z</time>
      </trkpt>
      <trkpt lat="46.05312" lon="3.6928">
        <ele>594.44476</ele>
        <time>2012-06-09T12:27:20Z</time>
      </trkpt>
      <trkpt lat="46.05297" lon="3.69299">
        <ele>595.21735</ele>
        <time>2012-06-09T12:27:26Z</time>
      </trkpt>
      <trkpt lat="46.05281" lon="3.69317">
        <ele>595.4933</ele>
        <time>2012-06-09T12:27:32Z</time>
      </trkpt>
      <trkpt lat="46.05293" lon="3.69338">
        <ele>603.45135</ele>
        <time>2012-06-09T12:27:54Z</time>
      </trkpt>
      <trkpt lat="46.05313" lon="3.69338">
        <ele>606.823</ele>
        <time>2012-06-09T12:28:00Z</time>
      </trkpt>
      <trkpt lat="46.05332" lon="3.69329">
        <ele>605.69617</ele>
        <time>2012-06-09T12:28:05Z</time>
      </trkpt>
      <trkpt lat="46.05352" lon="3.69329">
        <ele>596.1661</ele>
        <time>2012-06-09T12:28:10Z</time>
      </trkpt>
      <trkpt lat="46.05371" lon="3.69338">
        <ele>590.1145</ele>
        <time>2012-06-09T12:28:16Z</time>
      </trkpt>
      <trkpt lat="46.05392" lon="3.69344">
        <ele>579.5153</ele>
        <time>2012-06-09T12:28:21Z</time>
      </trkpt>
      <trkpt lat="46.05409" lon="3.69353">
        <ele>573.209</ele>
        <time>2012-06-09T12:28:24Z</time>
      </trkpt>
      <trkpt lat="46.05428" lon="3.69364">
        <ele>568.9235</ele>
        <time>2012-06-09T12:28:27Z</time>
      </trkpt>
      <trkpt lat="46.05451" lon="3.69375">
        <ele>566.7249</ele>
        <time>2012-06-09T12:28:30Z</time>
      </trkpt>
      <trkpt lat="46.05472" lon="3.69381">
        <ele>565.4693</ele>
        <time>2012-06-09T12:28:33Z</time>
      </trkpt>
      <trkpt lat="46.05493" lon="3.69387">
        <ele>565.3771</ele>
        <time>2012-06-09T12:28:36Z</time>
      </trkpt>
      <trkpt lat="46.05518" lon="3.69392">
        <ele>564.90063</ele>
        <time>2012-06-09T12:28:39Z</time>
      </trkpt>
      <trkpt lat="46.05543" lon="3.69394">
        <ele>564.44965</ele>
        <time>2012-06-09T12:28:42Z</time>
      </trkpt>
      <trkpt lat="46.05566" lon="3.69402">
        <ele>563.15314</ele>
        <time>2012-06-09T12:28:46Z</time>
      </trkpt>
      <trkpt lat="46.05585" lon="3.69411">
        <ele>563.3843</ele>
        <time>2012-06-09T12:28:49Z</time>
      </trkpt>
      <trkpt lat="46.05603" lon="3.6942">
        <ele>563.9193</ele>
        <time>2012-06-09T12:28:52Z</time>
      </trkpt>
      <trkpt lat="46.0562" lon="3.6943">
        <ele>565.3638</ele>
        <time>2012-06-09T12:28:55Z</time>
      </trkpt>
      <trkpt lat="46.05639" lon="3.69441">
        <ele>567.4576</ele>
        <time>2012-06-09T12:28:58Z</time>
      </trkpt>
      <trkpt lat="46.05655" lon="3.69454">
        <ele>568.419</ele>
        <time>2012-06-09T12:29:01Z</time>
      </trkpt>
      <trkpt lat="46.05679" lon="3.69458">
        <ele>567.1395</ele>
        <time>2012-06-09T12:29:05Z</time>
      </trkpt>
      <trkpt lat="46.05703" lon="3.69462">
        <ele>563.77765</ele>
        <time>2012-06-09T12:29:09Z</time>
      </trkpt>
      <trkpt lat="46.05721" lon="3.69467">
        <ele>560.64777</ele>
        <time>2012-06-09T12:29:12Z</time>
      </trkpt>
      <trkpt lat="46.05742" lon="3.69471">
        <ele>557.2747</ele>
        <time>2012-06-09T12:29:17Z</time>
      </trkpt>
      <trkpt lat="46.05762" lon="3.69475">
        <ele>554.5537</ele>
        <time>2012-06-09T12:29:28Z</time>
      </trkpt>
      <trkpt lat="46.05782" lon="3.69475">
        <ele>552.7975</ele>
        <time>2012-06-09T12:29:34Z</time>
      </trkpt>
      <trkpt lat="46.05803" lon="3.69467">
        <ele>551.3731</ele>
        <time>2012-06-09T12:29:44Z</time>
      </trkpt>
      <trkpt lat="46.05823" lon="3.69458">
        <ele>550.6625</ele>
        <time>2012-06-09T12:29:51Z</time>
      </trkpt>
      <trkpt lat="46.05843" lon="3.69462">
        <ele>550.1415</ele>
        <time>2012-06-09T12:29:56Z</time>
      </trkpt>
      <trkpt lat="46.05862" lon="3.69469">
        <ele>549.6926</ele>
        <time>2012-06-09T12:30:01Z</time>
      </trkpt>
      <trkpt lat="46.05882" lon="3.69475">
        <ele>549.5779</ele>
        <time>2012-06-09T12:30:07Z</time>
      </trkpt>
      <trkpt lat="46.05901" lon="3.69482">
        <ele>549.31085</ele>
        <time>2012-06-09T12:30:11Z</time>
      </trkpt>
      <trkpt lat="46.05925" lon="3.69493">
        <ele>548.43524</ele>
        <time>2012-06-09T12:30:14Z</time>
      </trkpt>
      <trkpt lat="46.05942" lon="3.69501">
        <ele>548.04926</ele>
        <time>2012-06-09T12:30:16Z</time>
      </trkpt>
      <trkpt lat="46.05965" lon="3.69516">
        <ele>547.7623</ele>
        <time>2012-06-09T12:30:19Z</time>
      </trkpt>
      <trkpt lat="46.05985" lon="3.69535">
        <ele>547.6413</ele>
        <time>2012-06-09T12:30:22Z</time>
      </trkpt>
      <trkpt lat="46.05994" lon="3.69559">
        <ele>547.7778</ele>
        <time>2012-06-09T12:30:25Z</time>
      </trkpt>
      <trkpt lat="46.06006" lon="3.69583">
        <ele>546.8436</ele>
        <time>2012-06-09T12:30:30Z</time>
      </trkpt>
      <trkpt lat="46.06019" lon="3.69604">
        <ele>545.5198</ele>
        <time>2012-06-09T12:30:37Z</time>
      </trkpt>
      <trkpt lat="46.06029" lon="3.69628">
        <ele>544.3449</ele>
        <time>2012-06-09T12:30:42Z</time>
      </trkpt>
      <trkpt lat="46.06038" lon="3.69653">
        <ele>542.87195</ele>
        <time>2012-06-09T12:30:48Z</time>
      </trkpt>
      <trkpt lat="46.06046" lon="3.69679">
        <ele>541.8329</ele>
        <time>2012-06-09T12:30:55Z</time>
      </trkpt>
      <trkpt lat="46.06048" lon="3.69705">
        <ele>540.8183</ele>
        <time>2012-06-09T12:31:03Z</time>
      </trkpt>
      <trkpt lat="46.06045" lon="3.69731">
        <ele>539.6643</ele>
        <time>2012-06-09T12:31:14Z</time>
      </trkpt>
      <trkpt lat="46.06044" lon="3.69759">
        <ele>541.54584</ele>
        <time>2012-06-09T12:34:02Z</time>
      </trkpt>
      <trkpt lat="46.06046" lon="3.69784">
        <ele>542.4963</ele>
        <time>2012-06-09T12:34:12Z</time>
      </trkpt>
      <trkpt lat="46.06051" lon="3.6981">
        <ele>543.47363</ele>
        <time>2012-06-09T12:34:21Z</time>
      </trkpt>
      <trkpt lat="46.06058" lon="3.69836">
        <ele>544.4136</ele>
        <time>2012-06-09T12:34:30Z</time>
      </trkpt>
      <trkpt lat="46.06062" lon="3.69864">
        <ele>545.3611</ele>
        <time>2012-06-09T12:34:38Z</time>
      </trkpt>
      <trkpt lat="46.06064" lon="3.69889">
        <ele>545.9713</ele>
        <time>2012-06-09T12:34:46Z</time>
      </trkpt>
      <trkpt lat="46.06067" lon="3.69915">
        <ele>546.47534</ele>
        <time>2012-06-09T12:34:53Z</time>
      </trkpt>
      <trkpt lat="46.06068" lon="3.69943">
        <ele>547.3647</ele>
        <time>2012-06-09T12:35:00Z</time>
      </trkpt>
      <trkpt lat="46.06071" lon="3.69969">
        <ele>548.20306</ele>
        <time>2012-06-09T12:35:06Z</time>
      </trkpt>
      <trkpt lat="46.06084" lon="3.6999">
        <ele>548.4907</ele>
        <time>2012-06-09T12:35:12Z</time>
      </trkpt>
      <trkpt lat="46.06102" lon="3.69984">
        <ele>549.36395</ele>
        <time>2012-06-09T12:35:18Z</time>
      </trkpt>
      <trkpt lat="46.06119" lon="3.69969">
        <ele>549.53406</ele>
        <time>2012-06-09T12:35:26Z</time>
      </trkpt>
      <trkpt lat="46.06135" lon="3.69956">
        <ele>550.31464</ele>
        <time>2012-06-09T12:35:36Z</time>
      </trkpt>
      <trkpt lat="46.06148" lon="3.69975">
        <ele>550.5429</ele>
        <time>2012-06-09T12:35:47Z</time>
      </trkpt>
      <trkpt lat="46.06137" lon="3.69997">
        <ele>550.55164</ele>
        <time>2012-06-09T12:35:54Z</time>
      </trkpt>
      <trkpt lat="46.06124" lon="3.70018">
        <ele>549.0749</ele>
        <time>2012-06-09T12:36:03Z</time>
      </trkpt>
      <trkpt lat="46.06117" lon="3.70044">
        <ele>546.5052</ele>
        <time>2012-06-09T12:36:11Z</time>
      </trkpt>
      <trkpt lat="46.06105" lon="3.7007">
        <ele>543.96686</ele>
        <time>2012-06-09T12:36:17Z</time>
      </trkpt>
      <trkpt lat="46.06089" lon="3.70093">
        <ele>532.21564</ele>
        <time>2012-06-09T12:36:22Z</time>
      </trkpt>
      <trkpt lat="46.06068" lon="3.70113">
        <ele>523.0791</ele>
        <time>2012-06-09T12:36:26Z</time>
      </trkpt>
      <trkpt lat="46.0605" lon="3.7013">
        <ele>518.0406</ele>
        <time>2012-06-09T12:36:29Z</time>
      </trkpt>
      <trkpt lat="46.06034" lon="3.70147">
        <ele>514.18054</ele>
        <time>2012-06-09T12:36:32Z</time>
      </trkpt>
      <trkpt lat="46.06019" lon="3.70166">
        <ele>508.88046</ele>
        <time>2012-06-09T12:36:36Z</time>
      </trkpt>
      <trkpt lat="46.06031" lon="3.70188">
        <ele>503.3278</ele>
        <time>2012-06-09T12:36:50Z</time>
      </trkpt>
      <trkpt lat="46.06013" lon="3.70196">
        <ele>498.82742</ele>
        <time>2012-06-09T12:38:25Z</time>
      </trkpt>
      <trkpt lat="46.05993" lon="3.70207">
        <ele>497.2856</ele>
        <time>2012-06-09T12:38:32Z</time>
      </trkpt>
      <trkpt lat="46.05975" lon="3.70229">
        <ele>495.9633</ele>
        <time>2012-06-09T12:38:39Z</time>
      </trkpt>
      <trkpt lat="46.05961" lon="3.70246">
        <ele>493.05423</ele>
        <time>2012-06-09T12:38:42Z</time>
      </trkpt>
      <trkpt lat="46.05947" lon="3.70263">
        <ele>490.20197</ele>
        <time>2012-06-09T12:38:45Z</time>
      </trkpt>
      <trkpt lat="46.0593" lon="3.70286">
        <ele>487.45755</ele>
        <time>2012-06-09T12:38:49Z</time>
      </trkpt>
      <trkpt lat="46.05914" lon="3.70306">
        <ele>485.4681</ele>
        <time>2012-06-09T12:38:53Z</time>
      </trkpt>
      <trkpt lat="46.05897" lon="3.70323">
        <ele>484.40897</ele>
        <time>2012-06-09T12:38:57Z</time>
      </trkpt>
      <trkpt lat="46.05878" lon="3.7034">
        <ele>484.50742</ele>
        <time>2012-06-09T12:39:01Z</time>
      </trkpt>
      <trkpt lat="46.05861" lon="3.70355">
        <ele>484.09628</ele>
        <time>2012-06-09T12:39:04Z</time>
      </trkpt>
      <trkpt lat="46.05841" lon="3.70372">
        <ele>483.28738</ele>
        <time>2012-06-09T12:39:08Z</time>
      </trkpt>
      <trkpt lat="46.05826" lon="3.70387">
        <ele>482.86282</ele>
        <time>2012-06-09T12:39:11Z</time>
      </trkpt>
      <trkpt lat="46.05808" lon="3.704">
        <ele>483.22916</ele>
        <time>2012-06-09T12:39:15Z</time>
      </trkpt>
      <trkpt lat="46.05786" lon="3.70404">
        <ele>483.88803</ele>
        <time>2012-06-09T12:39:19Z</time>
      </trkpt>
      <trkpt lat="46.05767" lon="3.70407">
        <ele>484.92072</ele>
        <time>2012-06-09T12:39:23Z</time>
      </trkpt>
      <trkpt lat="46.05749" lon="3.70415">
        <ele>485.40295</ele>
        <time>2012-06-09T12:39:28Z</time>
      </trkpt>
      <trkpt lat="46.05732" lon="3.70428">
        <ele>487.89224</ele>
        <time>2012-06-09T12:39:32Z</time>
      </trkpt>
      <trkpt lat="46.05716" lon="3.70445">
        <ele>491.22284</ele>
        <time>2012-06-09T12:39:36Z</time>
      </trkpt>
      <trkpt lat="46.05699" lon="3.7046">
        <ele>492.56573</ele>
        <time>2012-06-09T12:39:40Z</time>
      </trkpt>
      <trkpt lat="46.0568" lon="3.70473">
        <ele>492.99454</ele>
        <time>2012-06-09T12:39:44Z</time>
      </trkpt>
      <trkpt lat="46.05664" lon="3.70486">
        <ele>493.37628</ele>
        <time>2012-06-09T12:39:48Z</time>
      </trkpt>
      <trkpt lat="46.05648" lon="3.70499">
        <ele>492.91898</ele>
        <time>2012-06-09T12:39:52Z</time>
      </trkpt>
      <trkpt lat="46.05633" lon="3.70514">
        <ele>491.7352</ele>
        <time>2012-06-09T12:39:56Z</time>
      </trkpt>
      <trkpt lat="46.05615" lon="3.70529">
        <ele>490.48956</ele>
        <time>2012-06-09T12:40:00Z</time>
      </trkpt>
      <trkpt lat="46.05596" lon="3.70544">
        <ele>489.16574</ele>
        <time>2012-06-09T12:40:04Z</time>
      </trkpt>
      <trkpt lat="46.0558" lon="3.70557">
        <ele>488.8115</ele>
        <time>2012-06-09T12:40:07Z</time>
      </trkpt>
      <trkpt lat="46.0556" lon="3.70572">
        <ele>487.9512</ele>
        <time>2012-06-09T12:40:11Z</time>
      </trkpt>
      <trkpt lat="46.0554" lon="3.70587">
        <ele>486.9954</ele>
        <time>2012-06-09T12:40:15Z</time>
      </trkpt>
      <trkpt lat="46.0552" lon="3.70602">
        <ele>486.69296</ele>
        <time>2012-06-09T12:40:19Z</time>
      </trkpt>
      <trkpt lat="46.05503" lon="3.70615">
        <ele>486.26917</ele>
        <time>2012-06-09T12:40:23Z</time>
      </trkpt>
      <trkpt lat="46.05487" lon="3.7063">
        <ele>487.04132</ele>
        <time>2012-06-09T12:40:27Z</time>
      </trkpt>
      <trkpt lat="46.05471" lon="3.70645">
        <ele>488.0747</ele>
        <time>2012-06-09T12:40:31Z</time>
      </trkpt>
      <trkpt lat="46.05456" lon="3.7066">
        <ele>488.40167</ele>
        <time>2012-06-09T12:40:35Z</time>
      </trkpt>
      <trkpt lat="46.0544" lon="3.70675">
        <ele>488.50513</ele>
        <time>2012-06-09T12:40:39Z</time>
      </trkpt>
      <trkpt lat="46.05419" lon="3.7069">
        <ele>487.276</ele>
        <time>2012-06-09T12:40:44Z</time>
      </trkpt>
      <trkpt lat="46.05402" lon="3.70698">
        <ele>486.09818</ele>
        <time>2012-06-09T12:40:48Z</time>
      </trkpt>
      <trkpt lat="46.05384" lon="3.70707">
        <ele>486.44507</ele>
        <time>2012-06-09T12:40:53Z</time>
      </trkpt>
      <trkpt lat="46.05363" lon="3.70716">
        <ele>486.54694</ele>
        <time>2012-06-09T12:41:03Z</time>
      </trkpt>
      <trkpt lat="46.05344" lon="3.70726">
        <ele>485.9738</ele>
        <time>2012-06-09T12:41:09Z</time>
      </trkpt>
      <trkpt lat="46.05326" lon="3.70728">
        <ele>485.73053</ele>
        <time>2012-06-09T12:41:12Z</time>
      </trkpt>
      <trkpt lat="46.05307" lon="3.70728">
        <ele>485.60916</ele>
        <time>2012-06-09T12:41:16Z</time>
      </trkpt>
      <trkpt lat="46.05287" lon="3.70731">
        <ele>485.5663</ele>
        <time>2012-06-09T12:41:21Z</time>
      </trkpt>
      <trkpt lat="46.05269" lon="3.70726">
        <ele>486.82285</ele>
        <time>2012-06-09T12:41:25Z</time>
      </trkpt>
      <trkpt lat="46.05249" lon="3.70724">
        <ele>489.5887</ele>
        <time>2012-06-09T12:41:30Z</time>
      </trkpt>
      <trkpt lat="46.05229" lon="3.70728">
        <ele>491.08685</ele>
        <time>2012-06-09T12:41:35Z</time>
      </trkpt>
      <trkpt lat="46.05209" lon="3.70735">
        <ele>492.12598</ele>
        <time>2012-06-09T12:41:40Z</time>
      </trkpt>
      <trkpt lat="46.05193" lon="3.70748">
        <ele>493.79248</ele>
        <time>2012-06-09T12:41:45Z</time>
      </trkpt>
      <trkpt lat="46.05175" lon="3.70767">
        <ele>498.2446</ele>
        <time>2012-06-09T12:41:50Z</time>
      </trkpt>
      <trkpt lat="46.05159" lon="3.7078">
        <ele>502.74448</ele>
        <time>2012-06-09T12:41:54Z</time>
      </trkpt>
      <trkpt lat="46.05144" lon="3.70795">
        <ele>503.98077</ele>
        <time>2012-06-09T12:41:58Z</time>
      </trkpt>
      <trkpt lat="46.05125" lon="3.7081">
        <ele>502.42273</ele>
        <time>2012-06-09T12:42:02Z</time>
      </trkpt>
      <trkpt lat="46.05106" lon="3.70827">
        <ele>501.1446</ele>
        <time>2012-06-09T12:42:06Z</time>
      </trkpt>
      <trkpt lat="46.0509" lon="3.7084">
        <ele>500.30267</ele>
        <time>2012-06-09T12:42:10Z</time>
      </trkpt>
      <trkpt lat="46.05071" lon="3.70853">
        <ele>499.2934</ele>
        <time>2012-06-09T12:42:15Z</time>
      </trkpt>
      <trkpt lat="46.05052" lon="3.70866">
        <ele>499.1623</ele>
        <time>2012-06-09T12:42:20Z</time>
      </trkpt>
      <trkpt lat="46.05035" lon="3.70877">
        <ele>499.4603</ele>
        <time>2012-06-09T12:42:25Z</time>
      </trkpt>
      <trkpt lat="46.05016" lon="3.70887">
        <ele>501.04272</ele>
        <time>2012-06-09T12:42:30Z</time>
      </trkpt>
      <trkpt lat="46.04997" lon="3.709">
        <ele>503.3948</ele>
        <time>2012-06-09T12:42:35Z</time>
      </trkpt>
      <trkpt lat="46.04981" lon="3.70915">
        <ele>504.18652</ele>
        <time>2012-06-09T12:42:39Z</time>
      </trkpt>
      <trkpt lat="46.04964" lon="3.70932">
        <ele>504.18704</ele>
        <time>2012-06-09T12:42:43Z</time>
      </trkpt>
      <trkpt lat="46.04947" lon="3.70952">
        <ele>502.58237</ele>
        <time>2012-06-09T12:42:48Z</time>
      </trkpt>
      <trkpt lat="46.04931" lon="3.70967">
        <ele>501.15808</ele>
        <time>2012-06-09T12:42:54Z</time>
      </trkpt>
      <trkpt lat="46.04917" lon="3.70984">
        <ele>500.6607</ele>
        <time>2012-06-09T12:43:00Z</time>
      </trkpt>
      <trkpt lat="46.04898" lon="3.70997">
        <ele>500.57217</ele>
        <time>2012-06-09T12:43:06Z</time>
      </trkpt>
      <trkpt lat="46.04883" lon="3.71016">
        <ele>499.65503</ele>
        <time>2012-06-09T12:43:14Z</time>
      </trkpt>
      <trkpt lat="46.04875" lon="3.71042">
        <ele>499.56067</ele>
        <time>2012-06-09T12:43:23Z</time>
      </trkpt>
      <trkpt lat="46.04865" lon="3.71068">
        <ele>499.99185</ele>
        <time>2012-06-09T12:43:29Z</time>
      </trkpt>
      <trkpt lat="46.04852" lon="3.71089">
        <ele>500.45313</ele>
        <time>2012-06-09T12:43:35Z</time>
      </trkpt>
      <trkpt lat="46.04835" lon="3.71108">
        <ele>501.22327</ele>
        <time>2012-06-09T12:43:42Z</time>
      </trkpt>
      <trkpt lat="46.04819" lon="3.71125">
        <ele>502.25702</ele>
        <time>2012-06-09T12:43:48Z</time>
      </trkpt>
      <trkpt lat="46.04802" lon="3.71145">
        <ele>503.32233</ele>
        <time>2012-06-09T12:43:54Z</time>
      </trkpt>
      <trkpt lat="46.04784" lon="3.71162">
        <ele>504.26096</ele>
        <time>2012-06-09T12:43:59Z</time>
      </trkpt>
      <trkpt lat="46.04769" lon="3.71188">
        <ele>503.37387</ele>
        <time>2012-06-09T12:44:07Z</time>
      </trkpt>
      <trkpt lat="46.04757" lon="3.71209">
        <ele>502.3492</ele>
        <time>2012-06-09T12:44:17Z</time>
      </trkpt>
      <trkpt lat="46.0474" lon="3.71222">
        <ele>501.59784</ele>
        <time>2012-06-09T12:44:27Z</time>
      </trkpt>
      <trkpt lat="46.04722" lon="3.71235">
        <ele>503.05167</ele>
        <time>2012-06-09T12:44:54Z</time>
      </trkpt>
      <trkpt lat="46.04704" lon="3.71246">
        <ele>506.21567</ele>
        <time>2012-06-09T12:45:03Z</time>
      </trkpt>
      <trkpt lat="46.04683" lon="3.71252">
        <ele>509.37173</ele>
        <time>2012-06-09T12:45:13Z</time>
      </trkpt>
      <trkpt lat="46.04674" lon="3.7122">
        <ele>515.23737</ele>
        <time>2012-06-09T12:45:32Z</time>
      </trkpt>
      <trkpt lat="46.04668" lon="3.71194">
        <ele>517.95447</ele>
        <time>2012-06-09T12:45:46Z</time>
      </trkpt>
      <trkpt lat="46.04654" lon="3.71177">
        <ele>522.1549</ele>
        <time>2012-06-09T12:46:03Z</time>
      </trkpt>
      <trkpt lat="46.04638" lon="3.71164">
        <ele>526.59216</ele>
        <time>2012-06-09T12:46:18Z</time>
      </trkpt>
      <trkpt lat="46.0462" lon="3.7116">
        <ele>530.72876</ele>
        <time>2012-06-09T12:46:34Z</time>
      </trkpt>
      <trkpt lat="46.04602" lon="3.71166">
        <ele>534.0938</ele>
        <time>2012-06-09T12:46:49Z</time>
      </trkpt>
      <trkpt lat="46.04587" lon="3.71181">
        <ele>536.67896</ele>
        <time>2012-06-09T12:47:04Z</time>
      </trkpt>
      <trkpt lat="46.04573" lon="3.71198">
        <ele>539.04047</ele>
        <time>2012-06-09T12:47:18Z</time>
      </trkpt>
      <trkpt lat="46.04556" lon="3.71211">
        <ele>540.44073</ele>
        <time>2012-06-09T12:47:31Z</time>
      </trkpt>
      <trkpt lat="46.04537" lon="3.71222">
        <ele>542.6718</ele>
        <time>2012-06-09T12:47:41Z</time>
      </trkpt>
      <trkpt lat="46.04518" lon="3.71228">
        <ele>546.8269</ele>
        <time>2012-06-09T12:48:02Z</time>
      </trkpt>
      <trkpt lat="46.045" lon="3.71233">
        <ele>549.0619</ele>
        <time>2012-06-09T12:48:16Z</time>
      </trkpt>
      <trkpt lat="46.04482" lon="3.71235">
        <ele>551.5711</ele>
        <time>2012-06-09T12:48:29Z</time>
      </trkpt>
      <trkpt lat="46.04462" lon="3.71241">
        <ele>554.1382</ele>
        <time>2012-06-09T12:48:42Z</time>
      </trkpt>
      <trkpt lat="46.04444" lon="3.7125">
        <ele>557.33636</ele>
        <time>2012-06-09T12:49:02Z</time>
      </trkpt>
      <trkpt lat="46.04427" lon="3.71258">
        <ele>558.6406</ele>
        <time>2012-06-09T12:49:09Z</time>
      </trkpt>
      <trkpt lat="46.04411" lon="3.71274">
        <ele>560.0398</ele>
        <time>2012-06-09T12:49:17Z</time>
      </trkpt>
      <trkpt lat="46.04393" lon="3.71282">
        <ele>561.3365</ele>
        <time>2012-06-09T12:49:26Z</time>
      </trkpt>
      <trkpt lat="46.04374" lon="3.71282">
        <ele>562.35876</ele>
        <time>2012-06-09T12:49:35Z</time>
      </trkpt>
      <trkpt lat="46.04355" lon="3.7128">
        <ele>563.3011</ele>
        <time>2012-06-09T12:49:44Z</time>
      </trkpt>
      <trkpt lat="46.04335" lon="3.71274">
        <ele>564.7677</ele>
        <time>2012-06-09T12:49:50Z</time>
      </trkpt>
      <trkpt lat="46.04318" lon="3.71265">
        <ele>567.69324</ele>
        <time>2012-06-09T12:50:00Z</time>
      </trkpt>
      <trkpt lat="46.04311" lon="3.71291">
        <ele>574.031</ele>
        <time>2012-06-09T12:52:31Z</time>
      </trkpt>
      <trkpt lat="46.04303" lon="3.71314">
        <ele>575.41693</ele>
        <time>2012-06-09T12:52:38Z</time>
      </trkpt>
      <trkpt lat="46.04291" lon="3.71336">
        <ele>577.89276</ele>
        <time>2012-06-09T12:52:42Z</time>
      </trkpt>
      <trkpt lat="46.04278" lon="3.71361">
        <ele>579.7371</ele>
        <time>2012-06-09T12:52:47Z</time>
      </trkpt>
      <trkpt lat="46.04265" lon="3.71385">
        <ele>580.3594</ele>
        <time>2012-06-09T12:52:52Z</time>
      </trkpt>
      <trkpt lat="46.04254" lon="3.71411">
        <ele>579.69653</ele>
        <time>2012-06-09T12:52:58Z</time>
      </trkpt>
      <trkpt lat="46.04242" lon="3.71432">
        <ele>578.89496</ele>
        <time>2012-06-09T12:53:04Z</time>
      </trkpt>
      <trkpt lat="46.0423" lon="3.71454">
        <ele>577.25916</ele>
        <time>2012-06-09T12:53:09Z</time>
      </trkpt>
      <trkpt lat="46.04217" lon="3.71477">
        <ele>574.5971</ele>
        <time>2012-06-09T12:53:15Z</time>
      </trkpt>
      <trkpt lat="46.04205" lon="3.71501">
        <ele>570.0078</ele>
        <time>2012-06-09T12:53:20Z</time>
      </trkpt>
      <trkpt lat="46.04194" lon="3.71522">
        <ele>564.2477</ele>
        <time>2012-06-09T12:53:24Z</time>
      </trkpt>
      <trkpt lat="46.04185" lon="3.7155">
        <ele>560.9606</ele>
        <time>2012-06-09T12:53:30Z</time>
      </trkpt>
      <trkpt lat="46.04172" lon="3.71574">
        <ele>557.3597</ele>
        <time>2012-06-09T12:53:35Z</time>
      </trkpt>
      <trkpt lat="46.04152" lon="3.71587">
        <ele>553.87823</ele>
        <time>2012-06-09T12:53:40Z</time>
      </trkpt>
      <trkpt lat="46.04132" lon="3.7161">
        <ele>552.595</ele>
        <time>2012-06-09T12:53:52Z</time>
      </trkpt>
      <trkpt lat="46.04117" lon="3.71628">
        <ele>552.80475</ele>
        <time>2012-06-09T12:54:03Z</time>
      </trkpt>
      <trkpt lat="46.04098" lon="3.71647">
        <ele>553.54877</ele>
        <time>2012-06-09T12:54:21Z</time>
      </trkpt>
      <trkpt lat="46.04089" lon="3.7167">
        <ele>552.5767</ele>
        <time>2012-06-09T12:54:42Z</time>
      </trkpt>
      <trkpt lat="46.04071" lon="3.71688">
        <ele>553.053</ele>
        <time>2012-06-09T12:55:45Z</time>
      </trkpt>
      <trkpt lat="46.04055" lon="3.71709">
        <ele>555.5569</ele>
        <time>2012-06-09T12:55:54Z</time>
      </trkpt>
      <trkpt lat="46.0404" lon="3.71728">
        <ele>557.58295</ele>
        <time>2012-06-09T12:56:05Z</time>
      </trkpt>
      <trkpt lat="46.04026" lon="3.71746">
        <ele>560.05023</ele>
        <time>2012-06-09T12:56:32Z</time>
      </trkpt>
      <trkpt lat="46.04015" lon="3.71767">
        <ele>565.2975</ele>
        <time>2012-06-09T12:56:48Z</time>
      </trkpt>
      <trkpt lat="46.04003" lon="3.71789">
        <ele>568.39905</ele>
        <time>2012-06-09T12:57:06Z</time>
      </trkpt>
      <trkpt lat="46.03988" lon="3.71806">
        <ele>569.3596</ele>
        <time>2012-06-09T12:57:14Z</time>
      </trkpt>
      <trkpt lat="46.03973" lon="3.71823">
        <ele>569.9711</ele>
        <time>2012-06-09T12:57:22Z</time>
      </trkpt>
      <trkpt lat="46.03961" lon="3.71844">
        <ele>570.53455</ele>
        <time>2012-06-09T12:57:34Z</time>
      </trkpt>
      <trkpt lat="46.03951" lon="3.71866">
        <ele>571.12976</ele>
        <time>2012-06-09T12:57:43Z</time>
      </trkpt>
      <trkpt lat="46.03937" lon="3.71887">
        <ele>572.20483</ele>
        <time>2012-06-09T12:57:52Z</time>
      </trkpt>
      <trkpt lat="46.03923" lon="3.71907">
        <ele>573.96277</ele>
        <time>2012-06-09T12:58:00Z</time>
      </trkpt>
      <trkpt lat="46.0391" lon="3.71926">
        <ele>576.20355</ele>
        <time>2012-06-09T12:58:06Z</time>
      </trkpt>
      <trkpt lat="46.03897" lon="3.71945">
        <ele>579.218</ele>
        <time>2012-06-09T12:58:14Z</time>
      </trkpt>
      <trkpt lat="46.03882" lon="3.71964">
        <ele>582.5779</ele>
        <time>2012-06-09T12:58:24Z</time>
      </trkpt>
      <trkpt lat="46.03867" lon="3.71979">
        <ele>586.16034</ele>
        <time>2012-06-09T12:58:33Z</time>
      </trkpt>
      <trkpt lat="46.0385" lon="3.71994">
        <ele>588.27045</ele>
        <time>2012-06-09T12:58:42Z</time>
      </trkpt>
      <trkpt lat="46.03832" lon="3.71999">
        <ele>589.3818</ele>
        <time>2012-06-09T12:58:49Z</time>
      </trkpt>
      <trkpt lat="46.03813" lon="3.71999">
        <ele>589.5225</ele>
        <time>2012-06-09T12:58:55Z</time>
      </trkpt>
      <trkpt lat="46.03794" lon="3.72005">
        <ele>590.3126</ele>
        <time>2012-06-09T12:59:03Z</time>
      </trkpt>
      <trkpt lat="46.03776" lon="3.72012">
        <ele>590.52893</ele>
        <time>2012-06-09T12:59:11Z</time>
      </trkpt>
      <trkpt lat="46.03756" lon="3.72018">
        <ele>591.3726</ele>
        <time>2012-06-09T12:59:19Z</time>
      </trkpt>
      <trkpt lat="46.03737" lon="3.72022">
        <ele>591.7849</ele>
        <time>2012-06-09T12:59:27Z</time>
      </trkpt>
      <trkpt lat="46.03717" lon="3.72022">
        <ele>592.47614</ele>
        <time>2012-06-09T12:59:35Z</time>
      </trkpt>
      <trkpt lat="46.03696" lon="3.72025">
        <ele>593.4452</ele>
        <time>2012-06-09T12:59:43Z</time>
      </trkpt>
      <trkpt lat="46.03677" lon="3.72025">
        <ele>593.53864</ele>
        <time>2012-06-09T12:59:50Z</time>
      </trkpt>
      <trkpt lat="46.03657" lon="3.72022">
        <ele>593.54956</ele>
        <time>2012-06-09T12:59:55Z</time>
      </trkpt>
      <trkpt lat="46.03638" lon="3.7202">
        <ele>594.3747</ele>
        <time>2012-06-09T13:00:03Z</time>
      </trkpt>
      <trkpt lat="46.0362" lon="3.72014">
        <ele>593.135</ele>
        <time>2012-06-09T13:00:16Z</time>
      </trkpt>
      <trkpt lat="46.03602" lon="3.72025">
        <ele>592.5608</ele>
        <time>2012-06-09T13:00:31Z</time>
      </trkpt>
      <trkpt lat="46.03583" lon="3.72037">
        <ele>592.5544</ele>
        <time>2012-06-09T13:00:37Z</time>
      </trkpt>
      <trkpt lat="46.03564" lon="3.72046">
        <ele>591.86975</ele>
        <time>2012-06-09T13:00:42Z</time>
      </trkpt>
      <trkpt lat="46.03546" lon="3.72052">
        <ele>591.56055</ele>
        <time>2012-06-09T13:00:55Z</time>
      </trkpt>
      <trkpt lat="46.03529" lon="3.72065">
        <ele>590.304</ele>
        <time>2012-06-09T13:01:22Z</time>
      </trkpt>
      <trkpt lat="46.03516" lon="3.72087">
        <ele>589.40326</ele>
        <time>2012-06-09T13:01:29Z</time>
      </trkpt>
      <trkpt lat="46.03504" lon="3.72108">
        <ele>587.7009</ele>
        <time>2012-06-09T13:01:33Z</time>
      </trkpt>
      <trkpt lat="46.03489" lon="3.72128">
        <ele>586.4787</ele>
        <time>2012-06-09T13:01:37Z</time>
      </trkpt>
      <trkpt lat="46.03471" lon="3.72147">
        <ele>585.8459</ele>
        <time>2012-06-09T13:01:41Z</time>
      </trkpt>
      <trkpt lat="46.03455" lon="3.72164">
        <ele>585.06757</ele>
        <time>2012-06-09T13:01:45Z</time>
      </trkpt>
      <trkpt lat="46.03441" lon="3.72181">
        <ele>584.6446</ele>
        <time>2012-06-09T13:01:51Z</time>
      </trkpt>
      <trkpt lat="46.03429" lon="3.72203">
        <ele>584.5747</ele>
        <time>2012-06-09T13:01:56Z</time>
      </trkpt>
      <trkpt lat="46.03422" lon="3.72226">
        <ele>584.55817</ele>
        <time>2012-06-09T13:02:01Z</time>
      </trkpt>
      <trkpt lat="46.03411" lon="3.72248">
        <ele>584.5542</ele>
        <time>2012-06-09T13:02:06Z</time>
      </trkpt>
      <trkpt lat="46.03399" lon="3.72269">
        <ele>584.5532</ele>
        <time>2012-06-09T13:02:12Z</time>
      </trkpt>
      <trkpt lat="46.03386" lon="3.72291">
        <ele>584.55304</ele>
        <time>2012-06-09T13:02:17Z</time>
      </trkpt>
      <trkpt lat="46.03373" lon="3.72314">
        <ele>584.55304</ele>
        <time>2012-06-09T13:02:22Z</time>
      </trkpt>
      <trkpt lat="46.03361" lon="3.7234">
        <ele>584.553</ele>
        <time>2012-06-09T13:02:27Z</time>
      </trkpt>
      <trkpt lat="46.03349" lon="3.72366">
        <ele>584.553</ele>
        <time>2012-06-09T13:02:32Z</time>
      </trkpt>
      <trkpt lat="46.03335" lon="3.72385">
        <ele>584.3069</ele>
        <time>2012-06-09T13:02:36Z</time>
      </trkpt>
      <trkpt lat="46.03315" lon="3.72402">
        <ele>584.553</ele>
        <time>2012-06-09T13:03:10Z</time>
      </trkpt>
      <trkpt lat="46.03297" lon="3.724">
        <ele>585.1311</ele>
        <time>2012-06-09T13:03:16Z</time>
      </trkpt>
      <trkpt lat="46.03278" lon="3.72396">
        <ele>584.6559</ele>
        <time>2012-06-09T13:03:22Z</time>
      </trkpt>
      <trkpt lat="46.03262" lon="3.72409">
        <ele>583.4563</ele>
        <time>2012-06-09T13:03:27Z</time>
      </trkpt>
      <trkpt lat="46.03251" lon="3.7243">
        <ele>582.1892</ele>
        <time>2012-06-09T13:03:32Z</time>
      </trkpt>
      <trkpt lat="46.03248" lon="3.72458">
        <ele>581.08813</ele>
        <time>2012-06-09T13:03:38Z</time>
      </trkpt>
      <trkpt lat="46.03246" lon="3.72486">
        <ele>579.2243</ele>
        <time>2012-06-09T13:03:45Z</time>
      </trkpt>
      <trkpt lat="46.03248" lon="3.72514">
        <ele>573.71936</ele>
        <time>2012-06-09T13:03:51Z</time>
      </trkpt>
      <trkpt lat="46.03247" lon="3.72548">
        <ele>565.85565</ele>
        <time>2012-06-09T13:03:55Z</time>
      </trkpt>
      <trkpt lat="46.0324" lon="3.7258">
        <ele>561.0869</ele>
        <time>2012-06-09T13:03:58Z</time>
      </trkpt>
      <trkpt lat="46.03232" lon="3.72608">
        <ele>556.0383</ele>
        <time>2012-06-09T13:04:02Z</time>
      </trkpt>
      <trkpt lat="46.03223" lon="3.72632">
        <ele>550.9211</ele>
        <time>2012-06-09T13:04:07Z</time>
      </trkpt>
      <trkpt lat="46.03208" lon="3.72617">
        <ele>547.53064</ele>
        <time>2012-06-09T13:04:16Z</time>
      </trkpt>
      <trkpt lat="46.032" lon="3.72589">
        <ele>544.9006</ele>
        <time>2012-06-09T13:04:27Z</time>
      </trkpt>
      <trkpt lat="46.03179" lon="3.72615">
        <ele>538.9696</ele>
        <time>2012-06-09T13:04:41Z</time>
      </trkpt>
      <trkpt lat="46.03167" lon="3.72636">
        <ele>535.20654</ele>
        <time>2012-06-09T13:04:49Z</time>
      </trkpt>
      <trkpt lat="46.0316" lon="3.72668">
        <ele>529.3577</ele>
        <time>2012-06-09T13:04:59Z</time>
      </trkpt>
      <trkpt lat="46.03157" lon="3.72696">
        <ele>521.8908</ele>
        <time>2012-06-09T13:05:14Z</time>
      </trkpt>
      <trkpt lat="46.03143" lon="3.72728">
        <ele>515.8444</ele>
        <time>2012-06-09T13:05:25Z</time>
      </trkpt>
      <trkpt lat="46.03117" lon="3.72737">
        <ele>515.46643</ele>
        <time>2012-06-09T13:05:31Z</time>
      </trkpt>
      <trkpt lat="46.03098" lon="3.72743">
        <ele>515.5376</ele>
        <time>2012-06-09T13:05:37Z</time>
      </trkpt>
      <trkpt lat="46.03075" lon="3.72754">
        <ele>517.57837</ele>
        <time>2012-06-09T13:06:13Z</time>
      </trkpt>
      <trkpt lat="46.03056" lon="3.72765">
        <ele>520.3021</ele>
        <time>2012-06-09T13:06:20Z</time>
      </trkpt>
      <trkpt lat="46.03038" lon="3.72776">
        <ele>523.35315</ele>
        <time>2012-06-09T13:06:29Z</time>
      </trkpt>
      <trkpt lat="46.03011" lon="3.72782">
        <ele>526.7025</ele>
        <time>2012-06-09T13:06:44Z</time>
      </trkpt>
      <trkpt lat="46.02991" lon="3.72776">
        <ele>528.32715</ele>
        <time>2012-06-09T13:06:54Z</time>
      </trkpt>
      <trkpt lat="46.02973" lon="3.72771">
        <ele>528.54346</ele>
        <time>2012-06-09T13:07:05Z</time>
      </trkpt>
      <trkpt lat="46.02955" lon="3.72776">
        <ele>527.60913</ele>
        <time>2012-06-09T13:07:19Z</time>
      </trkpt>
      <trkpt lat="46.02957" lon="3.72801">
        <ele>530.3975</ele>
        <time>2012-06-09T13:07:42Z</time>
      </trkpt>
      <trkpt lat="46.02944" lon="3.72821">
        <ele>533.48126</ele>
        <time>2012-06-09T13:08:04Z</time>
      </trkpt>
      <trkpt lat="46.02927" lon="3.72831">
        <ele>535.4004</ele>
        <time>2012-06-09T13:08:18Z</time>
      </trkpt>
      <trkpt lat="46.02911" lon="3.72844">
        <ele>537.11993</ele>
        <time>2012-06-09T13:08:35Z</time>
      </trkpt>
      <trkpt lat="46.02894" lon="3.72853">
        <ele>538.9284</ele>
        <time>2012-06-09T13:08:50Z</time>
      </trkpt>
      <trkpt lat="46.02877" lon="3.72864">
        <ele>540.2893</ele>
        <time>2012-06-09T13:09:01Z</time>
      </trkpt>
      <trkpt lat="46.02859" lon="3.72872">
        <ele>543.4606</ele>
        <time>2012-06-09T13:09:14Z</time>
      </trkpt>
      <trkpt lat="46.02841" lon="3.72874">
        <ele>550.47375</ele>
        <time>2012-06-09T13:09:31Z</time>
      </trkpt>
      <trkpt lat="46.02831" lon="3.72896">
        <ele>562.8941</ele>
        <time>2012-06-09T13:09:59Z</time>
      </trkpt>
      <trkpt lat="46.02818" lon="3.72917">
        <ele>567.4477</ele>
        <time>2012-06-09T13:10:17Z</time>
      </trkpt>
      <trkpt lat="46.02806" lon="3.72941">
        <ele>570.4784</ele>
        <time>2012-06-09T13:10:27Z</time>
      </trkpt>
      <trkpt lat="46.02797" lon="3.72964">
        <ele>573.47626</ele>
        <time>2012-06-09T13:10:34Z</time>
      </trkpt>
      <trkpt lat="46.02784" lon="3.72986">
        <ele>577.04724</ele>
        <time>2012-06-09T13:10:43Z</time>
      </trkpt>
      <trkpt lat="46.02768" lon="3.73003">
        <ele>581.0433</ele>
        <time>2012-06-09T13:10:53Z</time>
      </trkpt>
      <trkpt lat="46.02754" lon="3.7302">
        <ele>584.67365</ele>
        <time>2012-06-09T13:11:04Z</time>
      </trkpt>
      <trkpt lat="46.02745" lon="3.73044">
        <ele>587.4424</ele>
        <time>2012-06-09T13:11:19Z</time>
      </trkpt>
      <trkpt lat="46.02726" lon="3.73048">
        <ele>593.65295</ele>
        <time>2012-06-09T13:13:09Z</time>
      </trkpt>
      <trkpt lat="46.02708" lon="3.73046">
        <ele>596.62744</ele>
        <time>2012-06-09T13:13:19Z</time>
      </trkpt>
      <trkpt lat="46.0269" lon="3.73046">
        <ele>599.53937</ele>
        <time>2012-06-09T13:13:31Z</time>
      </trkpt>
      <trkpt lat="46.02672" lon="3.73048">
        <ele>601.9989</ele>
        <time>2012-06-09T13:13:43Z</time>
      </trkpt>
      <trkpt lat="46.02654" lon="3.73052">
        <ele>604.06165</ele>
        <time>2012-06-09T13:13:56Z</time>
      </trkpt>
      <trkpt lat="46.02634" lon="3.73055">
        <ele>605.71234</ele>
        <time>2012-06-09T13:14:08Z</time>
      </trkpt>
      <trkpt lat="46.02616" lon="3.73057">
        <ele>607.2802</ele>
        <time>2012-06-09T13:14:19Z</time>
      </trkpt>
      <trkpt lat="46.02596" lon="3.73052">
        <ele>608.39905</ele>
        <time>2012-06-09T13:14:28Z</time>
      </trkpt>
      <trkpt lat="46.02578" lon="3.73044">
        <ele>609.3545</ele>
        <time>2012-06-09T13:14:35Z</time>
      </trkpt>
      <trkpt lat="46.02559" lon="3.73031">
        <ele>610.3485</ele>
        <time>2012-06-09T13:14:42Z</time>
      </trkpt>
      <trkpt lat="46.02544" lon="3.73016">
        <ele>611.3477</ele>
        <time>2012-06-09T13:14:49Z</time>
      </trkpt>
      <trkpt lat="46.02532" lon="3.72994">
        <ele>612.2001</ele>
        <time>2012-06-09T13:14:55Z</time>
      </trkpt>
      <trkpt lat="46.02522" lon="3.72971">
        <ele>613.95306</ele>
        <time>2012-06-09T13:14:59Z</time>
      </trkpt>
      <trkpt lat="46.02512" lon="3.72945">
        <ele>615.04675</ele>
        <time>2012-06-09T13:15:03Z</time>
      </trkpt>
      <trkpt lat="46.02501" lon="3.72919">
        <ele>615.3928</ele>
        <time>2012-06-09T13:15:07Z</time>
      </trkpt>
      <trkpt lat="46.02489" lon="3.72898">
        <ele>615.3148</ele>
        <time>2012-06-09T13:15:11Z</time>
      </trkpt>
      <trkpt lat="46.02475" lon="3.72879">
        <ele>615.47766</ele>
        <time>2012-06-09T13:15:15Z</time>
      </trkpt>
      <trkpt lat="46.0246" lon="3.72864">
        <ele>615.5351</ele>
        <time>2012-06-09T13:15:20Z</time>
      </trkpt>
      <trkpt lat="46.02437" lon="3.72849">
        <ele>615.55225</ele>
        <time>2012-06-09T13:15:31Z</time>
      </trkpt>
      <trkpt lat="46.02419" lon="3.7284">
        <ele>614.7902</ele>
        <time>2012-06-09T13:15:39Z</time>
      </trkpt>
      <trkpt lat="46.02398" lon="3.72829">
        <ele>615.2788</ele>
        <time>2012-06-09T13:15:45Z</time>
      </trkpt>
      <trkpt lat="46.02377" lon="3.72818">
        <ele>615.4879</ele>
        <time>2012-06-09T13:15:50Z</time>
      </trkpt>
      <trkpt lat="46.02355" lon="3.7281">
        <ele>615.53754</ele>
        <time>2012-06-09T13:15:55Z</time>
      </trkpt>
      <trkpt lat="46.02335" lon="3.72808">
        <ele>616.2317</ele>
        <time>2012-06-09T13:15:59Z</time>
      </trkpt>
      <trkpt lat="46.0232" lon="3.72823">
        <ele>616.45135</ele>
        <time>2012-06-09T13:16:03Z</time>
      </trkpt>
      <trkpt lat="46.02303" lon="3.72846">
        <ele>616.54285</ele>
        <time>2012-06-09T13:16:11Z</time>
      </trkpt>
      <trkpt lat="46.02287" lon="3.72864">
        <ele>616.552</ele>
        <time>2012-06-09T13:16:19Z</time>
      </trkpt>
      <trkpt lat="46.02267" lon="3.72874">
        <ele>616.5528</ele>
        <time>2012-06-09T13:16:25Z</time>
      </trkpt>
      <trkpt lat="46.02249" lon="3.72887">
        <ele>617.5657</ele>
        <time>2012-06-09T13:16:30Z</time>
      </trkpt>
      <trkpt lat="46.02231" lon="3.72898">
        <ele>619.2562</ele>
        <time>2012-06-09T13:16:34Z</time>
      </trkpt>
      <trkpt lat="46.02213" lon="3.72906">
        <ele>621.4044</ele>
        <time>2012-06-09T13:16:38Z</time>
      </trkpt>
      <trkpt lat="46.02194" lon="3.72913">
        <ele>622.0684</ele>
        <time>2012-06-09T13:16:41Z</time>
      </trkpt>
      <trkpt lat="46.02174" lon="3.72909">
        <ele>621.9111</ele>
        <time>2012-06-09T13:16:44Z</time>
      </trkpt>
      <trkpt lat="46.02155" lon="3.72904">
        <ele>621.26654</ele>
        <time>2012-06-09T13:16:47Z</time>
      </trkpt>
      <trkpt lat="46.02136" lon="3.72911">
        <ele>620.2006</ele>
        <time>2012-06-09T13:16:51Z</time>
      </trkpt>
      <trkpt lat="46.02122" lon="3.72928">
        <ele>618.38684</ele>
        <time>2012-06-09T13:16:55Z</time>
      </trkpt>
      <trkpt lat="46.02107" lon="3.72945">
        <ele>616.01215</ele>
        <time>2012-06-09T13:16:59Z</time>
      </trkpt>
      <trkpt lat="46.02089" lon="3.72958">
        <ele>614.5772</ele>
        <time>2012-06-09T13:17:03Z</time>
      </trkpt>
      <trkpt lat="46.0207" lon="3.72969">
        <ele>613.8771</ele>
        <time>2012-06-09T13:17:07Z</time>
      </trkpt>
      <trkpt lat="46.02055" lon="3.72988">
        <ele>613.0774</ele>
        <time>2012-06-09T13:17:11Z</time>
      </trkpt>
      <trkpt lat="46.02045" lon="3.73014">
        <ele>612.1408</ele>
        <time>2012-06-09T13:17:15Z</time>
      </trkpt>
      <trkpt lat="46.02037" lon="3.73044">
        <ele>611.6925</ele>
        <time>2012-06-09T13:17:20Z</time>
      </trkpt>
      <trkpt lat="46.0203" lon="3.73074">
        <ele>612.0236</ele>
        <time>2012-06-09T13:17:25Z</time>
      </trkpt>
      <trkpt lat="46.02024" lon="3.73106">
        <ele>611.8074</ele>
        <time>2012-06-09T13:17:29Z</time>
      </trkpt>
      <trkpt lat="46.02023" lon="3.73134">
        <ele>611.41034</ele>
        <time>2012-06-09T13:17:32Z</time>
      </trkpt>
      <trkpt lat="46.02024" lon="3.73166">
        <ele>610.3868</ele>
        <time>2012-06-09T13:17:36Z</time>
      </trkpt>
      <trkpt lat="46.02024" lon="3.73198">
        <ele>609.37933</ele>
        <time>2012-06-09T13:17:40Z</time>
      </trkpt>
      <trkpt lat="46.02021" lon="3.73224">
        <ele>608.2363</ele>
        <time>2012-06-09T13:17:44Z</time>
      </trkpt>
      <trkpt lat="46.02009" lon="3.7325">
        <ele>606.6009</ele>
        <time>2012-06-09T13:17:57Z</time>
      </trkpt>
      <trkpt lat="46.01986" lon="3.73256">
        <ele>606.55505</ele>
        <time>2012-06-09T13:18:08Z</time>
      </trkpt>
      <trkpt lat="46.01967" lon="3.7326">
        <ele>606.55334</ele>
        <time>2012-06-09T13:18:14Z</time>
      </trkpt>
      <trkpt lat="46.01948" lon="3.73265">
        <ele>607.13116</ele>
        <time>2012-06-09T13:18:20Z</time>
      </trkpt>
      <trkpt lat="46.01926" lon="3.73273">
        <ele>607.7279</ele>
        <time>2012-06-09T13:18:26Z</time>
      </trkpt>
      <trkpt lat="46.01908" lon="3.73284">
        <ele>610.24097</ele>
        <time>2012-06-09T13:18:31Z</time>
      </trkpt>
      <trkpt lat="46.01889" lon="3.73293">
        <ele>611.1379</ele>
        <time>2012-06-09T13:18:35Z</time>
      </trkpt>
      <trkpt lat="46.01867" lon="3.73286">
        <ele>611.42163</ele>
        <time>2012-06-09T13:18:39Z</time>
      </trkpt>
      <trkpt lat="46.01852" lon="3.73263">
        <ele>611.5114</ele>
        <time>2012-06-09T13:18:43Z</time>
      </trkpt>
      <trkpt lat="46.01846" lon="3.73233">
        <ele>610.85626</ele>
        <time>2012-06-09T13:18:47Z</time>
      </trkpt>
      <trkpt lat="46.01847" lon="3.73198">
        <ele>610.0708</ele>
        <time>2012-06-09T13:18:51Z</time>
      </trkpt>
      <trkpt lat="46.01851" lon="3.73173">
        <ele>609.5215</ele>
        <time>2012-06-09T13:18:54Z</time>
      </trkpt>
      <trkpt lat="46.01856" lon="3.73147">
        <ele>608.96155</ele>
        <time>2012-06-09T13:18:57Z</time>
      </trkpt>
      <trkpt lat="46.01864" lon="3.73119">
        <ele>608.1472</ele>
        <time>2012-06-09T13:19:00Z</time>
      </trkpt>
      <trkpt lat="46.01871" lon="3.73091">
        <ele>606.9756</ele>
        <time>2012-06-09T13:19:03Z</time>
      </trkpt>
      <trkpt lat="46.01878" lon="3.73063">
        <ele>605.90314</ele>
        <time>2012-06-09T13:19:06Z</time>
      </trkpt>
      <trkpt lat="46.01883" lon="3.73035">
        <ele>604.2945</ele>
        <time>2012-06-09T13:19:09Z</time>
      </trkpt>
      <trkpt lat="46.01886" lon="3.73009">
        <ele>602.02203</ele>
        <time>2012-06-09T13:19:12Z</time>
      </trkpt>
      <trkpt lat="46.0187" lon="3.72997">
        <ele>598.4868</ele>
        <time>2012-06-09T13:19:18Z</time>
      </trkpt>
      <trkpt lat="46.01849" lon="3.73001">
        <ele>596.64716</ele>
        <time>2012-06-09T13:19:24Z</time>
      </trkpt>
      <trkpt lat="46.01827" lon="3.73005">
        <ele>595.5627</ele>
        <time>2012-06-09T13:19:29Z</time>
      </trkpt>
      <trkpt lat="46.01809" lon="3.73016">
        <ele>594.1546</ele>
        <time>2012-06-09T13:19:35Z</time>
      </trkpt>
      <trkpt lat="46.0179" lon="3.73027">
        <ele>592.76215</ele>
        <time>2012-06-09T13:19:40Z</time>
      </trkpt>
      <trkpt lat="46.01769" lon="3.73035">
        <ele>591.0846</ele>
        <time>2012-06-09T13:19:46Z</time>
      </trkpt>
      <trkpt lat="46.01753" lon="3.73048">
        <ele>589.2475</ele>
        <time>2012-06-09T13:19:52Z</time>
      </trkpt>
      <trkpt lat="46.0174" lon="3.73067">
        <ele>586.579</ele>
        <time>2012-06-09T13:19:59Z</time>
      </trkpt>
      <trkpt lat="46.01727" lon="3.73087">
        <ele>584.1056</ele>
        <time>2012-06-09T13:20:07Z</time>
      </trkpt>
      <trkpt lat="46.0171" lon="3.73102">
        <ele>582.76025</ele>
        <time>2012-06-09T13:20:14Z</time>
      </trkpt>
      <trkpt lat="46.0169" lon="3.73112">
        <ele>583.168</ele>
        <time>2012-06-09T13:20:20Z</time>
      </trkpt>
      <trkpt lat="46.01672" lon="3.73121">
        <ele>584.58276</ele>
        <time>2012-06-09T13:20:25Z</time>
      </trkpt>
      <trkpt lat="46.01654" lon="3.73123">
        <ele>586.44385</ele>
        <time>2012-06-09T13:20:30Z</time>
      </trkpt>
      <trkpt lat="46.01635" lon="3.73127">
        <ele>588.4109</ele>
        <time>2012-06-09T13:20:35Z</time>
      </trkpt>
      <trkpt lat="46.01615" lon="3.73136">
        <ele>590.2156</ele>
        <time>2012-06-09T13:20:40Z</time>
      </trkpt>
      <trkpt lat="46.01599" lon="3.73149">
        <ele>595.5048</ele>
        <time>2012-06-09T13:20:44Z</time>
      </trkpt>
      <trkpt lat="46.01591" lon="3.73175">
        <ele>600.07684</ele>
        <time>2012-06-09T13:20:48Z</time>
      </trkpt>
      <trkpt lat="46.01582" lon="3.73203">
        <ele>602.6529</ele>
        <time>2012-06-09T13:20:53Z</time>
      </trkpt>
      <trkpt lat="46.01574" lon="3.73226">
        <ele>604.7799</ele>
        <time>2012-06-09T13:20:57Z</time>
      </trkpt>
      <trkpt lat="46.01562" lon="3.73252">
        <ele>605.992</ele>
        <time>2012-06-09T13:21:01Z</time>
      </trkpt>
      <trkpt lat="46.01548" lon="3.73271">
        <ele>606.8945</ele>
        <time>2012-06-09T13:21:04Z</time>
      </trkpt>
      <trkpt lat="46.01531" lon="3.73291">
        <ele>607.27515</ele>
        <time>2012-06-09T13:21:07Z</time>
      </trkpt>
      <trkpt lat="46.01511" lon="3.73308">
        <ele>607.4358</ele>
        <time>2012-06-09T13:21:10Z</time>
      </trkpt>
      <trkpt lat="46.0149" lon="3.73318">
        <ele>607.06604</ele>
        <time>2012-06-09T13:21:13Z</time>
      </trkpt>
      <trkpt lat="46.01469" lon="3.73336">
        <ele>606.5195</ele>
        <time>2012-06-09T13:21:16Z</time>
      </trkpt>
      <trkpt lat="46.01451" lon="3.73357">
        <ele>605.7107</ele>
        <time>2012-06-09T13:21:19Z</time>
      </trkpt>
      <trkpt lat="46.0143" lon="3.73381">
        <ele>605.04144</ele>
        <time>2012-06-09T13:21:22Z</time>
      </trkpt>
      <trkpt lat="46.01408" lon="3.73389">
        <ele>604.07153</ele>
        <time>2012-06-09T13:21:25Z</time>
      </trkpt>
      <trkpt lat="46.01393" lon="3.73415">
        <ele>602.0179</ele>
        <time>2012-06-09T13:21:29Z</time>
      </trkpt>
      <trkpt lat="46.01388" lon="3.73443">
        <ele>599.50476</ele>
        <time>2012-06-09T13:21:33Z</time>
      </trkpt>
      <trkpt lat="46.01388" lon="3.73473">
        <ele>596.79944</ele>
        <time>2012-06-09T13:21:37Z</time>
      </trkpt>
      <trkpt lat="46.01397" lon="3.73503">
        <ele>594.43567</ele>
        <time>2012-06-09T13:21:41Z</time>
      </trkpt>
      <trkpt lat="46.01408" lon="3.73531">
        <ele>592.56226</ele>
        <time>2012-06-09T13:21:46Z</time>
      </trkpt>
      <trkpt lat="46.01416" lon="3.73554">
        <ele>591.1089</ele>
        <time>2012-06-09T13:21:51Z</time>
      </trkpt>
      <trkpt lat="46.0142" lon="3.7358">
        <ele>590.6519</ele>
        <time>2012-06-09T13:21:57Z</time>
      </trkpt>
      <trkpt lat="46.01416" lon="3.73606">
        <ele>590.5706</ele>
        <time>2012-06-09T13:22:03Z</time>
      </trkpt>
      <trkpt lat="46.01415" lon="3.73634">
        <ele>590.55475</ele>
        <time>2012-06-09T13:22:11Z</time>
      </trkpt>
      <trkpt lat="46.0142" lon="3.73662">
        <ele>590.55304</ele>
        <time>2012-06-09T13:22:23Z</time>
      </trkpt>
      <trkpt lat="46.01419" lon="3.737">
        <ele>591.52924</ele>
        <time>2012-06-09T13:22:42Z</time>
      </trkpt>
      <trkpt lat="46.01413" lon="3.73733">
        <ele>591.55164</ele>
        <time>2012-06-09T13:22:52Z</time>
      </trkpt>
      <trkpt lat="46.0141" lon="3.7376">
        <ele>591.5527</ele>
        <time>2012-06-09T13:22:57Z</time>
      </trkpt>
      <trkpt lat="46.01408" lon="3.73788">
        <ele>591.5529</ele>
        <time>2012-06-09T13:23:03Z</time>
      </trkpt>
      <trkpt lat="46.01405" lon="3.73814">
        <ele>591.803</ele>
        <time>2012-06-09T13:23:09Z</time>
      </trkpt>
      <trkpt lat="46.01403" lon="3.73842">
        <ele>592.4529</ele>
        <time>2012-06-09T13:23:16Z</time>
      </trkpt>
      <trkpt lat="46.01396" lon="3.73872">
        <ele>593.11774</ele>
        <time>2012-06-09T13:23:23Z</time>
      </trkpt>
      <trkpt lat="46.01389" lon="3.739">
        <ele>593.4755</ele>
        <time>2012-06-09T13:23:29Z</time>
      </trkpt>
      <trkpt lat="46.01382" lon="3.73932">
        <ele>594.2973</ele>
        <time>2012-06-09T13:23:34Z</time>
      </trkpt>
      <trkpt lat="46.01379" lon="3.73964">
        <ele>594.4721</ele>
        <time>2012-06-09T13:23:38Z</time>
      </trkpt>
      <trkpt lat="46.01376" lon="3.73996">
        <ele>594.5274</ele>
        <time>2012-06-09T13:23:42Z</time>
      </trkpt>
      <trkpt lat="46.01376" lon="3.74024">
        <ele>594.1047</ele>
        <time>2012-06-09T13:23:45Z</time>
      </trkpt>
      <trkpt lat="46.01371" lon="3.74061">
        <ele>593.78577</ele>
        <time>2012-06-09T13:23:48Z</time>
      </trkpt>
      <trkpt lat="46.01365" lon="3.74095">
        <ele>593.2137</ele>
        <time>2012-06-09T13:23:51Z</time>
      </trkpt>
      <trkpt lat="46.01359" lon="3.7413">
        <ele>592.5817</ele>
        <time>2012-06-09T13:23:54Z</time>
      </trkpt>
      <trkpt lat="46.01351" lon="3.74162">
        <ele>591.737</ele>
        <time>2012-06-09T13:23:57Z</time>
      </trkpt>
      <trkpt lat="46.01345" lon="3.742">
        <ele>590.615</ele>
        <time>2012-06-09T13:24:00Z</time>
      </trkpt>
      <trkpt lat="46.01341" lon="3.7423">
        <ele>589.7129</ele>
        <time>2012-06-09T13:24:02Z</time>
      </trkpt>
      <trkpt lat="46.01339" lon="3.7426">
        <ele>589.20544</ele>
        <time>2012-06-09T13:24:04Z</time>
      </trkpt>
      <trkpt lat="46.01337" lon="3.74286">
        <ele>588.4825</ele>
        <time>2012-06-09T13:24:06Z</time>
      </trkpt>
      <trkpt lat="46.01336" lon="3.74325">
        <ele>587.9451</ele>
        <time>2012-06-09T13:24:09Z</time>
      </trkpt>
      <trkpt lat="46.01334" lon="3.74351">
        <ele>587.33606</ele>
        <time>2012-06-09T13:24:11Z</time>
      </trkpt>
      <trkpt lat="46.0133" lon="3.74378">
        <ele>586.74347</ele>
        <time>2012-06-09T13:24:13Z</time>
      </trkpt>
      <trkpt lat="46.01325" lon="3.74404">
        <ele>586.22266</ele>
        <time>2012-06-09T13:24:15Z</time>
      </trkpt>
      <trkpt lat="46.01325" lon="3.74439">
        <ele>585.5855</ele>
        <time>2012-06-09T13:24:18Z</time>
      </trkpt>
      <trkpt lat="46.01333" lon="3.74469">
        <ele>583.72296</ele>
        <time>2012-06-09T13:24:21Z</time>
      </trkpt>
      <trkpt lat="46.01338" lon="3.74496">
        <ele>581.6403</ele>
        <time>2012-06-09T13:24:24Z</time>
      </trkpt>
      <trkpt lat="46.01331" lon="3.74524">
        <ele>578.91797</ele>
        <time>2012-06-09T13:24:27Z</time>
      </trkpt>
      <trkpt lat="46.01328" lon="3.74559">
        <ele>575.707</ele>
        <time>2012-06-09T13:24:30Z</time>
      </trkpt>
      <trkpt lat="46.01326" lon="3.74589">
        <ele>571.60175</ele>
        <time>2012-06-09T13:24:34Z</time>
      </trkpt>
      <trkpt lat="46.0131" lon="3.7461">
        <ele>568.34375</ele>
        <time>2012-06-09T13:24:49Z</time>
      </trkpt>
      <trkpt lat="46.01298" lon="3.74636">
        <ele>565.26733</ele>
        <time>2012-06-09T13:25:03Z</time>
      </trkpt>
      <trkpt lat="46.0128" lon="3.74651">
        <ele>562.7119</ele>
        <time>2012-06-09T13:25:11Z</time>
      </trkpt>
      <trkpt lat="46.0126" lon="3.74666">
        <ele>559.5333</ele>
        <time>2012-06-09T13:25:25Z</time>
      </trkpt>
      <trkpt lat="46.01241" lon="3.74662">
        <ele>556.463</ele>
        <time>2012-06-09T13:25:41Z</time>
      </trkpt>
      <trkpt lat="46.0122" lon="3.74664">
        <ele>554.46533</ele>
        <time>2012-06-09T13:25:53Z</time>
      </trkpt>
      <trkpt lat="46.01203" lon="3.74677">
        <ele>552.47504</ele>
        <time>2012-06-09T13:26:04Z</time>
      </trkpt>
      <trkpt lat="46.0119" lon="3.74698">
        <ele>550.4657</ele>
        <time>2012-06-09T13:26:16Z</time>
      </trkpt>
      <trkpt lat="46.01177" lon="3.74722">
        <ele>548.7154</ele>
        <time>2012-06-09T13:26:28Z</time>
      </trkpt>
      <trkpt lat="46.01171" lon="3.74748">
        <ele>547.407</ele>
        <time>2012-06-09T13:26:41Z</time>
      </trkpt>
      <trkpt lat="46.01169" lon="3.74778">
        <ele>544.26843</ele>
        <time>2012-06-09T13:26:55Z</time>
      </trkpt>
      <trkpt lat="46.01169" lon="3.74808">
        <ele>542.3996</ele>
        <time>2012-06-09T13:27:05Z</time>
      </trkpt>
      <trkpt lat="46.01169" lon="3.74838">
        <ele>540.4633</ele>
        <time>2012-06-09T13:27:17Z</time>
      </trkpt>
      <trkpt lat="46.01171" lon="3.74866">
        <ele>539.33185</ele>
        <time>2012-06-09T13:27:29Z</time>
      </trkpt>
      <trkpt lat="46.01174" lon="3.74891">
        <ele>539.00903</ele>
        <time>2012-06-09T13:27:42Z</time>
      </trkpt>
      <trkpt lat="46.01169" lon="3.74917">
        <ele>541.22766</ele>
        <time>2012-06-09T13:27:55Z</time>
      </trkpt>
      <trkpt lat="46.01165" lon="3.74945">
        <ele>543.3004</ele>
        <time>2012-06-09T13:28:05Z</time>
      </trkpt>
      <trkpt lat="46.01163" lon="3.74973">
        <ele>544.6506</ele>
        <time>2012-06-09T13:28:14Z</time>
      </trkpt>
      <trkpt lat="46.01165" lon="3.74999">
        <ele>547.8566</ele>
        <time>2012-06-09T13:28:27Z</time>
      </trkpt>
      <trkpt lat="46.01173" lon="3.75022">
        <ele>553.1611</ele>
        <time>2012-06-09T13:28:41Z</time>
      </trkpt>
      <trkpt lat="46.01179" lon="3.75048">
        <ele>558.5482</ele>
        <time>2012-06-09T13:28:55Z</time>
      </trkpt>
      <trkpt lat="46.0118" lon="3.75076">
        <ele>563.40204</ele>
        <time>2012-06-09T13:29:07Z</time>
      </trkpt>
      <trkpt lat="46.01183" lon="3.75102">
        <ele>567.6392</ele>
        <time>2012-06-09T13:29:17Z</time>
      </trkpt>
      <trkpt lat="46.01185" lon="3.75127">
        <ele>572.2882</ele>
        <time>2012-06-09T13:29:27Z</time>
      </trkpt>
      <trkpt lat="46.01186" lon="3.75155">
        <ele>577.3699</ele>
        <time>2012-06-09T13:29:38Z</time>
      </trkpt>
      <trkpt lat="46.01183" lon="3.75181">
        <ele>581.8874</ele>
        <time>2012-06-09T13:29:48Z</time>
      </trkpt>
      <trkpt lat="46.01177" lon="3.75207">
        <ele>586.74396</ele>
        <time>2012-06-09T13:30:00Z</time>
      </trkpt>
      <trkpt lat="46.01175" lon="3.75232">
        <ele>590.80164</ele>
        <time>2012-06-09T13:30:11Z</time>
      </trkpt>
      <trkpt lat="46.01178" lon="3.75258">
        <ele>594.5791</ele>
        <time>2012-06-09T13:30:22Z</time>
      </trkpt>
      <trkpt lat="46.0118" lon="3.75284">
        <ele>598.08746</ele>
        <time>2012-06-09T13:30:36Z</time>
      </trkpt>
      <trkpt lat="46.01186" lon="3.7531">
        <ele>600.75555</ele>
        <time>2012-06-09T13:30:48Z</time>
      </trkpt>
      <trkpt lat="46.0119" lon="3.75335">
        <ele>602.8733</ele>
        <time>2012-06-09T13:30:56Z</time>
      </trkpt>
      <trkpt lat="46.0119" lon="3.75363">
        <ele>605.1876</ele>
        <time>2012-06-09T13:31:02Z</time>
      </trkpt>
      <trkpt lat="46.01187" lon="3.75391">
        <ele>608.0209</ele>
        <time>2012-06-09T13:31:09Z</time>
      </trkpt>
      <trkpt lat="46.01185" lon="3.75417">
        <ele>610.5487</ele>
        <time>2012-06-09T13:31:16Z</time>
      </trkpt>
      <trkpt lat="46.01182" lon="3.75443">
        <ele>612.8191</ele>
        <time>2012-06-09T13:31:23Z</time>
      </trkpt>
      <trkpt lat="46.01175" lon="3.75468">
        <ele>615.2551</ele>
        <time>2012-06-09T13:31:30Z</time>
      </trkpt>
      <trkpt lat="46.01168" lon="3.75496">
        <ele>618.07324</ele>
        <time>2012-06-09T13:31:38Z</time>
      </trkpt>
      <trkpt lat="46.01155" lon="3.75516">
        <ele>620.55566</ele>
        <time>2012-06-09T13:31:45Z</time>
      </trkpt>
      <trkpt lat="46.01143" lon="3.75537">
        <ele>623.8219</ele>
        <time>2012-06-09T13:31:55Z</time>
      </trkpt>
      <trkpt lat="46.01131" lon="3.75559">
        <ele>627.82904</ele>
        <time>2012-06-09T13:32:08Z</time>
      </trkpt>
      <trkpt lat="46.01115" lon="3.75571">
        <ele>631.753</ele>
        <time>2012-06-09T13:32:43Z</time>
      </trkpt>
      <trkpt lat="46.01107" lon="3.75595">
        <ele>637.553</ele>
        <time>2012-06-09T13:37:08Z</time>
      </trkpt>
      <trkpt lat="46.01112" lon="3.75623">
        <ele>638.303</ele>
        <time>2012-06-09T13:38:17Z</time>
      </trkpt>
      <trkpt lat="46.01112" lon="3.75651">
        <ele>637.5403</ele>
        <time>2012-06-09T13:38:21Z</time>
      </trkpt>
      <trkpt lat="46.01112" lon="3.75679">
        <ele>636.6154</ele>
        <time>2012-06-09T13:38:25Z</time>
      </trkpt>
      <trkpt lat="46.01115" lon="3.75707">
        <ele>635.88916</ele>
        <time>2012-06-09T13:38:29Z</time>
      </trkpt>
      <trkpt lat="46.01117" lon="3.75732">
        <ele>635.1167</ele>
        <time>2012-06-09T13:38:32Z</time>
      </trkpt>
      <trkpt lat="46.01122" lon="3.75758">
        <ele>633.9241</ele>
        <time>2012-06-09T13:38:37Z</time>
      </trkpt>
      <trkpt lat="46.01133" lon="3.7578">
        <ele>633.619</ele>
        <time>2012-06-09T13:38:43Z</time>
      </trkpt>
      <trkpt lat="46.01145" lon="3.75801">
        <ele>633.56866</ele>
        <time>2012-06-09T13:38:48Z</time>
      </trkpt>
      <trkpt lat="46.01156" lon="3.75825">
        <ele>632.794</ele>
        <time>2012-06-09T13:38:53Z</time>
      </trkpt>
      <trkpt lat="46.01162" lon="3.7585">
        <ele>632.5959</ele>
        <time>2012-06-09T13:38:59Z</time>
      </trkpt>
      <trkpt lat="46.01169" lon="3.7588">
        <ele>632.5606</ele>
        <time>2012-06-09T13:39:05Z</time>
      </trkpt>
      <trkpt lat="46.01172" lon="3.75906">
        <ele>632.5548</ele>
        <time>2012-06-09T13:39:10Z</time>
      </trkpt>
      <trkpt lat="46.01174" lon="3.75932">
        <ele>632.5534</ele>
        <time>2012-06-09T13:39:15Z</time>
      </trkpt>
      <trkpt lat="46.01173" lon="3.75964">
        <ele>632.11554</ele>
        <time>2012-06-09T13:39:22Z</time>
      </trkpt>
      <trkpt lat="46.01171" lon="3.75992">
        <ele>631.65314</ele>
        <time>2012-06-09T13:39:28Z</time>
      </trkpt>
      <trkpt lat="46.01166" lon="3.7602">
        <ele>631.5708</ele>
        <time>2012-06-09T13:39:34Z</time>
      </trkpt>
      <trkpt lat="46.01161" lon="3.76046">
        <ele>631.55615</ele>
        <time>2012-06-09T13:39:40Z</time>
      </trkpt>
      <trkpt lat="46.01151" lon="3.76069">
        <ele>631.5536</ele>
        <time>2012-06-09T13:39:46Z</time>
      </trkpt>
      <trkpt lat="46.01141" lon="3.76093">
        <ele>631.5531</ele>
        <time>2012-06-09T13:39:52Z</time>
      </trkpt>
      <trkpt lat="46.0113" lon="3.76114">
        <ele>631.55304</ele>
        <time>2012-06-09T13:39:58Z</time>
      </trkpt>
      <trkpt lat="46.01117" lon="3.76136">
        <ele>631.553</ele>
        <time>2012-06-09T13:40:05Z</time>
      </trkpt>
      <trkpt lat="46.01101" lon="3.76153">
        <ele>631.553</ele>
        <time>2012-06-09T13:40:12Z</time>
      </trkpt>
      <trkpt lat="46.01094" lon="3.76189">
        <ele>631.553</ele>
        <time>2012-06-09T13:40:24Z</time>
      </trkpt>
      <trkpt lat="46.01092" lon="3.76226">
        <ele>631.803</ele>
        <time>2012-06-09T13:40:35Z</time>
      </trkpt>
      <trkpt lat="46.01088" lon="3.76252">
        <ele>632.4779</ele>
        <time>2012-06-09T13:40:43Z</time>
      </trkpt>
      <trkpt lat="46.0108" lon="3.76277">
        <ele>633.55817</ele>
        <time>2012-06-09T13:40:51Z</time>
      </trkpt>
      <trkpt lat="46.0106" lon="3.76307">
        <ele>636.54504</ele>
        <time>2012-06-09T13:41:04Z</time>
      </trkpt>
      <trkpt lat="46.01042" lon="3.76323">
        <ele>643.3905</ele>
        <time>2012-06-09T13:41:30Z</time>
      </trkpt>
      <trkpt lat="46.01029" lon="3.76342">
        <ele>648.6971</ele>
        <time>2012-06-09T13:41:48Z</time>
      </trkpt>
      <trkpt lat="46.01017" lon="3.76363">
        <ele>651.8101</ele>
        <time>2012-06-09T13:42:02Z</time>
      </trkpt>
      <trkpt lat="46.01007" lon="3.76385">
        <ele>654.93774</ele>
        <time>2012-06-09T13:42:15Z</time>
      </trkpt>
      <trkpt lat="46.00999" lon="3.76408">
        <ele>657.4646</ele>
        <time>2012-06-09T13:42:26Z</time>
      </trkpt>
      <trkpt lat="46.00992" lon="3.76432">
        <ele>659.81104</ele>
        <time>2012-06-09T13:42:37Z</time>
      </trkpt>
      <trkpt lat="46.00982" lon="3.76458">
        <ele>661.9559</ele>
        <time>2012-06-09T13:42:47Z</time>
      </trkpt>
      <trkpt lat="46.0097" lon="3.76481">
        <ele>664.04333</ele>
        <time>2012-06-09T13:42:55Z</time>
      </trkpt>
      <trkpt lat="46.0096" lon="3.76505">
        <ele>666.69916</ele>
        <time>2012-06-09T13:43:04Z</time>
      </trkpt>
      <trkpt lat="46.00951" lon="3.76529">
        <ele>668.72705</ele>
        <time>2012-06-09T13:43:12Z</time>
      </trkpt>
      <trkpt lat="46.00939" lon="3.76552">
        <ele>670.12634</ele>
        <time>2012-06-09T13:43:19Z</time>
      </trkpt>
      <trkpt lat="46.00924" lon="3.76569">
        <ele>671.61255</ele>
        <time>2012-06-09T13:43:26Z</time>
      </trkpt>
      <trkpt lat="46.00909" lon="3.76589">
        <ele>672.865</ele>
        <time>2012-06-09T13:43:33Z</time>
      </trkpt>
      <trkpt lat="46.00895" lon="3.76608">
        <ele>674.26404</ele>
        <time>2012-06-09T13:43:42Z</time>
      </trkpt>
      <trkpt lat="46.00877" lon="3.76595">
        <ele>676.9976</ele>
        <time>2012-06-09T13:44:22Z</time>
      </trkpt>
      <trkpt lat="46.0086" lon="3.7658">
        <ele>678.99976</ele>
        <time>2012-06-09T13:44:32Z</time>
      </trkpt>
      <trkpt lat="46.00842" lon="3.76569">
        <ele>680.38837</ele>
        <time>2012-06-09T13:44:42Z</time>
      </trkpt>
      <trkpt lat="46.00826" lon="3.76556">
        <ele>681.9061</ele>
        <time>2012-06-09T13:44:52Z</time>
      </trkpt>
      <trkpt lat="46.0081" lon="3.76541">
        <ele>683.1718</ele>
        <time>2012-06-09T13:45:00Z</time>
      </trkpt>
      <trkpt lat="46.00794" lon="3.76524">
        <ele>684.33685</ele>
        <time>2012-06-09T13:45:08Z</time>
      </trkpt>
      <trkpt lat="46.00779" lon="3.76509">
        <ele>685.8282</ele>
        <time>2012-06-09T13:45:15Z</time>
      </trkpt>
      <trkpt lat="46.00764" lon="3.7649">
        <ele>687.03436</ele>
        <time>2012-06-09T13:45:22Z</time>
      </trkpt>
      <trkpt lat="46.00749" lon="3.76473">
        <ele>688.1443</ele>
        <time>2012-06-09T13:45:28Z</time>
      </trkpt>
      <trkpt lat="46.00736" lon="3.76453">
        <ele>689.1639</ele>
        <time>2012-06-09T13:45:34Z</time>
      </trkpt>
      <trkpt lat="46.0072" lon="3.76434">
        <ele>691.3044</ele>
        <time>2012-06-09T13:45:39Z</time>
      </trkpt>
      <trkpt lat="46.00707" lon="3.7641">
        <ele>693.1825</ele>
        <time>2012-06-09T13:45:42Z</time>
      </trkpt>
      <trkpt lat="46.00692" lon="3.76387">
        <ele>693.9748</ele>
        <time>2012-06-09T13:45:45Z</time>
      </trkpt>
      <trkpt lat="46.00676" lon="3.76368">
        <ele>694.3091</ele>
        <time>2012-06-09T13:45:48Z</time>
      </trkpt>
      <trkpt lat="46.00659" lon="3.76353">
        <ele>693.87195</ele>
        <time>2012-06-09T13:45:51Z</time>
      </trkpt>
      <trkpt lat="46.0064" lon="3.76335">
        <ele>693.40393</ele>
        <time>2012-06-09T13:45:55Z</time>
      </trkpt>
      <trkpt lat="46.00626" lon="3.76316">
        <ele>692.912</ele>
        <time>2012-06-09T13:45:58Z</time>
      </trkpt>
      <trkpt lat="46.00616" lon="3.76288">
        <ele>692.26697</ele>
        <time>2012-06-09T13:46:01Z</time>
      </trkpt>
      <trkpt lat="46.00606" lon="3.76262">
        <ele>691.27606</ele>
        <time>2012-06-09T13:46:04Z</time>
      </trkpt>
      <trkpt lat="46.00592" lon="3.76232">
        <ele>689.7255</ele>
        <time>2012-06-09T13:46:12Z</time>
      </trkpt>
      <trkpt lat="46.00583" lon="3.76207">
        <ele>689.316</ele>
        <time>2012-06-09T13:46:21Z</time>
      </trkpt>
      <trkpt lat="46.00573" lon="3.76181">
        <ele>687.8005</ele>
        <time>2012-06-09T13:46:26Z</time>
      </trkpt>
      <trkpt lat="46.00565" lon="3.76157">
        <ele>686.11957</ele>
        <time>2012-06-09T13:46:30Z</time>
      </trkpt>
      <trkpt lat="46.0055" lon="3.76136">
        <ele>683.99115</ele>
        <time>2012-06-09T13:46:35Z</time>
      </trkpt>
      <trkpt lat="46.00533" lon="3.76114">
        <ele>681.6941</ele>
        <time>2012-06-09T13:46:40Z</time>
      </trkpt>
      <trkpt lat="46.00517" lon="3.76093">
        <ele>680.33594</ele>
        <time>2012-06-09T13:46:44Z</time>
      </trkpt>
      <trkpt lat="46.00501" lon="3.76074">
        <ele>679.4458</ele>
        <time>2012-06-09T13:46:47Z</time>
      </trkpt>
      <trkpt lat="46.00484" lon="3.76056">
        <ele>678.9296</ele>
        <time>2012-06-09T13:46:50Z</time>
      </trkpt>
      <trkpt lat="46.00469" lon="3.76041">
        <ele>678.4619</ele>
        <time>2012-06-09T13:46:53Z</time>
      </trkpt>
      <trkpt lat="46.00451" lon="3.76026">
        <ele>677.5906</ele>
        <time>2012-06-09T13:46:57Z</time>
      </trkpt>
      <trkpt lat="46.0043" lon="3.76011">
        <ele>676.8813</ele>
        <time>2012-06-09T13:47:01Z</time>
      </trkpt>
      <trkpt lat="46.0041" lon="3.76005">
        <ele>676.40686</ele>
        <time>2012-06-09T13:47:05Z</time>
      </trkpt>
      <trkpt lat="46.00391" lon="3.76005">
        <ele>676.4013</ele>
        <time>2012-06-09T13:47:09Z</time>
      </trkpt>
      <trkpt lat="46.00373" lon="3.76014">
        <ele>676.255</ele>
        <time>2012-06-09T13:47:13Z</time>
      </trkpt>
      <trkpt lat="46.00355" lon="3.76022">
        <ele>675.7196</ele>
        <time>2012-06-09T13:47:18Z</time>
      </trkpt>
      <trkpt lat="46.00335" lon="3.76024">
        <ele>675.58264</ele>
        <time>2012-06-09T13:47:24Z</time>
      </trkpt>
      <trkpt lat="46.00318" lon="3.76016">
        <ele>674.79736</ele>
        <time>2012-06-09T13:47:29Z</time>
      </trkpt>
      <trkpt lat="46.00301" lon="3.76001">
        <ele>674.5965</ele>
        <time>2012-06-09T13:47:35Z</time>
      </trkpt>
      <trkpt lat="46.00287" lon="3.75981">
        <ele>674.5607</ele>
        <time>2012-06-09T13:47:41Z</time>
      </trkpt>
      <trkpt lat="46.00271" lon="3.75964">
        <ele>674.5544</ele>
        <time>2012-06-09T13:47:47Z</time>
      </trkpt>
      <trkpt lat="46.00255" lon="3.75949">
        <ele>674.11584</ele>
        <time>2012-06-09T13:47:52Z</time>
      </trkpt>
      <trkpt lat="46.00234" lon="3.75934">
        <ele>674.4493</ele>
        <time>2012-06-09T13:47:57Z</time>
      </trkpt>
      <trkpt lat="46.00216" lon="3.75926">
        <ele>674.5284</ele>
        <time>2012-06-09T13:48:02Z</time>
      </trkpt>
      <trkpt lat="46.00197" lon="3.75913">
        <ele>674.79865</ele>
        <time>2012-06-09T13:48:08Z</time>
      </trkpt>
      <trkpt lat="46.00177" lon="3.759">
        <ele>675.45233</ele>
        <time>2012-06-09T13:48:15Z</time>
      </trkpt>
      <trkpt lat="46.0016" lon="3.75889">
        <ele>676.2127</ele>
        <time>2012-06-09T13:48:20Z</time>
      </trkpt>
      <trkpt lat="46.00144" lon="3.75876">
        <ele>677.2551</ele>
        <time>2012-06-09T13:48:26Z</time>
      </trkpt>
      <trkpt lat="46.00128" lon="3.75859">
        <ele>678.9579</ele>
        <time>2012-06-09T13:48:33Z</time>
      </trkpt>
      <trkpt lat="46.00115" lon="3.7584">
        <ele>680.3807</ele>
        <time>2012-06-09T13:48:39Z</time>
      </trkpt>
      <trkpt lat="46.001" lon="3.7582">
        <ele>681.7123</ele>
        <time>2012-06-09T13:48:44Z</time>
      </trkpt>
      <trkpt lat="46.00087" lon="3.75801">
        <ele>684.9198</ele>
        <time>2012-06-09T13:48:48Z</time>
      </trkpt>
      <trkpt lat="46.00071" lon="3.7578">
        <ele>687.84094</ele>
        <time>2012-06-09T13:48:52Z</time>
      </trkpt>
      <trkpt lat="46.00057" lon="3.7576">
        <ele>688.83075</ele>
        <time>2012-06-09T13:48:55Z</time>
      </trkpt>
      <trkpt lat="46.0004" lon="3.75741">
        <ele>689.32446</ele>
        <time>2012-06-09T13:48:59Z</time>
      </trkpt>
      <trkpt lat="46.00021" lon="3.75732">
        <ele>688.9026</ele>
        <time>2012-06-09T13:49:03Z</time>
      </trkpt>
      <trkpt lat="45.99998" lon="3.75728">
        <ele>688.1224</ele>
        <time>2012-06-09T13:49:06Z</time>
      </trkpt>
      <trkpt lat="45.99972" lon="3.75728">
        <ele>687.3557</ele>
        <time>2012-06-09T13:49:09Z</time>
      </trkpt>
      <trkpt lat="45.99954" lon="3.75728">
        <ele>687.0045</ele>
        <time>2012-06-09T13:49:11Z</time>
      </trkpt>
      <trkpt lat="45.99927" lon="3.7573">
        <ele>686.30597</ele>
        <time>2012-06-09T13:49:14Z</time>
      </trkpt>
      <trkpt lat="45.999" lon="3.75735">
        <ele>685.43317</ele>
        <time>2012-06-09T13:49:17Z</time>
      </trkpt>
      <trkpt lat="45.99877" lon="3.75739">
        <ele>684.3462</ele>
        <time>2012-06-09T13:49:20Z</time>
      </trkpt>
      <trkpt lat="45.99851" lon="3.75745">
        <ele>683.0595</ele>
        <time>2012-06-09T13:49:23Z</time>
      </trkpt>
      <trkpt lat="45.99825" lon="3.75754">
        <ele>681.75104</ele>
        <time>2012-06-09T13:49:26Z</time>
      </trkpt>
      <trkpt lat="45.99807" lon="3.75758">
        <ele>680.9769</ele>
        <time>2012-06-09T13:49:28Z</time>
      </trkpt>
      <trkpt lat="45.99787" lon="3.75762">
        <ele>680.35394</ele>
        <time>2012-06-09T13:49:30Z</time>
      </trkpt>
      <trkpt lat="45.99761" lon="3.75767">
        <ele>679.0628</ele>
        <time>2012-06-09T13:49:33Z</time>
      </trkpt>
      <trkpt lat="45.99736" lon="3.75769">
        <ele>677.1118</ele>
        <time>2012-06-09T13:49:36Z</time>
      </trkpt>
      <trkpt lat="45.99711" lon="3.75771">
        <ele>674.1169</ele>
        <time>2012-06-09T13:49:39Z</time>
      </trkpt>
      <trkpt lat="45.99686" lon="3.75771">
        <ele>669.77527</ele>
        <time>2012-06-09T13:49:42Z</time>
      </trkpt>
      <trkpt lat="45.99663" lon="3.7578">
        <ele>666.31866</ele>
        <time>2012-06-09T13:49:45Z</time>
      </trkpt>
      <trkpt lat="45.99644" lon="3.75782">
        <ele>663.4541</ele>
        <time>2012-06-09T13:49:48Z</time>
      </trkpt>
      <trkpt lat="45.99626" lon="3.7576">
        <ele>660.9488</ele>
        <time>2012-06-09T13:49:51Z</time>
      </trkpt>
      <trkpt lat="45.99615" lon="3.75732">
        <ele>658.7356</ele>
        <time>2012-06-09T13:49:54Z</time>
      </trkpt>
      <trkpt lat="45.9961" lon="3.757">
        <ele>656.78625</ele>
        <time>2012-06-09T13:49:57Z</time>
      </trkpt>
      <trkpt lat="45.99601" lon="3.75677">
        <ele>653.6514</ele>
        <time>2012-06-09T13:50:00Z</time>
      </trkpt>
      <trkpt lat="45.99584" lon="3.75664">
        <ele>647.5531</ele>
        <time>2012-06-09T13:50:39Z</time>
      </trkpt>
      <trkpt lat="45.99561" lon="3.75655">
        <ele>636.5921</ele>
        <time>2012-06-09T13:50:43Z</time>
      </trkpt>
      <trkpt lat="45.99543" lon="3.75653">
        <ele>629.85077</ele>
        <time>2012-06-09T13:50:46Z</time>
      </trkpt>
      <trkpt lat="45.99524" lon="3.75647">
        <ele>623.59644</ele>
        <time>2012-06-09T13:50:50Z</time>
      </trkpt>
      <trkpt lat="45.99507" lon="3.75636">
        <ele>619.9932</ele>
        <time>2012-06-09T13:50:53Z</time>
      </trkpt>
      <trkpt lat="45.99488" lon="3.75621">
        <ele>616.62585</ele>
        <time>2012-06-09T13:50:57Z</time>
      </trkpt>
      <trkpt lat="45.99475" lon="3.75593">
        <ele>613.69714</ele>
        <time>2012-06-09T13:51:01Z</time>
      </trkpt>
      <trkpt lat="45.99462" lon="3.75567">
        <ele>611.7701</ele>
        <time>2012-06-09T13:51:04Z</time>
      </trkpt>
      <trkpt lat="45.99453" lon="3.75544">
        <ele>609.5709</ele>
        <time>2012-06-09T13:51:08Z</time>
      </trkpt>
      <trkpt lat="45.99455" lon="3.75514">
        <ele>607.5446</ele>
        <time>2012-06-09T13:51:27Z</time>
      </trkpt>
      <trkpt lat="45.99468" lon="3.7549">
        <ele>604.7793</ele>
        <time>2012-06-09T13:51:33Z</time>
      </trkpt>
      <trkpt lat="45.99473" lon="3.75462">
        <ele>601.30005</ele>
        <time>2012-06-09T13:51:40Z</time>
      </trkpt>
      <trkpt lat="45.99469" lon="3.75432">
        <ele>599.1268</ele>
        <time>2012-06-09T13:51:51Z</time>
      </trkpt>
      <trkpt lat="45.99465" lon="3.75406">
        <ele>596.6979</ele>
        <time>2012-06-09T13:51:59Z</time>
      </trkpt>
      <trkpt lat="45.99466" lon="3.75365">
        <ele>593.43835</ele>
        <time>2012-06-09T13:52:15Z</time>
      </trkpt>
      <trkpt lat="45.99484" lon="3.75338">
        <ele>590.3642</ele>
        <time>2012-06-09T13:52:40Z</time>
      </trkpt>
      <trkpt lat="45.99499" lon="3.75323">
        <ele>589.55646</ele>
        <time>2012-06-09T13:52:59Z</time>
      </trkpt>
      <trkpt lat="45.99515" lon="3.75305">
        <ele>589.5531</ele>
        <time>2012-06-09T13:53:12Z</time>
      </trkpt>
      <trkpt lat="45.99526" lon="3.7528">
        <ele>589.553</ele>
        <time>2012-06-09T13:53:32Z</time>
      </trkpt>
      <trkpt lat="45.99505" lon="3.75271">
        <ele>589.803</ele>
        <time>2012-06-09T13:53:52Z</time>
      </trkpt>
      <trkpt lat="45.99482" lon="3.75258">
        <ele>590.7998</ele>
        <time>2012-06-09T13:54:11Z</time>
      </trkpt>
      <trkpt lat="45.99462" lon="3.75237">
        <ele>592.662</ele>
        <time>2012-06-09T13:54:27Z</time>
      </trkpt>
      <trkpt lat="45.99449" lon="3.75215">
        <ele>595.5037</ele>
        <time>2012-06-09T13:54:40Z</time>
      </trkpt>
      <trkpt lat="45.99447" lon="3.7519">
        <ele>598.29376</ele>
        <time>2012-06-09T13:54:53Z</time>
      </trkpt>
      <trkpt lat="45.99441" lon="3.75164">
        <ele>608.3776</ele>
        <time>2012-06-09T13:56:06Z</time>
      </trkpt>
      <trkpt lat="45.99427" lon="3.75147">
        <ele>610.4129</ele>
        <time>2012-06-09T13:56:24Z</time>
      </trkpt>
      <trkpt lat="45.99413" lon="3.75127">
        <ele>611.4956</ele>
        <time>2012-06-09T13:56:41Z</time>
      </trkpt>
      <trkpt lat="45.99397" lon="3.75112">
        <ele>612.45154</ele>
        <time>2012-06-09T13:56:54Z</time>
      </trkpt>
      <trkpt lat="45.99382" lon="3.75097">
        <ele>612.7998</ele>
        <time>2012-06-09T13:57:06Z</time>
      </trkpt>
      <trkpt lat="45.99364" lon="3.75089">
        <ele>613.5351</ele>
        <time>2012-06-09T13:57:19Z</time>
      </trkpt>
      <trkpt lat="45.99346" lon="3.7508">
        <ele>614.9336</ele>
        <time>2012-06-09T13:57:31Z</time>
      </trkpt>
      <trkpt lat="45.99328" lon="3.75072">
        <ele>617.6182</ele>
        <time>2012-06-09T13:57:41Z</time>
      </trkpt>
      <trkpt lat="45.9931" lon="3.75061">
        <ele>621.68353</ele>
        <time>2012-06-09T13:57:54Z</time>
      </trkpt>
      <trkpt lat="45.99293" lon="3.7505">
        <ele>625.08417</ele>
        <time>2012-06-09T13:58:07Z</time>
      </trkpt>
      <trkpt lat="45.99276" lon="3.75039">
        <ele>628.08997</ele>
        <time>2012-06-09T13:58:19Z</time>
      </trkpt>
      <trkpt lat="45.99258" lon="3.75033">
        <ele>631.2086</ele>
        <time>2012-06-09T13:58:33Z</time>
      </trkpt>
      <trkpt lat="45.9924" lon="3.75024">
        <ele>634.1376</ele>
        <time>2012-06-09T13:58:47Z</time>
      </trkpt>
      <trkpt lat="45.99222" lon="3.75014">
        <ele>637.0949</ele>
        <time>2012-06-09T13:59:00Z</time>
      </trkpt>
      <trkpt lat="45.99205" lon="3.75005">
        <ele>639.5683</ele>
        <time>2012-06-09T13:59:12Z</time>
      </trkpt>
      <trkpt lat="45.99189" lon="3.74992">
        <ele>642.4594</ele>
        <time>2012-06-09T13:59:24Z</time>
      </trkpt>
      <trkpt lat="45.99172" lon="3.74984">
        <ele>645.5427</ele>
        <time>2012-06-09T13:59:37Z</time>
      </trkpt>
      <trkpt lat="45.99155" lon="3.74973">
        <ele>648.1375</ele>
        <time>2012-06-09T13:59:50Z</time>
      </trkpt>
      <trkpt lat="45.99137" lon="3.74966">
        <ele>650.8155</ele>
        <time>2012-06-09T14:00:03Z</time>
      </trkpt>
      <trkpt lat="45.99119" lon="3.74956">
        <ele>653.1304</ele>
        <time>2012-06-09T14:00:14Z</time>
      </trkpt>
      <trkpt lat="45.99103" lon="3.74943">
        <ele>655.93756</ele>
        <time>2012-06-09T14:00:25Z</time>
      </trkpt>
      <trkpt lat="45.99087" lon="3.7493">
        <ele>658.1355</ele>
        <time>2012-06-09T14:00:36Z</time>
      </trkpt>
      <trkpt lat="45.99071" lon="3.74917">
        <ele>660.03253</ele>
        <time>2012-06-09T14:00:46Z</time>
      </trkpt>
      <trkpt lat="45.99055" lon="3.74902">
        <ele>661.38043</ele>
        <time>2012-06-09T14:00:55Z</time>
      </trkpt>
      <trkpt lat="45.99039" lon="3.74887">
        <ele>662.90247</ele>
        <time>2012-06-09T14:01:04Z</time>
      </trkpt>
      <trkpt lat="45.99024" lon="3.74872">
        <ele>664.392</ele>
        <time>2012-06-09T14:01:15Z</time>
      </trkpt>
      <trkpt lat="45.9901" lon="3.74855">
        <ele>667.5107</ele>
        <time>2012-06-09T14:02:33Z</time>
      </trkpt>
      <trkpt lat="45.99001" lon="3.74831">
        <ele>671.40234</ele>
        <time>2012-06-09T14:03:05Z</time>
      </trkpt>
      <trkpt lat="45.98994" lon="3.74805">
        <ele>674.8178</ele>
        <time>2012-06-09T14:03:09Z</time>
      </trkpt>
      <trkpt lat="45.98986" lon="3.74782">
        <ele>676.71936</ele>
        <time>2012-06-09T14:03:14Z</time>
      </trkpt>
      <trkpt lat="45.98977" lon="3.74758">
        <ele>677.4046</ele>
        <time>2012-06-09T14:03:20Z</time>
      </trkpt>
      <trkpt lat="45.98966" lon="3.74737">
        <ele>678.10474</ele>
        <time>2012-06-09T14:03:26Z</time>
      </trkpt>
      <trkpt lat="45.98951" lon="3.74715">
        <ele>678.5081</ele>
        <time>2012-06-09T14:03:34Z</time>
      </trkpt>
      <trkpt lat="45.98933" lon="3.747">
        <ele>678.545</ele>
        <time>2012-06-09T14:03:40Z</time>
      </trkpt>
      <trkpt lat="45.98913" lon="3.74687">
        <ele>678.5516</ele>
        <time>2012-06-09T14:03:46Z</time>
      </trkpt>
      <trkpt lat="45.98894" lon="3.74677">
        <ele>678.55273</ele>
        <time>2012-06-09T14:03:52Z</time>
      </trkpt>
      <trkpt lat="45.98875" lon="3.74666">
        <ele>678.803</ele>
        <time>2012-06-09T14:03:58Z</time>
      </trkpt>
      <trkpt lat="45.98854" lon="3.74657">
        <ele>679.4529</ele>
        <time>2012-06-09T14:04:05Z</time>
      </trkpt>
      <trkpt lat="45.98835" lon="3.74653">
        <ele>679.53516</ele>
        <time>2012-06-09T14:04:11Z</time>
      </trkpt>
      <trkpt lat="45.98816" lon="3.74647">
        <ele>679.5498</ele>
        <time>2012-06-09T14:04:17Z</time>
      </trkpt>
      <trkpt lat="45.98796" lon="3.7464">
        <ele>679.5524</ele>
        <time>2012-06-09T14:04:23Z</time>
      </trkpt>
      <trkpt lat="45.98778" lon="3.74634">
        <ele>679.55286</ele>
        <time>2012-06-09T14:04:28Z</time>
      </trkpt>
      <trkpt lat="45.98758" lon="3.74627">
        <ele>679.553</ele>
        <time>2012-06-09T14:04:34Z</time>
      </trkpt>
      <trkpt lat="45.9874" lon="3.74621">
        <ele>680.375</ele>
        <time>2012-06-09T14:04:40Z</time>
      </trkpt>
      <trkpt lat="45.98721" lon="3.74614">
        <ele>679.8377</ele>
        <time>2012-06-09T14:04:46Z</time>
      </trkpt>
      <trkpt lat="45.98703" lon="3.74608">
        <ele>679.6037</ele>
        <time>2012-06-09T14:04:52Z</time>
      </trkpt>
      <trkpt lat="45.98685" lon="3.74602">
        <ele>678.9839</ele>
        <time>2012-06-09T14:04:58Z</time>
      </trkpt>
      <trkpt lat="45.98669" lon="3.74589">
        <ele>679.0928</ele>
        <time>2012-06-09T14:05:03Z</time>
      </trkpt>
      <trkpt lat="45.98655" lon="3.74567">
        <ele>679.6938</ele>
        <time>2012-06-09T14:05:08Z</time>
      </trkpt>
      <trkpt lat="45.9865" lon="3.74539">
        <ele>680.7866</ele>
        <time>2012-06-09T14:05:13Z</time>
      </trkpt>
      <trkpt lat="45.98647" lon="3.74514">
        <ele>682.4293</ele>
        <time>2012-06-09T14:05:19Z</time>
      </trkpt>
      <trkpt lat="45.98646" lon="3.74486">
        <ele>684.6032</ele>
        <time>2012-06-09T14:05:26Z</time>
      </trkpt>
      <trkpt lat="45.98644" lon="3.74454">
        <ele>687.88007</ele>
        <time>2012-06-09T14:05:32Z</time>
      </trkpt>
      <trkpt lat="45.98641" lon="3.74428">
        <ele>692.9182</ele>
        <time>2012-06-09T14:05:36Z</time>
      </trkpt>
      <trkpt lat="45.98639" lon="3.744">
        <ele>696.2311</ele>
        <time>2012-06-09T14:05:40Z</time>
      </trkpt>
      <trkpt lat="45.9864" lon="3.74372">
        <ele>698.6464</ele>
        <time>2012-06-09T14:05:44Z</time>
      </trkpt>
      <trkpt lat="45.98641" lon="3.74344">
        <ele>700.38727</ele>
        <time>2012-06-09T14:05:48Z</time>
      </trkpt>
      <trkpt lat="45.9864" lon="3.74314">
        <ele>701.62164</ele>
        <time>2012-06-09T14:05:52Z</time>
      </trkpt>
      <trkpt lat="45.98639" lon="3.74286">
        <ele>702.2583</ele>
        <time>2012-06-09T14:05:56Z</time>
      </trkpt>
      <trkpt lat="45.98636" lon="3.74258">
        <ele>702.8973</ele>
        <time>2012-06-09T14:06:00Z</time>
      </trkpt>
      <trkpt lat="45.98633" lon="3.74228">
        <ele>704.5185</ele>
        <time>2012-06-09T14:06:05Z</time>
      </trkpt>
      <trkpt lat="45.98634" lon="3.742">
        <ele>705.6649</ele>
        <time>2012-06-09T14:06:12Z</time>
      </trkpt>
      <trkpt lat="45.98637" lon="3.74175">
        <ele>707.0502</ele>
        <time>2012-06-09T14:06:32Z</time>
      </trkpt>
      <trkpt lat="45.98655" lon="3.74164">
        <ele>708.553</ele>
        <time>2012-06-09T14:09:02Z</time>
      </trkpt>
      <trkpt lat="45.98673" lon="3.74151">
        <ele>707.7903</ele>
        <time>2012-06-09T14:09:09Z</time>
      </trkpt>
      <trkpt lat="45.98685" lon="3.74127">
        <ele>707.58466</ele>
        <time>2012-06-09T14:09:16Z</time>
      </trkpt>
      <trkpt lat="45.98685" lon="3.74097">
        <ele>706.7352</ele>
        <time>2012-06-09T14:09:23Z</time>
      </trkpt>
      <trkpt lat="45.98683" lon="3.74069">
        <ele>705.7553</ele>
        <time>2012-06-09T14:09:30Z</time>
      </trkpt>
      <trkpt lat="45.9868" lon="3.74044">
        <ele>704.76697</ele>
        <time>2012-06-09T14:09:36Z</time>
      </trkpt>
      <trkpt lat="45.9868" lon="3.74016">
        <ele>703.7595</ele>
        <time>2012-06-09T14:09:43Z</time>
      </trkpt>
      <trkpt lat="45.98688" lon="3.73988">
        <ele>702.8271</ele>
        <time>2012-06-09T14:09:49Z</time>
      </trkpt>
      <trkpt lat="45.98707" lon="3.73984">
        <ele>700.0069</ele>
        <time>2012-06-09T14:09:53Z</time>
      </trkpt>
      <trkpt lat="45.98728" lon="3.73992">
        <ele>697.3958</ele>
        <time>2012-06-09T14:09:57Z</time>
      </trkpt>
      <trkpt lat="45.98749" lon="3.73996">
        <ele>695.9903</ele>
        <time>2012-06-09T14:10:02Z</time>
      </trkpt>
      <trkpt lat="45.9877" lon="3.73996">
        <ele>695.6568</ele>
        <time>2012-06-09T14:10:07Z</time>
      </trkpt>
      <trkpt lat="45.98788" lon="3.73994">
        <ele>695.57764</ele>
        <time>2012-06-09T14:10:12Z</time>
      </trkpt>
      <trkpt lat="45.98806" lon="3.73981">
        <ele>695.5574</ele>
        <time>2012-06-09T14:10:18Z</time>
      </trkpt>
      <trkpt lat="45.98822" lon="3.73964">
        <ele>696.1319</ele>
        <time>2012-06-09T14:10:24Z</time>
      </trkpt>
      <trkpt lat="45.98839" lon="3.73941">
        <ele>696.7793</ele>
        <time>2012-06-09T14:10:34Z</time>
      </trkpt>
      <trkpt lat="45.98847" lon="3.73913">
        <ele>697.7703</ele>
        <time>2012-06-09T14:10:45Z</time>
      </trkpt>
      <trkpt lat="45.98855" lon="3.73887">
        <ele>698.79517</ele>
        <time>2012-06-09T14:11:01Z</time>
      </trkpt>
      <trkpt lat="45.98871" lon="3.73868">
        <ele>700.8955</ele>
        <time>2012-06-09T14:11:13Z</time>
      </trkpt>
      <trkpt lat="45.98887" lon="3.73853">
        <ele>704.01434</ele>
        <time>2012-06-09T14:11:32Z</time>
      </trkpt>
      <trkpt lat="45.98902" lon="3.73836">
        <ele>705.48804</ele>
        <time>2012-06-09T14:11:43Z</time>
      </trkpt>
      <trkpt lat="45.98904" lon="3.73808">
        <ele>707.22675</ele>
        <time>2012-06-09T14:11:57Z</time>
      </trkpt>
      <trkpt lat="45.98889" lon="3.73778">
        <ele>713.7345</ele>
        <time>2012-06-09T14:12:27Z</time>
      </trkpt>
      <trkpt lat="45.98903" lon="3.7375">
        <ele>717.43774</ele>
        <time>2012-06-09T14:12:59Z</time>
      </trkpt>
      <trkpt lat="45.98918" lon="3.73735">
        <ele>717.5518</ele>
        <time>2012-06-09T14:13:15Z</time>
      </trkpt>
      <trkpt lat="45.98931" lon="3.73715">
        <ele>720.021</ele>
        <time>2012-06-09T14:13:35Z</time>
      </trkpt>
      <trkpt lat="45.98938" lon="3.73692">
        <ele>723.0137</ele>
        <time>2012-06-09T14:13:52Z</time>
      </trkpt>
      <trkpt lat="45.98942" lon="3.73666">
        <ele>724.86</ele>
        <time>2012-06-09T14:14:02Z</time>
      </trkpt>
      <trkpt lat="45.98949" lon="3.7364">
        <ele>726.7735</ele>
        <time>2012-06-09T14:14:12Z</time>
      </trkpt>
      <trkpt lat="45.98956" lon="3.73617">
        <ele>729.49084</ele>
        <time>2012-06-09T14:14:25Z</time>
      </trkpt>
      <trkpt lat="45.98964" lon="3.73591">
        <ele>733.30493</ele>
        <time>2012-06-09T14:14:38Z</time>
      </trkpt>
      <trkpt lat="45.98971" lon="3.73567">
        <ele>736.142</ele>
        <time>2012-06-09T14:14:45Z</time>
      </trkpt>
      <trkpt lat="45.98977" lon="3.73542">
        <ele>738.2355</ele>
        <time>2012-06-09T14:14:51Z</time>
      </trkpt>
      <trkpt lat="45.98982" lon="3.73516">
        <ele>740.6213</ele>
        <time>2012-06-09T14:14:59Z</time>
      </trkpt>
      <trkpt lat="45.98985" lon="3.7349">
        <ele>742.30505</ele>
        <time>2012-06-09T14:15:08Z</time>
      </trkpt>
      <trkpt lat="45.98989" lon="3.73464">
        <ele>743.8968</ele>
        <time>2012-06-09T14:15:17Z</time>
      </trkpt>
      <trkpt lat="45.98986" lon="3.73439">
        <ele>745.11035</ele>
        <time>2012-06-09T14:15:29Z</time>
      </trkpt>
      <trkpt lat="45.98993" lon="3.73413">
        <ele>747.8781</ele>
        <time>2012-06-09T14:15:40Z</time>
      </trkpt>
      <trkpt lat="45.99002" lon="3.73389">
        <ele>751.58234</ele>
        <time>2012-06-09T14:15:51Z</time>
      </trkpt>
      <trkpt lat="45.99015" lon="3.7337">
        <ele>755.42505</ele>
        <time>2012-06-09T14:16:13Z</time>
      </trkpt>
      <trkpt lat="45.99014" lon="3.73342">
        <ele>758.553</ele>
        <time>2012-06-09T14:18:20Z</time>
      </trkpt>
      <trkpt lat="45.9902" lon="3.73316">
        <ele>757.73096</ele>
        <time>2012-06-09T14:18:32Z</time>
      </trkpt>
      <trkpt lat="45.99024" lon="3.73291">
        <ele>755.9332</ele>
        <time>2012-06-09T14:18:43Z</time>
      </trkpt>
      <trkpt lat="45.99027" lon="3.73265">
        <ele>754.0526</ele>
        <time>2012-06-09T14:18:53Z</time>
      </trkpt>
      <trkpt lat="45.99033" lon="3.73237">
        <ele>753.5741</ele>
        <time>2012-06-09T14:19:04Z</time>
      </trkpt>
      <trkpt lat="45.9904" lon="3.73211">
        <ele>754.2375</ele>
        <time>2012-06-09T14:19:15Z</time>
      </trkpt>
      <trkpt lat="45.99044" lon="3.73183">
        <ele>755.205</ele>
        <time>2012-06-09T14:19:23Z</time>
      </trkpt>
      <trkpt lat="45.99053" lon="3.73158">
        <ele>755.7204</ele>
        <time>2012-06-09T14:19:28Z</time>
      </trkpt>
      <trkpt lat="45.99064" lon="3.73132">
        <ele>756.87933</ele>
        <time>2012-06-09T14:19:35Z</time>
      </trkpt>
      <trkpt lat="45.99071" lon="3.73104">
        <ele>758.47577</ele>
        <time>2012-06-09T14:19:42Z</time>
      </trkpt>
      <trkpt lat="45.99075" lon="3.73076">
        <ele>759.21216</ele>
        <time>2012-06-09T14:19:46Z</time>
      </trkpt>
      <trkpt lat="45.9908" lon="3.7305">
        <ele>761.3623</ele>
        <time>2012-06-09T14:19:49Z</time>
      </trkpt>
      <trkpt lat="45.9908" lon="3.73016">
        <ele>764.03503</ele>
        <time>2012-06-09T14:19:52Z</time>
      </trkpt>
      <trkpt lat="45.99078" lon="3.72988">
        <ele>765.3188</ele>
        <time>2012-06-09T14:19:56Z</time>
      </trkpt>
      <trkpt lat="45.99077" lon="3.7296">
        <ele>765.24744</ele>
        <time>2012-06-09T14:20:01Z</time>
      </trkpt>
      <trkpt lat="45.99074" lon="3.7293">
        <ele>762.8235</ele>
        <time>2012-06-09T14:20:05Z</time>
      </trkpt>
      <trkpt lat="45.99078" lon="3.72902">
        <ele>759.80334</ele>
        <time>2012-06-09T14:20:37Z</time>
      </trkpt>
      <trkpt lat="45.9908" lon="3.72874">
        <ele>761.2128</ele>
        <time>2012-06-09T14:20:49Z</time>
      </trkpt>
      <trkpt lat="45.9908" lon="3.72836">
        <ele>763.6939</ele>
        <time>2012-06-09T14:21:08Z</time>
      </trkpt>
      <trkpt lat="45.99094" lon="3.72816">
        <ele>773.8407</ele>
        <time>2012-06-09T14:23:20Z</time>
      </trkpt>
      <trkpt lat="45.99109" lon="3.72801">
        <ele>778.20404</ele>
        <time>2012-06-09T14:23:26Z</time>
      </trkpt>
      <trkpt lat="45.99126" lon="3.72788">
        <ele>780.13495</ele>
        <time>2012-06-09T14:23:32Z</time>
      </trkpt>
      <trkpt lat="45.99143" lon="3.72778">
        <ele>781.5997</ele>
        <time>2012-06-09T14:23:38Z</time>
      </trkpt>
      <trkpt lat="45.9916" lon="3.72765">
        <ele>785.42413</ele>
        <time>2012-06-09T14:23:46Z</time>
      </trkpt>
      <trkpt lat="45.99169" lon="3.72741">
        <ele>793.3304</ele>
        <time>2012-06-09T14:24:10Z</time>
      </trkpt>
      <trkpt lat="45.99172" lon="3.72715">
        <ele>799.52325</ele>
        <time>2012-06-09T14:24:35Z</time>
      </trkpt>
      <trkpt lat="45.99185" lon="3.72696">
        <ele>806.9844</ele>
        <time>2012-06-09T14:25:03Z</time>
      </trkpt>
      <trkpt lat="45.992" lon="3.72681">
        <ele>813.2069</ele>
        <time>2012-06-09T14:25:42Z</time>
      </trkpt>
      <trkpt lat="45.99207" lon="3.72658">
        <ele>816.3025</ele>
        <time>2012-06-09T14:26:03Z</time>
      </trkpt>
      <trkpt lat="45.99217" lon="3.72634">
        <ele>818.0878</ele>
        <time>2012-06-09T14:26:22Z</time>
      </trkpt>
      <trkpt lat="45.99228" lon="3.72612">
        <ele>820.5257</ele>
        <time>2012-06-09T14:26:41Z</time>
      </trkpt>
      <trkpt lat="45.99234" lon="3.72587">
        <ele>821.7896</ele>
        <time>2012-06-09T14:27:17Z</time>
      </trkpt>
      <trkpt lat="45.99242" lon="3.72563">
        <ele>824.5478</ele>
        <time>2012-06-09T14:28:08Z</time>
      </trkpt>
      <trkpt lat="45.99246" lon="3.72537">
        <ele>826.6594</ele>
        <time>2012-06-09T14:28:24Z</time>
      </trkpt>
      <trkpt lat="45.99242" lon="3.72512">
        <ele>829.5866</ele>
        <time>2012-06-09T14:28:41Z</time>
      </trkpt>
      <trkpt lat="45.99243" lon="3.72484">
        <ele>834.51526</ele>
        <time>2012-06-09T14:29:18Z</time>
      </trkpt>
      <trkpt lat="45.99239" lon="3.72458">
        <ele>835.54724</ele>
        <time>2012-06-09T14:29:38Z</time>
      </trkpt>
      <trkpt lat="45.99237" lon="3.7243">
        <ele>836.5529</ele>
        <time>2012-06-09T14:30:13Z</time>
      </trkpt>
      <trkpt lat="45.99244" lon="3.72404">
        <ele>839.1901</ele>
        <time>2012-06-09T14:30:32Z</time>
      </trkpt>
      <trkpt lat="45.9925" lon="3.72379">
        <ele>844.61914</ele>
        <time>2012-06-09T14:31:28Z</time>
      </trkpt>
      <trkpt lat="45.99257" lon="3.72353">
        <ele>848.18677</ele>
        <time>2012-06-09T14:31:41Z</time>
      </trkpt>
      <trkpt lat="45.99255" lon="3.72327">
        <ele>849.9136</ele>
        <time>2012-06-09T14:31:51Z</time>
      </trkpt>
      <trkpt lat="45.99254" lon="3.72297">
        <ele>850.255</ele>
        <time>2012-06-09T14:32:00Z</time>
      </trkpt>
      <trkpt lat="45.99254" lon="3.72269">
        <ele>849.6979</ele>
        <time>2012-06-09T14:32:02Z</time>
      </trkpt>
      <trkpt lat="45.99254" lon="3.72239">
        <ele>848.786</ele>
        <time>2012-06-09T14:32:05Z</time>
      </trkpt>
      <trkpt lat="45.99254" lon="3.72203">
        <ele>847.8232</ele>
        <time>2012-06-09T14:32:08Z</time>
      </trkpt>
      <trkpt lat="45.99255" lon="3.72164">
        <ele>846.01074</ele>
        <time>2012-06-09T14:32:11Z</time>
      </trkpt>
      <trkpt lat="45.99259" lon="3.72138">
        <ele>843.998</ele>
        <time>2012-06-09T14:32:13Z</time>
      </trkpt>
      <trkpt lat="45.99273" lon="3.7211">
        <ele>842.25635</ele>
        <time>2012-06-09T14:32:16Z</time>
      </trkpt>
      <trkpt lat="45.99286" lon="3.72085">
        <ele>841.7199</ele>
        <time>2012-06-09T14:32:21Z</time>
      </trkpt>
      <trkpt lat="45.99299" lon="3.7205">
        <ele>842.4418</ele>
        <time>2012-06-09T14:32:28Z</time>
      </trkpt>
      <trkpt lat="45.99304" lon="3.72022">
        <ele>843.55084</ele>
        <time>2012-06-09T14:32:35Z</time>
      </trkpt>
      <trkpt lat="45.99304" lon="3.71992">
        <ele>845.5686</ele>
        <time>2012-06-09T14:32:45Z</time>
      </trkpt>
      <trkpt lat="45.99299" lon="3.71962">
        <ele>847.46716</ele>
        <time>2012-06-09T14:32:53Z</time>
      </trkpt>
      <trkpt lat="45.99292" lon="3.71937">
        <ele>848.6943</ele>
        <time>2012-06-09T14:33:01Z</time>
      </trkpt>
      <trkpt lat="45.99285" lon="3.71907">
        <ele>850.2512</ele>
        <time>2012-06-09T14:33:10Z</time>
      </trkpt>
      <trkpt lat="45.99277" lon="3.71879">
        <ele>851.28546</ele>
        <time>2012-06-09T14:33:18Z</time>
      </trkpt>
      <trkpt lat="45.99278" lon="3.71849">
        <ele>852.18896</ele>
        <time>2012-06-09T14:33:24Z</time>
      </trkpt>
      <trkpt lat="45.99276" lon="3.71821">
        <ele>853.438</ele>
        <time>2012-06-09T14:33:31Z</time>
      </trkpt>
      <trkpt lat="45.99283" lon="3.71791">
        <ele>855.28815</ele>
        <time>2012-06-09T14:33:37Z</time>
      </trkpt>
      <trkpt lat="45.9929" lon="3.71765">
        <ele>857.2615</ele>
        <time>2012-06-09T14:33:43Z</time>
      </trkpt>
      <trkpt lat="45.99294" lon="3.71735">
        <ele>859.3933</ele>
        <time>2012-06-09T14:33:50Z</time>
      </trkpt>
      <trkpt lat="45.99296" lon="3.71707">
        <ele>861.66614</ele>
        <time>2012-06-09T14:34:02Z</time>
      </trkpt>
      <trkpt lat="45.99306" lon="3.71677">
        <ele>864.82574</ele>
        <time>2012-06-09T14:35:05Z</time>
      </trkpt>
      <trkpt lat="45.99324" lon="3.7167">
        <ele>866.9006</ele>
        <time>2012-06-09T14:35:12Z</time>
      </trkpt>
      <trkpt lat="45.99344" lon="3.7167">
        <ele>867.4369</ele>
        <time>2012-06-09T14:35:18Z</time>
      </trkpt>
      <trkpt lat="45.99364" lon="3.71662">
        <ele>868.28815</ele>
        <time>2012-06-09T14:35:23Z</time>
      </trkpt>
      <trkpt lat="45.99383" lon="3.71655">
        <ele>868.51764</ele>
        <time>2012-06-09T14:35:30Z</time>
      </trkpt>
      <trkpt lat="45.99402" lon="3.71655">
        <ele>867.68585</ele>
        <time>2012-06-09T14:35:44Z</time>
      </trkpt>
      <trkpt lat="45.99421" lon="3.71653">
        <ele>867.55615</ele>
        <time>2012-06-09T14:35:57Z</time>
      </trkpt>
      <trkpt lat="45.99439" lon="3.71655">
        <ele>868.31586</ele>
        <time>2012-06-09T14:36:08Z</time>
      </trkpt>
      <trkpt lat="45.99457" lon="3.71658">
        <ele>869.4943</ele>
        <time>2012-06-09T14:36:24Z</time>
      </trkpt>
      <trkpt lat="45.99476" lon="3.71658">
        <ele>871.4593</ele>
        <time>2012-06-09T14:36:39Z</time>
      </trkpt>
      <trkpt lat="45.99495" lon="3.71658">
        <ele>872.93414</ele>
        <time>2012-06-09T14:37:04Z</time>
      </trkpt>
      <trkpt lat="45.99514" lon="3.71653">
        <ele>874.6833</ele>
        <time>2012-06-09T14:37:16Z</time>
      </trkpt>
      <trkpt lat="45.99532" lon="3.71651">
        <ele>875.4369</ele>
        <time>2012-06-09T14:37:23Z</time>
      </trkpt>
      <trkpt lat="45.99553" lon="3.71647">
        <ele>876.3002</ele>
        <time>2012-06-09T14:37:30Z</time>
      </trkpt>
      <trkpt lat="45.99571" lon="3.71634">
        <ele>877.2904</ele>
        <time>2012-06-09T14:37:38Z</time>
      </trkpt>
      <trkpt lat="45.99585" lon="3.71615">
        <ele>878.09607</ele>
        <time>2012-06-09T14:37:45Z</time>
      </trkpt>
      <trkpt lat="45.99602" lon="3.71602">
        <ele>878.4717</ele>
        <time>2012-06-09T14:37:51Z</time>
      </trkpt>
      <trkpt lat="45.9962" lon="3.71589">
        <ele>879.6614</ele>
        <time>2012-06-09T14:37:59Z</time>
      </trkpt>
      <trkpt lat="45.99635" lon="3.71574">
        <ele>881.0419</ele>
        <time>2012-06-09T14:38:07Z</time>
      </trkpt>
      <trkpt lat="45.99651" lon="3.71557">
        <ele>882.1944</ele>
        <time>2012-06-09T14:38:12Z</time>
      </trkpt>
      <trkpt lat="45.99668" lon="3.71537">
        <ele>883.7487</ele>
        <time>2012-06-09T14:38:18Z</time>
      </trkpt>
      <trkpt lat="45.99683" lon="3.7152">
        <ele>884.988</ele>
        <time>2012-06-09T14:38:24Z</time>
      </trkpt>
      <trkpt lat="45.99697" lon="3.71501">
        <ele>886.0557</ele>
        <time>2012-06-09T14:38:31Z</time>
      </trkpt>
      <trkpt lat="45.99707" lon="3.7148">
        <ele>886.25323</ele>
        <time>2012-06-09T14:38:39Z</time>
      </trkpt>
      <trkpt lat="45.99711" lon="3.71454">
        <ele>885.6231</ele>
        <time>2012-06-09T14:38:47Z</time>
      </trkpt>
      <trkpt lat="45.99707" lon="3.71428">
        <ele>885.5583</ele>
        <time>2012-06-09T14:38:56Z</time>
      </trkpt>
      <trkpt lat="45.99704" lon="3.71402">
        <ele>886.37524</ele>
        <time>2012-06-09T14:39:07Z</time>
      </trkpt>
      <trkpt lat="45.99699" lon="3.71377">
        <ele>888.72406</ele>
        <time>2012-06-09T14:39:16Z</time>
      </trkpt>
      <trkpt lat="45.99689" lon="3.71353">
        <ele>891.8618</ele>
        <time>2012-06-09T14:39:27Z</time>
      </trkpt>
      <trkpt lat="45.99681" lon="3.71329">
        <ele>895.5245</ele>
        <time>2012-06-09T14:39:37Z</time>
      </trkpt>
      <trkpt lat="45.99675" lon="3.71304">
        <ele>898.4727</ele>
        <time>2012-06-09T14:39:46Z</time>
      </trkpt>
      <trkpt lat="45.99662" lon="3.71282">
        <ele>901.65247</ele>
        <time>2012-06-09T14:39:59Z</time>
      </trkpt>
      <trkpt lat="45.99644" lon="3.71286">
        <ele>904.2214</ele>
        <time>2012-06-09T14:40:10Z</time>
      </trkpt>
      <trkpt lat="45.99629" lon="3.71304">
        <ele>904.105</ele>
        <time>2012-06-09T14:40:22Z</time>
      </trkpt>
      <trkpt lat="45.99614" lon="3.71319">
        <ele>902.7441</ele>
        <time>2012-06-09T14:40:35Z</time>
      </trkpt>
      <trkpt lat="45.99603" lon="3.7134">
        <ele>903.58484</ele>
        <time>2012-06-09T14:40:43Z</time>
      </trkpt>
      <trkpt lat="45.99593" lon="3.71364">
        <ele>905.8986</ele>
        <time>2012-06-09T14:40:53Z</time>
      </trkpt>
      <trkpt lat="45.99579" lon="3.71381">
        <ele>908.9137</ele>
        <time>2012-06-09T14:41:04Z</time>
      </trkpt>
      <trkpt lat="45.99561" lon="3.71392">
        <ele>911.90533</ele>
        <time>2012-06-09T14:41:14Z</time>
      </trkpt>
      <trkpt lat="45.99543" lon="3.71387">
        <ele>915.0737</ele>
        <time>2012-06-09T14:41:26Z</time>
      </trkpt>
      <trkpt lat="45.99528" lon="3.71372">
        <ele>917.25323</ele>
        <time>2012-06-09T14:41:37Z</time>
      </trkpt>
      <trkpt lat="45.99517" lon="3.71351">
        <ele>918.2988</ele>
        <time>2012-06-09T14:41:47Z</time>
      </trkpt>
      <trkpt lat="45.99507" lon="3.71327">
        <ele>919.2223</ele>
        <time>2012-06-09T14:41:57Z</time>
      </trkpt>
      <trkpt lat="45.99495" lon="3.71306">
        <ele>921.017</ele>
        <time>2012-06-09T14:42:08Z</time>
      </trkpt>
      <trkpt lat="45.99491" lon="3.7128">
        <ele>923.7713</ele>
        <time>2012-06-09T14:42:22Z</time>
      </trkpt>
      <trkpt lat="45.99492" lon="3.71252">
        <ele>928.0431</ele>
        <time>2012-06-09T14:42:40Z</time>
      </trkpt>
      <trkpt lat="45.99497" lon="3.71226">
        <ele>932.284</ele>
        <time>2012-06-09T14:42:54Z</time>
      </trkpt>
      <trkpt lat="45.99502" lon="3.71201">
        <ele>936.26666</ele>
        <time>2012-06-09T14:43:07Z</time>
      </trkpt>
      <trkpt lat="45.99509" lon="3.71175">
        <ele>941.0712</ele>
        <time>2012-06-09T14:43:24Z</time>
      </trkpt>
      <trkpt lat="45.99509" lon="3.71147">
        <ele>946.12274</ele>
        <time>2012-06-09T14:43:43Z</time>
      </trkpt>
      <trkpt lat="45.99506" lon="3.71121">
        <ele>950.8209</ele>
        <time>2012-06-09T14:43:57Z</time>
      </trkpt>
      <trkpt lat="45.99502" lon="3.71095">
        <ele>953.98193</ele>
        <time>2012-06-09T14:44:10Z</time>
      </trkpt>
      <trkpt lat="45.99495" lon="3.7107">
        <ele>956.27045</ele>
        <time>2012-06-09T14:44:23Z</time>
      </trkpt>
      <trkpt lat="45.99484" lon="3.71048">
        <ele>957.469</ele>
        <time>2012-06-09T14:44:35Z</time>
      </trkpt>
      <trkpt lat="45.9947" lon="3.71029">
        <ele>958.8857</ele>
        <time>2012-06-09T14:44:45Z</time>
      </trkpt>
      <trkpt lat="45.99484" lon="3.71012">
        <ele>960.553</ele>
        <time>2012-06-09T14:46:49Z</time>
      </trkpt>
      <trkpt lat="45.99504" lon="3.71001">
        <ele>960.553</ele>
        <time>2012-06-09T14:47:09Z</time>
      </trkpt>
      <trkpt lat="45.99521" lon="3.7099">
        <ele>960.7991</ele>
        <time>2012-06-09T14:47:13Z</time>
      </trkpt>
      <trkpt lat="45.99538" lon="3.7098">
        <ele>960.19336</ele>
        <time>2012-06-09T14:47:17Z</time>
      </trkpt>
      <trkpt lat="45.99555" lon="3.70967">
        <ele>959.26746</ele>
        <time>2012-06-09T14:47:22Z</time>
      </trkpt>
      <trkpt lat="45.99574" lon="3.70954">
        <ele>957.95984</ele>
        <time>2012-06-09T14:47:27Z</time>
      </trkpt>
      <trkpt lat="45.9959" lon="3.70941">
        <ele>957.6817</ele>
        <time>2012-06-09T14:47:31Z</time>
      </trkpt>
      <trkpt lat="45.99609" lon="3.7093">
        <ele>956.82086</ele>
        <time>2012-06-09T14:47:36Z</time>
      </trkpt>
      <trkpt lat="45.99626" lon="3.70922">
        <ele>955.95416</ele>
        <time>2012-06-09T14:47:40Z</time>
      </trkpt>
      <trkpt lat="45.99644" lon="3.70915">
        <ele>956.3635</ele>
        <time>2012-06-09T14:47:44Z</time>
      </trkpt>
      <trkpt lat="45.99662" lon="3.70907">
        <ele>957.42664</ele>
        <time>2012-06-09T14:47:48Z</time>
      </trkpt>
      <trkpt lat="45.99679" lon="3.70896">
        <ele>958.0778</ele>
        <time>2012-06-09T14:47:51Z</time>
      </trkpt>
      <trkpt lat="45.99699" lon="3.70889">
        <ele>958.26733</ele>
        <time>2012-06-09T14:48:00Z</time>
      </trkpt>
      <trkpt lat="45.99717" lon="3.70881">
        <ele>955.976</ele>
        <time>2012-06-09T14:48:10Z</time>
      </trkpt>
      <trkpt lat="45.99737" lon="3.7087">
        <ele>954.6407</ele>
        <time>2012-06-09T14:48:15Z</time>
      </trkpt>
      <trkpt lat="45.99761" lon="3.70872">
        <ele>953.3736</ele>
        <time>2012-06-09T14:48:20Z</time>
      </trkpt>
      <trkpt lat="45.99781" lon="3.70874">
        <ele>950.8367</ele>
        <time>2012-06-09T14:48:23Z</time>
      </trkpt>
      <trkpt lat="45.99807" lon="3.70872">
        <ele>946.0789</ele>
        <time>2012-06-09T14:48:26Z</time>
      </trkpt>
      <trkpt lat="45.99829" lon="3.70868">
        <ele>943.4113</ele>
        <time>2012-06-09T14:48:28Z</time>
      </trkpt>
      <trkpt lat="45.9985" lon="3.70864">
        <ele>941.4733</ele>
        <time>2012-06-09T14:48:30Z</time>
      </trkpt>
      <trkpt lat="45.99872" lon="3.70859">
        <ele>940.1957</ele>
        <time>2012-06-09T14:48:32Z</time>
      </trkpt>
      <trkpt lat="45.99897" lon="3.70864">
        <ele>939.0395</ele>
        <time>2012-06-09T14:48:34Z</time>
      </trkpt>
      <trkpt lat="45.9992" lon="3.70868">
        <ele>938.38916</ele>
        <time>2012-06-09T14:48:36Z</time>
      </trkpt>
      <trkpt lat="45.99944" lon="3.7087">
        <ele>937.81757</ele>
        <time>2012-06-09T14:48:40Z</time>
      </trkpt>
      <trkpt lat="45.99965" lon="3.70868">
        <ele>937.5883</ele>
        <time>2012-06-09T14:48:47Z</time>
      </trkpt>
      <trkpt lat="45.99985" lon="3.70859">
        <ele>937.55774</ele>
        <time>2012-06-09T14:48:54Z</time>
      </trkpt>
      <trkpt lat="46.00007" lon="3.70847">
        <ele>937.11664</ele>
        <time>2012-06-09T14:48:59Z</time>
      </trkpt>
      <trkpt lat="46.00027" lon="3.70834">
        <ele>936.21265</ele>
        <time>2012-06-09T14:49:02Z</time>
      </trkpt>
      <trkpt lat="46.00046" lon="3.70825">
        <ele>935.4866</ele>
        <time>2012-06-09T14:49:04Z</time>
      </trkpt>
      <trkpt lat="46.00069" lon="3.70821">
        <ele>935.0781</ele>
        <time>2012-06-09T14:49:06Z</time>
      </trkpt>
      <trkpt lat="46.00089" lon="3.70816">
        <ele>935.2859</ele>
        <time>2012-06-09T14:49:08Z</time>
      </trkpt>
      <trkpt lat="46.00108" lon="3.70806">
        <ele>935.4028</ele>
        <time>2012-06-09T14:49:10Z</time>
      </trkpt>
      <trkpt lat="46.00129" lon="3.70804">
        <ele>935.2185</ele>
        <time>2012-06-09T14:49:12Z</time>
      </trkpt>
      <trkpt lat="46.00155" lon="3.7081">
        <ele>933.8023</ele>
        <time>2012-06-09T14:49:14Z</time>
      </trkpt>
      <trkpt lat="46.00181" lon="3.70816">
        <ele>932.13074</ele>
        <time>2012-06-09T14:49:16Z</time>
      </trkpt>
      <trkpt lat="46.00202" lon="3.70819">
        <ele>930.5655</ele>
        <time>2012-06-09T14:49:18Z</time>
      </trkpt>
      <trkpt lat="46.00221" lon="3.70821">
        <ele>929.2475</ele>
        <time>2012-06-09T14:49:20Z</time>
      </trkpt>
      <trkpt lat="46.00245" lon="3.70823">
        <ele>927.25226</ele>
        <time>2012-06-09T14:49:23Z</time>
      </trkpt>
      <trkpt lat="46.00267" lon="3.7081">
        <ele>925.5824</ele>
        <time>2012-06-09T14:49:26Z</time>
      </trkpt>
      <trkpt lat="46.00284" lon="3.70789">
        <ele>924.4445</ele>
        <time>2012-06-09T14:49:28Z</time>
      </trkpt>
      <trkpt lat="46.00299" lon="3.70761">
        <ele>923.367</ele>
        <time>2012-06-09T14:49:30Z</time>
      </trkpt>
      <trkpt lat="46.00314" lon="3.70735">
        <ele>922.32336</ele>
        <time>2012-06-09T14:49:32Z</time>
      </trkpt>
      <trkpt lat="46.00323" lon="3.70709">
        <ele>921.2988</ele>
        <time>2012-06-09T14:49:34Z</time>
      </trkpt>
      <trkpt lat="46.00331" lon="3.70677">
        <ele>919.85205</ele>
        <time>2012-06-09T14:49:37Z</time>
      </trkpt>
      <trkpt lat="46.00336" lon="3.70647">
        <ele>918.6635</ele>
        <time>2012-06-09T14:49:40Z</time>
      </trkpt>
      <trkpt lat="46.00348" lon="3.70621">
        <ele>915.72235</ele>
        <time>2012-06-09T14:49:46Z</time>
      </trkpt>
      <trkpt lat="46.00364" lon="3.70606">
        <ele>909.7651</ele>
        <time>2012-06-09T14:49:51Z</time>
      </trkpt>
      <trkpt lat="46.00383" lon="3.7061">
        <ele>906.06433</ele>
        <time>2012-06-09T14:49:54Z</time>
      </trkpt>
      <trkpt lat="46.00404" lon="3.70613">
        <ele>902.51874</ele>
        <time>2012-06-09T14:49:57Z</time>
      </trkpt>
      <trkpt lat="46.00428" lon="3.70617">
        <ele>897.11664</ele>
        <time>2012-06-09T14:50:00Z</time>
      </trkpt>
      <trkpt lat="46.00447" lon="3.70619">
        <ele>893.55756</ele>
        <time>2012-06-09T14:50:02Z</time>
      </trkpt>
      <trkpt lat="46.00465" lon="3.70617">
        <ele>890.24304</ele>
        <time>2012-06-09T14:50:04Z</time>
      </trkpt>
      <trkpt lat="46.00485" lon="3.70606">
        <ele>888.19116</ele>
        <time>2012-06-09T14:50:06Z</time>
      </trkpt>
      <trkpt lat="46.00505" lon="3.70595">
        <ele>887.037</ele>
        <time>2012-06-09T14:50:08Z</time>
      </trkpt>
      <trkpt lat="46.00527" lon="3.70585">
        <ele>886.82526</ele>
        <time>2012-06-09T14:50:10Z</time>
      </trkpt>
      <trkpt lat="46.0055" lon="3.70572">
        <ele>887.1436</ele>
        <time>2012-06-09T14:50:12Z</time>
      </trkpt>
      <trkpt lat="46.00572" lon="3.70559">
        <ele>887.32275</ele>
        <time>2012-06-09T14:50:14Z</time>
      </trkpt>
      <trkpt lat="46.00596" lon="3.70546">
        <ele>887.42346</ele>
        <time>2012-06-09T14:50:16Z</time>
      </trkpt>
      <trkpt lat="46.00618" lon="3.70535">
        <ele>887.04266</ele>
        <time>2012-06-09T14:50:18Z</time>
      </trkpt>
      <trkpt lat="46.00639" lon="3.70525">
        <ele>886.3909</ele>
        <time>2012-06-09T14:50:20Z</time>
      </trkpt>
      <trkpt lat="46.00658" lon="3.70516">
        <ele>886.02435</ele>
        <time>2012-06-09T14:50:22Z</time>
      </trkpt>
      <trkpt lat="46.00677" lon="3.7051">
        <ele>885.5681</ele>
        <time>2012-06-09T14:50:24Z</time>
      </trkpt>
      <trkpt lat="46.00708" lon="3.70507">
        <ele>884.1906</ele>
        <time>2012-06-09T14:50:28Z</time>
      </trkpt>
      <trkpt lat="46.00729" lon="3.70495">
        <ele>883.4165</ele>
        <time>2012-06-09T14:50:34Z</time>
      </trkpt>
      <trkpt lat="46.00752" lon="3.70499">
        <ele>882.82623</ele>
        <time>2012-06-09T14:50:38Z</time>
      </trkpt>
      <trkpt lat="46.00775" lon="3.70492">
        <ele>882.88947</ele>
        <time>2012-06-09T14:50:42Z</time>
      </trkpt>
      <trkpt lat="46.00795" lon="3.70486">
        <ele>883.3955</ele>
        <time>2012-06-09T14:50:47Z</time>
      </trkpt>
      <trkpt lat="46.00816" lon="3.7048">
        <ele>883.532</ele>
        <time>2012-06-09T14:50:54Z</time>
      </trkpt>
      <trkpt lat="46.00833" lon="3.70462">
        <ele>883.5518</ele>
        <time>2012-06-09T14:51:04Z</time>
      </trkpt>
      <trkpt lat="46.0085" lon="3.70452">
        <ele>884.5656</ele>
        <time>2012-06-09T14:51:13Z</time>
      </trkpt>
      <trkpt lat="46.0087" lon="3.70443">
        <ele>885.37726</ele>
        <time>2012-06-09T14:51:19Z</time>
      </trkpt>
      <trkpt lat="46.00889" lon="3.70432">
        <ele>886.2053</ele>
        <time>2012-06-09T14:51:25Z</time>
      </trkpt>
      <trkpt lat="46.00913" lon="3.70422">
        <ele>889.163</ele>
        <time>2012-06-09T14:51:31Z</time>
      </trkpt>
      <trkpt lat="46.00937" lon="3.70404">
        <ele>892.3885</ele>
        <time>2012-06-09T14:51:34Z</time>
      </trkpt>
      <trkpt lat="46.00959" lon="3.70387">
        <ele>894.65546</ele>
        <time>2012-06-09T14:51:37Z</time>
      </trkpt>
      <trkpt lat="46.00985" lon="3.70385">
        <ele>896.3306</ele>
        <time>2012-06-09T14:51:40Z</time>
      </trkpt>
      <trkpt lat="46.01003" lon="3.70387">
        <ele>897.3029</ele>
        <time>2012-06-09T14:51:42Z</time>
      </trkpt>
      <trkpt lat="46.01022" lon="3.70389">
        <ele>897.8498</ele>
        <time>2012-06-09T14:51:44Z</time>
      </trkpt>
      <trkpt lat="46.01045" lon="3.70389">
        <ele>898.25635</ele>
        <time>2012-06-09T14:51:47Z</time>
      </trkpt>
      <trkpt lat="46.01067" lon="3.70392">
        <ele>898.17786</ele>
        <time>2012-06-09T14:51:50Z</time>
      </trkpt>
      <trkpt lat="46.0109" lon="3.70394">
        <ele>897.5666</ele>
        <time>2012-06-09T14:51:53Z</time>
      </trkpt>
      <trkpt lat="46.01117" lon="3.70392">
        <ele>896.7306</ele>
        <time>2012-06-09T14:51:56Z</time>
      </trkpt>
      <trkpt lat="46.01136" lon="3.70387">
        <ele>896.2154</ele>
        <time>2012-06-09T14:51:58Z</time>
      </trkpt>
      <trkpt lat="46.01155" lon="3.70381">
        <ele>895.2381</ele>
        <time>2012-06-09T14:52:00Z</time>
      </trkpt>
      <trkpt lat="46.01179" lon="3.70372">
        <ele>892.9983</ele>
        <time>2012-06-09T14:52:03Z</time>
      </trkpt>
      <trkpt lat="46.01201" lon="3.70357">
        <ele>890.8971</ele>
        <time>2012-06-09T14:52:06Z</time>
      </trkpt>
      <trkpt lat="46.01219" lon="3.70342">
        <ele>888.2763</ele>
        <time>2012-06-09T14:52:09Z</time>
      </trkpt>
      <trkpt lat="46.01239" lon="3.70323">
        <ele>885.4363</ele>
        <time>2012-06-09T14:52:12Z</time>
      </trkpt>
      <trkpt lat="46.01256" lon="3.7031">
        <ele>884.17487</ele>
        <time>2012-06-09T14:52:14Z</time>
      </trkpt>
      <trkpt lat="46.01274" lon="3.70297">
        <ele>882.5278</ele>
        <time>2012-06-09T14:52:16Z</time>
      </trkpt>
      <trkpt lat="46.01291" lon="3.70284">
        <ele>880.5388</ele>
        <time>2012-06-09T14:52:18Z</time>
      </trkpt>
      <trkpt lat="46.01308" lon="3.70269">
        <ele>878.54504</ele>
        <time>2012-06-09T14:52:20Z</time>
      </trkpt>
      <trkpt lat="46.01331" lon="3.70248">
        <ele>876.62775</ele>
        <time>2012-06-09T14:52:23Z</time>
      </trkpt>
      <trkpt lat="46.01347" lon="3.70235">
        <ele>877.09503</ele>
        <time>2012-06-09T14:52:25Z</time>
      </trkpt>
      <trkpt lat="46.01364" lon="3.70224">
        <ele>878.4204</ele>
        <time>2012-06-09T14:52:27Z</time>
      </trkpt>
      <trkpt lat="46.0139" lon="3.70224">
        <ele>880.5409</ele>
        <time>2012-06-09T14:52:29Z</time>
      </trkpt>
      <trkpt lat="46.01419" lon="3.70226">
        <ele>883.6712</ele>
        <time>2012-06-09T14:52:31Z</time>
      </trkpt>
      <trkpt lat="46.01444" lon="3.70229">
        <ele>886.932</ele>
        <time>2012-06-09T14:52:33Z</time>
      </trkpt>
      <trkpt lat="46.0147" lon="3.70231">
        <ele>889.6412</ele>
        <time>2012-06-09T14:52:35Z</time>
      </trkpt>
      <trkpt lat="46.01495" lon="3.70237">
        <ele>891.3526</ele>
        <time>2012-06-09T14:52:37Z</time>
      </trkpt>
      <trkpt lat="46.01517" lon="3.70244">
        <ele>892.31525</ele>
        <time>2012-06-09T14:52:39Z</time>
      </trkpt>
      <trkpt lat="46.01539" lon="3.70248">
        <ele>892.60675</ele>
        <time>2012-06-09T14:52:41Z</time>
      </trkpt>
      <trkpt lat="46.01561" lon="3.7025">
        <ele>891.64575</ele>
        <time>2012-06-09T14:52:43Z</time>
      </trkpt>
      <trkpt lat="46.01585" lon="3.70244">
        <ele>889.79266</ele>
        <time>2012-06-09T14:52:45Z</time>
      </trkpt>
      <trkpt lat="46.01609" lon="3.70235">
        <ele>887.6878</ele>
        <time>2012-06-09T14:52:47Z</time>
      </trkpt>
      <trkpt lat="46.01629" lon="3.70222">
        <ele>885.37885</ele>
        <time>2012-06-09T14:52:49Z</time>
      </trkpt>
      <trkpt lat="46.01645" lon="3.70207">
        <ele>883.0175</ele>
        <time>2012-06-09T14:52:51Z</time>
      </trkpt>
      <trkpt lat="46.0166" lon="3.70192">
        <ele>880.3768</ele>
        <time>2012-06-09T14:52:53Z</time>
      </trkpt>
      <trkpt lat="46.01678" lon="3.70164">
        <ele>875.05676</ele>
        <time>2012-06-09T14:52:56Z</time>
      </trkpt>
      <trkpt lat="46.01695" lon="3.70138">
        <ele>870.1718</ele>
        <time>2012-06-09T14:52:59Z</time>
      </trkpt>
      <trkpt lat="46.01713" lon="3.70119">
        <ele>864.9703</ele>
        <time>2012-06-09T14:53:02Z</time>
      </trkpt>
      <trkpt lat="46.0173" lon="3.70102">
        <ele>858.98975</ele>
        <time>2012-06-09T14:53:06Z</time>
      </trkpt>
      <trkpt lat="46.01744" lon="3.70085">
        <ele>855.68494</ele>
        <time>2012-06-09T14:53:11Z</time>
      </trkpt>
      <trkpt lat="46.01765" lon="3.7008">
        <ele>853.55426</ele>
        <time>2012-06-09T14:53:17Z</time>
      </trkpt>
      <trkpt lat="46.01787" lon="3.70072">
        <ele>848.9987</ele>
        <time>2012-06-09T14:53:21Z</time>
      </trkpt>
      <trkpt lat="46.01808" lon="3.70059">
        <ele>839.6237</ele>
        <time>2012-06-09T14:53:25Z</time>
      </trkpt>
      <trkpt lat="46.01828" lon="3.70044">
        <ele>834.6335</ele>
        <time>2012-06-09T14:53:31Z</time>
      </trkpt>
      <trkpt lat="46.01845" lon="3.70029">
        <ele>833.1258</ele>
        <time>2012-06-09T14:53:36Z</time>
      </trkpt>
      <trkpt lat="46.01862" lon="3.70014">
        <ele>832.48425</ele>
        <time>2012-06-09T14:53:40Z</time>
      </trkpt>
      <trkpt lat="46.01881" lon="3.70001">
        <ele>832.6758</ele>
        <time>2012-06-09T14:53:44Z</time>
      </trkpt>
      <trkpt lat="46.01901" lon="3.69995">
        <ele>834.69855</ele>
        <time>2012-06-09T14:53:47Z</time>
      </trkpt>
      <trkpt lat="46.01927" lon="3.69988">
        <ele>837.6144</ele>
        <time>2012-06-09T14:53:50Z</time>
      </trkpt>
      <trkpt lat="46.01945" lon="3.69984">
        <ele>839.3375</ele>
        <time>2012-06-09T14:53:52Z</time>
      </trkpt>
      <trkpt lat="46.01972" lon="3.69977">
        <ele>841.05585</ele>
        <time>2012-06-09T14:53:55Z</time>
      </trkpt>
      <trkpt lat="46.01989" lon="3.69965">
        <ele>842.1484</ele>
        <time>2012-06-09T14:53:57Z</time>
      </trkpt>
      <trkpt lat="46.02005" lon="3.69947">
        <ele>842.7629</ele>
        <time>2012-06-09T14:53:59Z</time>
      </trkpt>
      <trkpt lat="46.02022" lon="3.69928">
        <ele>842.6711</ele>
        <time>2012-06-09T14:54:01Z</time>
      </trkpt>
      <trkpt lat="46.02037" lon="3.69911">
        <ele>841.9319</ele>
        <time>2012-06-09T14:54:03Z</time>
      </trkpt>
      <trkpt lat="46.02051" lon="3.69892">
        <ele>840.8911</ele>
        <time>2012-06-09T14:54:05Z</time>
      </trkpt>
      <trkpt lat="46.02064" lon="3.69872">
        <ele>839.8682</ele>
        <time>2012-06-09T14:54:07Z</time>
      </trkpt>
      <trkpt lat="46.02076" lon="3.69849">
        <ele>838.5297</ele>
        <time>2012-06-09T14:54:10Z</time>
      </trkpt>
      <trkpt lat="46.02095" lon="3.69829">
        <ele>837.28394</ele>
        <time>2012-06-09T14:54:14Z</time>
      </trkpt>
      <trkpt lat="46.02111" lon="3.69817">
        <ele>836.4238</ele>
        <time>2012-06-09T14:54:17Z</time>
      </trkpt>
      <trkpt lat="46.02127" lon="3.69804">
        <ele>835.14496</ele>
        <time>2012-06-09T14:54:21Z</time>
      </trkpt>
      <trkpt lat="46.02146" lon="3.69784">
        <ele>834.61224</ele>
        <time>2012-06-09T14:54:29Z</time>
      </trkpt>
      <trkpt lat="46.02159" lon="3.69765">
        <ele>834.5671</ele>
        <time>2012-06-09T14:54:34Z</time>
      </trkpt>
      <trkpt lat="46.02175" lon="3.69746">
        <ele>833.97736</ele>
        <time>2012-06-09T14:54:40Z</time>
      </trkpt>
      <trkpt lat="46.02192" lon="3.69729">
        <ele>833.6096</ele>
        <time>2012-06-09T14:54:47Z</time>
      </trkpt>
      <trkpt lat="46.02213" lon="3.69718">
        <ele>832.7385</ele>
        <time>2012-06-09T14:54:54Z</time>
      </trkpt>
      <trkpt lat="46.02235" lon="3.69707">
        <ele>831.03754</ele>
        <time>2012-06-09T14:54:57Z</time>
      </trkpt>
      <trkpt lat="46.02259" lon="3.69694">
        <ele>829.60114</ele>
        <time>2012-06-09T14:55:00Z</time>
      </trkpt>
      <trkpt lat="46.02281" lon="3.69686">
        <ele>829.5733</ele>
        <time>2012-06-09T14:55:03Z</time>
      </trkpt>
      <trkpt lat="46.02301" lon="3.69675">
        <ele>829.5616</ele>
        <time>2012-06-09T14:55:06Z</time>
      </trkpt>
      <trkpt lat="46.02318" lon="3.69664">
        <ele>830.13477</ele>
        <time>2012-06-09T14:55:09Z</time>
      </trkpt>
      <trkpt lat="46.02338" lon="3.69653">
        <ele>830.42065</ele>
        <time>2012-06-09T14:55:13Z</time>
      </trkpt>
      <trkpt lat="46.02356" lon="3.69643">
        <ele>831.2052</ele>
        <time>2012-06-09T14:55:18Z</time>
      </trkpt>
      <trkpt lat="46.02372" lon="3.69626">
        <ele>831.7682</ele>
        <time>2012-06-09T14:55:26Z</time>
      </trkpt>
      <trkpt lat="46.02387" lon="3.69604">
        <ele>833.64844</ele>
        <time>2012-06-09T14:55:33Z</time>
      </trkpt>
      <trkpt lat="46.02407" lon="3.69593">
        <ele>834.3383</ele>
        <time>2012-06-09T14:55:38Z</time>
      </trkpt>
      <trkpt lat="46.02424" lon="3.69585">
        <ele>834.5021</ele>
        <time>2012-06-09T14:55:43Z</time>
      </trkpt>
      <trkpt lat="46.02451" lon="3.69572">
        <ele>835.3128</ele>
        <time>2012-06-09T14:55:53Z</time>
      </trkpt>
      <trkpt lat="46.02471" lon="3.69559">
        <ele>836.2045</ele>
        <time>2012-06-09T14:56:00Z</time>
      </trkpt>
      <trkpt lat="46.02491" lon="3.69542">
        <ele>837.42456</ele>
        <time>2012-06-09T14:56:06Z</time>
      </trkpt>
      <trkpt lat="46.0251" lon="3.69527">
        <ele>838.65234</ele>
        <time>2012-06-09T14:56:13Z</time>
      </trkpt>
      <trkpt lat="46.02525" lon="3.69508">
        <ele>841.01074</ele>
        <time>2012-06-09T14:56:22Z</time>
      </trkpt>
      <trkpt lat="46.0254" lon="3.69486">
        <ele>842.5114</ele>
        <time>2012-06-09T14:56:30Z</time>
      </trkpt>
      <trkpt lat="46.02554" lon="3.69465">
        <ele>843.66394</ele>
        <time>2012-06-09T14:56:37Z</time>
      </trkpt>
      <trkpt lat="46.02571" lon="3.69452">
        <ele>844.59204</ele>
        <time>2012-06-09T14:56:42Z</time>
      </trkpt>
      <trkpt lat="46.02591" lon="3.69437">
        <ele>846.31555</ele>
        <time>2012-06-09T14:56:48Z</time>
      </trkpt>
      <trkpt lat="46.0261" lon="3.69426">
        <ele>849.6274</ele>
        <time>2012-06-09T14:56:58Z</time>
      </trkpt>
      <trkpt lat="46.0263" lon="3.69415">
        <ele>853.1356</ele>
        <time>2012-06-09T14:57:06Z</time>
      </trkpt>
      <trkpt lat="46.02649" lon="3.69407">
        <ele>854.6611</ele>
        <time>2012-06-09T14:57:14Z</time>
      </trkpt>
      <trkpt lat="46.02671" lon="3.69396">
        <ele>855.43396</ele>
        <time>2012-06-09T14:57:21Z</time>
      </trkpt>
      <trkpt lat="46.02689" lon="3.69385">
        <ele>856.7251</ele>
        <time>2012-06-09T14:57:34Z</time>
      </trkpt>
      <trkpt lat="46.02706" lon="3.69372">
        <ele>858.5636</ele>
        <time>2012-06-09T14:57:41Z</time>
      </trkpt>
      <trkpt lat="46.02724" lon="3.69355">
        <ele>859.7557</ele>
        <time>2012-06-09T14:57:46Z</time>
      </trkpt>
      <trkpt lat="46.02741" lon="3.69338">
        <ele>860.3638</ele>
        <time>2012-06-09T14:57:51Z</time>
      </trkpt>
      <trkpt lat="46.0276" lon="3.69327">
        <ele>861.3213</ele>
        <time>2012-06-09T14:57:55Z</time>
      </trkpt>
      <trkpt lat="46.02781" lon="3.69329">
        <ele>863.049</ele>
        <time>2012-06-09T14:57:58Z</time>
      </trkpt>
      <trkpt lat="46.02802" lon="3.69338">
        <ele>864.356</ele>
        <time>2012-06-09T14:58:01Z</time>
      </trkpt>
      <trkpt lat="46.0282" lon="3.69347">
        <ele>865.04803</ele>
        <time>2012-06-09T14:58:04Z</time>
      </trkpt>
      <trkpt lat="46.0284" lon="3.69357">
        <ele>865.3932</ele>
        <time>2012-06-09T14:58:08Z</time>
      </trkpt>
      <trkpt lat="46.02861" lon="3.69355">
        <ele>865.5151</ele>
        <time>2012-06-09T14:58:13Z</time>
      </trkpt>
      <trkpt lat="46.02872" lon="3.69329">
        <ele>865.5526</ele>
        <time>2012-06-09T14:58:29Z</time>
      </trkpt>
      <trkpt lat="46.02892" lon="3.69314">
        <ele>865.553</ele>
        <time>2012-06-09T14:58:37Z</time>
      </trkpt>
      <trkpt lat="46.0291" lon="3.6931">
        <ele>865.553</ele>
        <time>2012-06-09T14:58:42Z</time>
      </trkpt>
      <trkpt lat="46.02929" lon="3.69306">
        <ele>865.553</ele>
        <time>2012-06-09T14:58:46Z</time>
      </trkpt>
      <trkpt lat="46.02951" lon="3.69306">
        <ele>865.1155</ele>
        <time>2012-06-09T14:58:51Z</time>
      </trkpt>
      <trkpt lat="46.02972" lon="3.69302">
        <ele>864.68646</ele>
        <time>2012-06-09T14:58:56Z</time>
      </trkpt>
      <trkpt lat="46.02994" lon="3.69302">
        <ele>864.58466</ele>
        <time>2012-06-09T14:59:01Z</time>
      </trkpt>
      <trkpt lat="46.03022" lon="3.69299">
        <ele>862.0686</ele>
        <time>2012-06-09T14:59:34Z</time>
      </trkpt>
      <trkpt lat="46.03041" lon="3.69297">
        <ele>858.91534</ele>
        <time>2012-06-09T14:59:38Z</time>
      </trkpt>
      <trkpt lat="46.03063" lon="3.69295">
        <ele>854.2996</ele>
        <time>2012-06-09T14:59:41Z</time>
      </trkpt>
      <trkpt lat="46.03087" lon="3.69289">
        <ele>849.71173</ele>
        <time>2012-06-09T14:59:44Z</time>
      </trkpt>
      <trkpt lat="46.03103" lon="3.69276">
        <ele>847.2048</ele>
        <time>2012-06-09T14:59:46Z</time>
      </trkpt>
      <trkpt lat="46.0312" lon="3.69259">
        <ele>843.828</ele>
        <time>2012-06-09T14:59:49Z</time>
      </trkpt>
      <trkpt lat="46.03133" lon="3.69237">
        <ele>840.31384</ele>
        <time>2012-06-09T14:59:55Z</time>
      </trkpt>
      <trkpt lat="46.03152" lon="3.69222">
        <ele>837.8347</ele>
        <time>2012-06-09T15:00:04Z</time>
      </trkpt>
      <trkpt lat="46.03167" lon="3.69207">
        <ele>836.38043</ele>
        <time>2012-06-09T15:00:08Z</time>
      </trkpt>
      <trkpt lat="46.0318" lon="3.69184">
        <ele>835.2367</ele>
        <time>2012-06-09T15:00:12Z</time>
      </trkpt>
      <trkpt lat="46.03196" lon="3.69162">
        <ele>828.9256</ele>
        <time>2012-06-09T15:00:16Z</time>
      </trkpt>
      <trkpt lat="46.03217" lon="3.69145">
        <ele>822.4557</ele>
        <time>2012-06-09T15:00:26Z</time>
      </trkpt>
      <trkpt lat="46.03237" lon="3.69147">
        <ele>818.1927</ele>
        <time>2012-06-09T15:00:34Z</time>
      </trkpt>
      <trkpt lat="46.03254" lon="3.6916">
        <ele>814.0419</ele>
        <time>2012-06-09T15:00:42Z</time>
      </trkpt>
      <trkpt lat="46.03276" lon="3.69164">
        <ele>809.82275</ele>
        <time>2012-06-09T15:01:02Z</time>
      </trkpt>
      <trkpt lat="46.03295" lon="3.69162">
        <ele>807.12885</ele>
        <time>2012-06-09T15:01:08Z</time>
      </trkpt>
      <trkpt lat="46.03319" lon="3.69156">
        <ele>805.4735</ele>
        <time>2012-06-09T15:01:12Z</time>
      </trkpt>
      <trkpt lat="46.03337" lon="3.69147">
        <ele>804.2661</ele>
        <time>2012-06-09T15:01:16Z</time>
      </trkpt>
      <trkpt lat="46.03359" lon="3.69143">
        <ele>800.73096</ele>
        <time>2012-06-09T15:03:22Z</time>
      </trkpt>
      <trkpt lat="46.0338" lon="3.69138">
        <ele>800.6093</ele>
        <time>2012-06-09T15:03:26Z</time>
      </trkpt>
      <trkpt lat="46.03398" lon="3.69134">
        <ele>800.5708</ele>
        <time>2012-06-09T15:03:30Z</time>
      </trkpt>
      <trkpt lat="46.03416" lon="3.6913">
        <ele>800.5548</ele>
        <time>2012-06-09T15:03:38Z</time>
      </trkpt>
      <trkpt lat="46.03429" lon="3.69111">
        <ele>802.31433</ele>
        <time>2012-06-09T15:04:23Z</time>
      </trkpt>
      <trkpt lat="46.0343" lon="3.69078">
        <ele>804.48425</ele>
        <time>2012-06-09T15:04:39Z</time>
      </trkpt>
      <trkpt lat="46.03428" lon="3.69048">
        <ele>804.5367</ele>
        <time>2012-06-09T15:04:44Z</time>
      </trkpt>
      <trkpt lat="46.03417" lon="3.69023">
        <ele>804.54785</ele>
        <time>2012-06-09T15:04:48Z</time>
      </trkpt>
      <trkpt lat="46.03408" lon="3.68999">
        <ele>803.8678</ele>
        <time>2012-06-09T15:04:52Z</time>
      </trkpt>
      <trkpt lat="46.03397" lon="3.68978">
        <ele>803.07446</ele>
        <time>2012-06-09T15:04:56Z</time>
      </trkpt>
      <trkpt lat="46.03392" lon="3.68948">
        <ele>802.09863</ele>
        <time>2012-06-09T15:05:01Z</time>
      </trkpt>
      <trkpt lat="46.03394" lon="3.6892">
        <ele>801.6825</ele>
        <time>2012-06-09T15:05:06Z</time>
      </trkpt>
      <trkpt lat="46.03397" lon="3.68892">
        <ele>800.0202</ele>
        <time>2012-06-09T15:05:13Z</time>
      </trkpt>
      <trkpt lat="46.03402" lon="3.68866">
        <ele>799.61536</ele>
        <time>2012-06-09T15:05:20Z</time>
      </trkpt>
      <trkpt lat="46.03408" lon="3.6884">
        <ele>799.3141</ele>
        <time>2012-06-09T15:05:26Z</time>
      </trkpt>
      <trkpt lat="46.03414" lon="3.68814">
        <ele>799.41724</ele>
        <time>2012-06-09T15:05:31Z</time>
      </trkpt>
      <trkpt lat="46.0342" lon="3.68784">
        <ele>799.08325</ele>
        <time>2012-06-09T15:05:36Z</time>
      </trkpt>
      <trkpt lat="46.0342" lon="3.68757">
        <ele>797.47864</ele>
        <time>2012-06-09T15:05:41Z</time>
      </trkpt>
      <trkpt lat="46.03417" lon="3.68729">
        <ele>795.4764</ele>
        <time>2012-06-09T15:05:48Z</time>
      </trkpt>
      <trkpt lat="46.03416" lon="3.68701">
        <ele>792.7889</ele>
        <time>2012-06-09T15:05:57Z</time>
      </trkpt>
      <trkpt lat="46.03408" lon="3.68677">
        <ele>789.9211</ele>
        <time>2012-06-09T15:06:05Z</time>
      </trkpt>
      <trkpt lat="46.034" lon="3.68654">
        <ele>787.9729</ele>
        <time>2012-06-09T15:06:12Z</time>
      </trkpt>
      <trkpt lat="46.0339" lon="3.6863">
        <ele>788.6683</ele>
        <time>2012-06-09T15:06:17Z</time>
      </trkpt>
      <trkpt lat="46.03378" lon="3.68604">
        <ele>791.22687</ele>
        <time>2012-06-09T15:06:22Z</time>
      </trkpt>
      <trkpt lat="46.03368" lon="3.68581">
        <ele>793.51715</ele>
        <time>2012-06-09T15:06:28Z</time>
      </trkpt>
      <trkpt lat="46.03361" lon="3.68557">
        <ele>794.41473</ele>
        <time>2012-06-09T15:06:35Z</time>
      </trkpt>
      <trkpt lat="46.0335" lon="3.68533">
        <ele>793.71716</ele>
        <time>2012-06-09T15:06:43Z</time>
      </trkpt>
      <trkpt lat="46.03339" lon="3.68512">
        <ele>793.5749</ele>
        <time>2012-06-09T15:06:50Z</time>
      </trkpt>
      <trkpt lat="46.03327" lon="3.68488">
        <ele>793.5559</ele>
        <time>2012-06-09T15:06:57Z</time>
      </trkpt>
      <trkpt lat="46.03319" lon="3.68463">
        <ele>794.2371</ele>
        <time>2012-06-09T15:07:03Z</time>
      </trkpt>
      <trkpt lat="46.03311" lon="3.68437">
        <ele>794.93427</ele>
        <time>2012-06-09T15:07:09Z</time>
      </trkpt>
      <trkpt lat="46.03304" lon="3.68413">
        <ele>796.021</ele>
        <time>2012-06-09T15:07:15Z</time>
      </trkpt>
      <trkpt lat="46.03298" lon="3.68387">
        <ele>797.0049</ele>
        <time>2012-06-09T15:07:20Z</time>
      </trkpt>
      <trkpt lat="46.03293" lon="3.6836">
        <ele>798.03357</ele>
        <time>2012-06-09T15:07:26Z</time>
      </trkpt>
      <trkpt lat="46.03291" lon="3.68332">
        <ele>798.4606</ele>
        <time>2012-06-09T15:07:32Z</time>
      </trkpt>
      <trkpt lat="46.03296" lon="3.68304">
        <ele>799.45734</ele>
        <time>2012-06-09T15:07:36Z</time>
      </trkpt>
      <trkpt lat="46.03302" lon="3.68274">
        <ele>801.0344</ele>
        <time>2012-06-09T15:07:40Z</time>
      </trkpt>
      <trkpt lat="46.03305" lon="3.68248">
        <ele>803.87354</ele>
        <time>2012-06-09T15:07:46Z</time>
      </trkpt>
      <trkpt lat="46.03303" lon="3.6822">
        <ele>807.1405</ele>
        <time>2012-06-09T15:07:54Z</time>
      </trkpt>
      <trkpt lat="46.033" lon="3.68194">
        <ele>810.28595</ele>
        <time>2012-06-09T15:08:00Z</time>
      </trkpt>
      <trkpt lat="46.03299" lon="3.68166">
        <ele>812.8285</ele>
        <time>2012-06-09T15:08:07Z</time>
      </trkpt>
      <trkpt lat="46.03309" lon="3.68141">
        <ele>814.2783</ele>
        <time>2012-06-09T15:08:14Z</time>
      </trkpt>
      <trkpt lat="46.03324" lon="3.68121">
        <ele>814.5255</ele>
        <time>2012-06-09T15:08:22Z</time>
      </trkpt>
      <trkpt lat="46.03341" lon="3.68106">
        <ele>815.312</ele>
        <time>2012-06-09T15:08:29Z</time>
      </trkpt>
      <trkpt lat="46.03358" lon="3.68098">
        <ele>816.41034</ele>
        <time>2012-06-09T15:08:33Z</time>
      </trkpt>
      <trkpt lat="46.03379" lon="3.68096">
        <ele>817.44147</ele>
        <time>2012-06-09T15:08:37Z</time>
      </trkpt>
      <trkpt lat="46.03397" lon="3.68093">
        <ele>818.4513</ele>
        <time>2012-06-09T15:08:41Z</time>
      </trkpt>
      <trkpt lat="46.03415" lon="3.68091">
        <ele>819.79443</ele>
        <time>2012-06-09T15:08:47Z</time>
      </trkpt>
      <trkpt lat="46.03433" lon="3.68083">
        <ele>820.8892</ele>
        <time>2012-06-09T15:08:54Z</time>
      </trkpt>
      <trkpt lat="46.03451" lon="3.6807">
        <ele>821.833</ele>
        <time>2012-06-09T15:08:59Z</time>
      </trkpt>
      <trkpt lat="46.03466" lon="3.68051">
        <ele>822.42487</ele>
        <time>2012-06-09T15:09:05Z</time>
      </trkpt>
      <trkpt lat="46.03476" lon="3.68029">
        <ele>822.5804</ele>
        <time>2012-06-09T15:09:12Z</time>
      </trkpt>
      <trkpt lat="46.03482" lon="3.68003">
        <ele>820.76355</ele>
        <time>2012-06-09T15:09:24Z</time>
      </trkpt>
      <trkpt lat="46.03474" lon="3.6798">
        <ele>818.553</ele>
        <time>2012-06-09T15:10:19Z</time>
      </trkpt>
      <trkpt lat="46.03473" lon="3.67952">
        <ele>819.1311</ele>
        <time>2012-06-09T15:10:27Z</time>
      </trkpt>
      <trkpt lat="46.03471" lon="3.67913">
        <ele>819.7029</ele>
        <time>2012-06-09T15:10:32Z</time>
      </trkpt>
      <trkpt lat="46.03468" lon="3.67887">
        <ele>820.284</ele>
        <time>2012-06-09T15:10:36Z</time>
      </trkpt>
      <trkpt lat="46.03464" lon="3.67857">
        <ele>820.714</ele>
        <time>2012-06-09T15:10:40Z</time>
      </trkpt>
      <trkpt lat="46.03457" lon="3.67832">
        <ele>820.6209</ele>
        <time>2012-06-09T15:10:43Z</time>
      </trkpt>
      <trkpt lat="46.03445" lon="3.678">
        <ele>820.33167</ele>
        <time>2012-06-09T15:10:46Z</time>
      </trkpt>
      <trkpt lat="46.03433" lon="3.67778">
        <ele>819.74097</ele>
        <time>2012-06-09T15:10:48Z</time>
      </trkpt>
      <trkpt lat="46.03421" lon="3.67752">
        <ele>818.78375</ele>
        <time>2012-06-09T15:10:50Z</time>
      </trkpt>
      <trkpt lat="46.03409" lon="3.67731">
        <ele>817.9953</ele>
        <time>2012-06-09T15:10:52Z</time>
      </trkpt>
      <trkpt lat="46.03393" lon="3.67705">
        <ele>816.47394</ele>
        <time>2012-06-09T15:10:55Z</time>
      </trkpt>
      <trkpt lat="46.03386" lon="3.67677">
        <ele>814.0978</ele>
        <time>2012-06-09T15:10:58Z</time>
      </trkpt>
      <trkpt lat="46.03382" lon="3.67649">
        <ele>811.36096</ele>
        <time>2012-06-09T15:11:01Z</time>
      </trkpt>
      <trkpt lat="46.03378" lon="3.67624">
        <ele>808.472</ele>
        <time>2012-06-09T15:11:04Z</time>
      </trkpt>
      <trkpt lat="46.03372" lon="3.67598">
        <ele>805.9563</ele>
        <time>2012-06-09T15:11:07Z</time>
      </trkpt>
      <trkpt lat="46.03368" lon="3.67572">
        <ele>804.1294</ele>
        <time>2012-06-09T15:11:10Z</time>
      </trkpt>
      <trkpt lat="46.03363" lon="3.67544">
        <ele>802.92706</ele>
        <time>2012-06-09T15:11:15Z</time>
      </trkpt>
      <trkpt lat="46.03359" lon="3.67514">
        <ele>803.6089</ele>
        <time>2012-06-09T15:11:19Z</time>
      </trkpt>
      <trkpt lat="46.03357" lon="3.67482">
        <ele>805.9984</ele>
        <time>2012-06-09T15:11:22Z</time>
      </trkpt>
      <trkpt lat="46.03356" lon="3.67452">
        <ele>808.18225</ele>
        <time>2012-06-09T15:11:26Z</time>
      </trkpt>
      <trkpt lat="46.03355" lon="3.6742">
        <ele>809.2277</ele>
        <time>2012-06-09T15:11:31Z</time>
      </trkpt>
      <trkpt lat="46.03352" lon="3.67394">
        <ele>809.4951</ele>
        <time>2012-06-09T15:11:37Z</time>
      </trkpt>
      <trkpt lat="46.03349" lon="3.67364">
        <ele>810.0453</ele>
        <time>2012-06-09T15:11:44Z</time>
      </trkpt>
      <trkpt lat="46.0335" lon="3.67336">
        <ele>812.6931</ele>
        <time>2012-06-09T15:11:48Z</time>
      </trkpt>
      <trkpt lat="46.03358" lon="3.67308">
        <ele>814.222</ele>
        <time>2012-06-09T15:11:54Z</time>
      </trkpt>
      <trkpt lat="46.03376" lon="3.67295">
        <ele>815.05255</ele>
        <time>2012-06-09T15:11:59Z</time>
      </trkpt>
      <trkpt lat="46.03396" lon="3.67274">
        <ele>815.78186</ele>
        <time>2012-06-09T15:12:10Z</time>
      </trkpt>
      <trkpt lat="46.03412" lon="3.67259">
        <ele>816.37</ele>
        <time>2012-06-09T15:12:15Z</time>
      </trkpt>
      <trkpt lat="46.03429" lon="3.67235">
        <ele>815.7451</ele>
        <time>2012-06-09T15:12:19Z</time>
      </trkpt>
      <trkpt lat="46.03444" lon="3.67207">
        <ele>812.38403</ele>
        <time>2012-06-09T15:12:22Z</time>
      </trkpt>
      <trkpt lat="46.03457" lon="3.67177">
        <ele>807.888</ele>
        <time>2012-06-09T15:12:25Z</time>
      </trkpt>
      <trkpt lat="46.03469" lon="3.67149">
        <ele>804.3662</ele>
        <time>2012-06-09T15:12:28Z</time>
      </trkpt>
      <trkpt lat="46.03483" lon="3.67124">
        <ele>801.865</ele>
        <time>2012-06-09T15:12:32Z</time>
      </trkpt>
      <trkpt lat="46.03494" lon="3.671">
        <ele>799.4564</ele>
        <time>2012-06-09T15:12:36Z</time>
      </trkpt>
      <trkpt lat="46.03508" lon="3.67076">
        <ele>796.5584</ele>
        <time>2012-06-09T15:12:41Z</time>
      </trkpt>
      <trkpt lat="46.03523" lon="3.67061">
        <ele>795.73193</ele>
        <time>2012-06-09T15:12:47Z</time>
      </trkpt>
      <trkpt lat="46.03541" lon="3.67051">
        <ele>794.7549</ele>
        <time>2012-06-09T15:12:54Z</time>
      </trkpt>
      <trkpt lat="46.03558" lon="3.6704">
        <ele>793.90533</ele>
        <time>2012-06-09T15:13:00Z</time>
      </trkpt>
      <trkpt lat="46.03576" lon="3.67027">
        <ele>792.9321</ele>
        <time>2012-06-09T15:13:06Z</time>
      </trkpt>
      <trkpt lat="46.03592" lon="3.67014">
        <ele>791.1253</ele>
        <time>2012-06-09T15:13:17Z</time>
      </trkpt>
      <trkpt lat="46.03613" lon="3.66999">
        <ele>788.37885</ele>
        <time>2012-06-09T15:13:27Z</time>
      </trkpt>
      <trkpt lat="46.03631" lon="3.66986">
        <ele>785.5393</ele>
        <time>2012-06-09T15:13:37Z</time>
      </trkpt>
      <trkpt lat="46.03644" lon="3.66965">
        <ele>782.87634</ele>
        <time>2012-06-09T15:13:45Z</time>
      </trkpt>
      <trkpt lat="46.03652" lon="3.66937">
        <ele>779.6601</ele>
        <time>2012-06-09T15:13:53Z</time>
      </trkpt>
      <trkpt lat="46.03665" lon="3.66913">
        <ele>776.9007</ele>
        <time>2012-06-09T15:14:00Z</time>
      </trkpt>
      <trkpt lat="46.03666" lon="3.66885">
        <ele>774.7202</ele>
        <time>2012-06-09T15:14:07Z</time>
      </trkpt>
      <trkpt lat="46.03667" lon="3.66855">
        <ele>773.4588</ele>
        <time>2012-06-09T15:14:14Z</time>
      </trkpt>
      <trkpt lat="46.03678" lon="3.66834">
        <ele>771.19135</ele>
        <time>2012-06-09T15:14:25Z</time>
      </trkpt>
      <trkpt lat="46.03696" lon="3.66832">
        <ele>767.73267</ele>
        <time>2012-06-09T15:14:33Z</time>
      </trkpt>
      <trkpt lat="46.03717" lon="3.66834">
        <ele>764.55853</ele>
        <time>2012-06-09T15:14:38Z</time>
      </trkpt>
      <trkpt lat="46.03736" lon="3.66847">
        <ele>755.91473</ele>
        <time>2012-06-09T15:14:41Z</time>
      </trkpt>
      <trkpt lat="46.03754" lon="3.66853">
        <ele>744.7963</ele>
        <time>2012-06-09T15:14:45Z</time>
      </trkpt>
      <trkpt lat="46.03774" lon="3.66866">
        <ele>739.5971</ele>
        <time>2012-06-09T15:14:50Z</time>
      </trkpt>
      <trkpt lat="46.03792" lon="3.66885">
        <ele>735.0904</ele>
        <time>2012-06-09T15:14:54Z</time>
      </trkpt>
      <trkpt lat="46.03803" lon="3.66909">
        <ele>729.4613</ele>
        <time>2012-06-09T15:14:58Z</time>
      </trkpt>
      <trkpt lat="46.03807" lon="3.66935">
        <ele>725.0904</ele>
        <time>2012-06-09T15:15:02Z</time>
      </trkpt>
      <trkpt lat="46.03811" lon="3.66961">
        <ele>722.0941</ele>
        <time>2012-06-09T15:15:06Z</time>
      </trkpt>
      <trkpt lat="46.03819" lon="3.66986">
        <ele>720.2351</ele>
        <time>2012-06-09T15:15:11Z</time>
      </trkpt>
      <trkpt lat="46.03838" lon="3.67001">
        <ele>717.58545</ele>
        <time>2012-06-09T15:15:18Z</time>
      </trkpt>
      <trkpt lat="46.0386" lon="3.66993">
        <ele>709.81165</ele>
        <time>2012-06-09T15:15:28Z</time>
      </trkpt>
      <trkpt lat="46.03879" lon="3.66993">
        <ele>707.0276</ele>
        <time>2012-06-09T15:17:30Z</time>
      </trkpt>
      <trkpt lat="46.03899" lon="3.66984">
        <ele>706.63745</ele>
        <time>2012-06-09T15:17:36Z</time>
      </trkpt>
      <trkpt lat="46.0392" lon="3.66978">
        <ele>705.20197</ele>
        <time>2012-06-09T15:17:41Z</time>
      </trkpt>
      <trkpt lat="46.03938" lon="3.66971">
        <ele>703.42053</ele>
        <time>2012-06-09T15:17:44Z</time>
      </trkpt>
      <trkpt lat="46.03961" lon="3.66961">
        <ele>700.1947</ele>
        <time>2012-06-09T15:17:48Z</time>
      </trkpt>
      <trkpt lat="46.03982" lon="3.66948">
        <ele>697.3732</ele>
        <time>2012-06-09T15:17:52Z</time>
      </trkpt>
      <trkpt lat="46.04004" lon="3.66939">
        <ele>695.6914</ele>
        <time>2012-06-09T15:17:56Z</time>
      </trkpt>
      <trkpt lat="46.04023" lon="3.66935">
        <ele>695.03326</ele>
        <time>2012-06-09T15:17:59Z</time>
      </trkpt>
      <trkpt lat="46.04044" lon="3.66926">
        <ele>695.14246</ele>
        <time>2012-06-09T15:18:03Z</time>
      </trkpt>
      <trkpt lat="46.04064" lon="3.6692">
        <ele>695.4231</ele>
        <time>2012-06-09T15:18:07Z</time>
      </trkpt>
      <trkpt lat="46.04083" lon="3.66915">
        <ele>695.9357</ele>
        <time>2012-06-09T15:18:10Z</time>
      </trkpt>
      <trkpt lat="46.04102" lon="3.66915">
        <ele>696.8707</ele>
        <time>2012-06-09T15:18:13Z</time>
      </trkpt>
      <trkpt lat="46.0412" lon="3.66913">
        <ele>697.51514</ele>
        <time>2012-06-09T15:18:16Z</time>
      </trkpt>
      <trkpt lat="46.04143" lon="3.66909">
        <ele>698.2246</ele>
        <time>2012-06-09T15:18:20Z</time>
      </trkpt>
      <trkpt lat="46.04164" lon="3.669">
        <ele>697.871</ele>
        <time>2012-06-09T15:18:24Z</time>
      </trkpt>
      <trkpt lat="46.04182" lon="3.66892">
        <ele>697.0755</ele>
        <time>2012-06-09T15:18:28Z</time>
      </trkpt>
      <trkpt lat="46.04202" lon="3.66885">
        <ele>696.1402</ele>
        <time>2012-06-09T15:18:32Z</time>
      </trkpt>
      <trkpt lat="46.04219" lon="3.66877">
        <ele>695.7388</ele>
        <time>2012-06-09T15:18:36Z</time>
      </trkpt>
      <trkpt lat="46.04237" lon="3.66868">
        <ele>696.29535</ele>
        <time>2012-06-09T15:18:40Z</time>
      </trkpt>
      <trkpt lat="46.04255" lon="3.66864">
        <ele>696.4715</ele>
        <time>2012-06-09T15:18:44Z</time>
      </trkpt>
      <trkpt lat="46.04274" lon="3.66866">
        <ele>696.5272</ele>
        <time>2012-06-09T15:18:48Z</time>
      </trkpt>
      <trkpt lat="46.04293" lon="3.66868">
        <ele>697.22845</ele>
        <time>2012-06-09T15:18:52Z</time>
      </trkpt>
      <trkpt lat="46.04311" lon="3.66866">
        <ele>697.4503</ele>
        <time>2012-06-09T15:18:56Z</time>
      </trkpt>
      <trkpt lat="46.04331" lon="3.66866">
        <ele>697.28253</ele>
        <time>2012-06-09T15:19:01Z</time>
      </trkpt>
      <trkpt lat="46.04352" lon="3.66864">
        <ele>697.48883</ele>
        <time>2012-06-09T15:19:06Z</time>
      </trkpt>
      <trkpt lat="46.04371" lon="3.66864">
        <ele>697.54156</ele>
        <time>2012-06-09T15:19:12Z</time>
      </trkpt>
      <trkpt lat="46.04393" lon="3.66866">
        <ele>697.55096</ele>
        <time>2012-06-09T15:19:18Z</time>
      </trkpt>
      <trkpt lat="46.04413" lon="3.66868">
        <ele>697.9863</ele>
        <time>2012-06-09T15:19:25Z</time>
      </trkpt>
      <trkpt lat="46.04432" lon="3.66873">
        <ele>697.61084</ele>
        <time>2012-06-09T15:19:32Z</time>
      </trkpt>
      <trkpt lat="46.04452" lon="3.66879">
        <ele>697.5544</ele>
        <time>2012-06-09T15:19:45Z</time>
      </trkpt>
      <trkpt lat="46.0447" lon="3.66892">
        <ele>697.99066</ele>
        <time>2012-06-09T15:19:52Z</time>
      </trkpt>
      <trkpt lat="46.04489" lon="3.66903">
        <ele>698.37506</ele>
        <time>2012-06-09T15:19:56Z</time>
      </trkpt>
      <trkpt lat="46.04509" lon="3.66918">
        <ele>698.91547</ele>
        <time>2012-06-09T15:19:59Z</time>
      </trkpt>
      <trkpt lat="46.04524" lon="3.66937">
        <ele>699.28406</ele>
        <time>2012-06-09T15:20:02Z</time>
      </trkpt>
      <trkpt lat="46.04543" lon="3.66948">
        <ele>700.1515</ele>
        <time>2012-06-09T15:20:06Z</time>
      </trkpt>
      <trkpt lat="46.04563" lon="3.66952">
        <ele>701.2204</ele>
        <time>2012-06-09T15:20:11Z</time>
      </trkpt>
      <trkpt lat="46.04583" lon="3.66963">
        <ele>702.13135</ele>
        <time>2012-06-09T15:20:15Z</time>
      </trkpt>
      <trkpt lat="46.04601" lon="3.66971">
        <ele>702.4196</ele>
        <time>2012-06-09T15:20:19Z</time>
      </trkpt>
      <trkpt lat="46.0462" lon="3.66984">
        <ele>702.52136</ele>
        <time>2012-06-09T15:20:24Z</time>
      </trkpt>
      <trkpt lat="46.04638" lon="3.66995">
        <ele>702.54736</ele>
        <time>2012-06-09T15:20:30Z</time>
      </trkpt>
      <trkpt lat="46.04654" lon="3.67008">
        <ele>701.6176</ele>
        <time>2012-06-09T15:20:34Z</time>
      </trkpt>
      <trkpt lat="46.04672" lon="3.67018">
        <ele>700.20624</ele>
        <time>2012-06-09T15:20:38Z</time>
      </trkpt>
      <trkpt lat="46.04691" lon="3.67023">
        <ele>699.0244</ele>
        <time>2012-06-09T15:20:43Z</time>
      </trkpt>
      <trkpt lat="46.04712" lon="3.67029">
        <ele>698.3869</ele>
        <time>2012-06-09T15:20:49Z</time>
      </trkpt>
      <trkpt lat="46.04734" lon="3.6704">
        <ele>697.31683</ele>
        <time>2012-06-09T15:20:53Z</time>
      </trkpt>
      <trkpt lat="46.04752" lon="3.67049">
        <ele>694.7815</ele>
        <time>2012-06-09T15:20:56Z</time>
      </trkpt>
      <trkpt lat="46.04772" lon="3.67053">
        <ele>691.2119</ele>
        <time>2012-06-09T15:20:59Z</time>
      </trkpt>
      <trkpt lat="46.04792" lon="3.67049">
        <ele>687.831</ele>
        <time>2012-06-09T15:21:02Z</time>
      </trkpt>
      <trkpt lat="46.04809" lon="3.67038">
        <ele>684.9203</ele>
        <time>2012-06-09T15:21:05Z</time>
      </trkpt>
      <trkpt lat="46.04826" lon="3.67027">
        <ele>682.2861</ele>
        <time>2012-06-09T15:21:08Z</time>
      </trkpt>
      <trkpt lat="46.04843" lon="3.6701">
        <ele>678.03107</ele>
        <time>2012-06-09T15:21:12Z</time>
      </trkpt>
      <trkpt lat="46.04861" lon="3.66999">
        <ele>672.3332</ele>
        <time>2012-06-09T15:21:16Z</time>
      </trkpt>
      <trkpt lat="46.0488" lon="3.66982">
        <ele>665.80963</ele>
        <time>2012-06-09T15:21:24Z</time>
      </trkpt>
      <trkpt lat="46.04896" lon="3.66967">
        <ele>661.7436</ele>
        <time>2012-06-09T15:21:28Z</time>
      </trkpt>
      <trkpt lat="46.04912" lon="3.6698">
        <ele>660.2461</ele>
        <time>2012-06-09T15:21:32Z</time>
      </trkpt>
      <trkpt lat="46.04926" lon="3.66997">
        <ele>659.71747</ele>
        <time>2012-06-09T15:21:37Z</time>
      </trkpt>
      <trkpt lat="46.04948" lon="3.66988">
        <ele>659.5534</ele>
        <time>2012-06-09T15:21:58Z</time>
      </trkpt>
      <trkpt lat="46.0497" lon="3.66969">
        <ele>659.55316</ele>
        <time>2012-06-09T15:22:01Z</time>
      </trkpt>
      <trkpt lat="46.04992" lon="3.66956">
        <ele>660.13116</ele>
        <time>2012-06-09T15:22:04Z</time>
      </trkpt>
      <trkpt lat="46.05016" lon="3.66941">
        <ele>660.9532</ele>
        <time>2012-06-09T15:22:07Z</time>
      </trkpt>
      <trkpt lat="46.05039" lon="3.6692">
        <ele>661.2999</ele>
        <time>2012-06-09T15:22:10Z</time>
      </trkpt>
      <trkpt lat="46.0505" lon="3.66898">
        <ele>661.41064</ele>
        <time>2012-06-09T15:22:12Z</time>
      </trkpt>
      <trkpt lat="46.0506" lon="3.66864">
        <ele>661.4929</ele>
        <time>2012-06-09T15:22:15Z</time>
      </trkpt>
      <trkpt lat="46.0506" lon="3.66832">
        <ele>661.27765</ele>
        <time>2012-06-09T15:22:18Z</time>
      </trkpt>
      <trkpt lat="46.05041" lon="3.66802">
        <ele>660.8587</ele>
        <time>2012-06-09T15:22:21Z</time>
      </trkpt>
      <trkpt lat="46.05032" lon="3.6677">
        <ele>659.8538</ele>
        <time>2012-06-09T15:22:24Z</time>
      </trkpt>
      <trkpt lat="46.05046" lon="3.66737">
        <ele>657.1487</ele>
        <time>2012-06-09T15:22:27Z</time>
      </trkpt>
      <trkpt lat="46.05059" lon="3.66716">
        <ele>654.20056</ele>
        <time>2012-06-09T15:22:29Z</time>
      </trkpt>
      <trkpt lat="46.05075" lon="3.66694">
        <ele>651.04224</ele>
        <time>2012-06-09T15:22:31Z</time>
      </trkpt>
      <trkpt lat="46.05092" lon="3.66677">
        <ele>648.3907</ele>
        <time>2012-06-09T15:22:33Z</time>
      </trkpt>
      <trkpt lat="46.05111" lon="3.66662">
        <ele>645.58673</ele>
        <time>2012-06-09T15:22:35Z</time>
      </trkpt>
      <trkpt lat="46.0513" lon="3.66649">
        <ele>643.38446</ele>
        <time>2012-06-09T15:22:37Z</time>
      </trkpt>
      <trkpt lat="46.05148" lon="3.66634">
        <ele>641.4582</ele>
        <time>2012-06-09T15:22:39Z</time>
      </trkpt>
      <trkpt lat="46.05166" lon="3.66619">
        <ele>639.4997</ele>
        <time>2012-06-09T15:22:41Z</time>
      </trkpt>
      <trkpt lat="46.05188" lon="3.66609">
        <ele>637.773</ele>
        <time>2012-06-09T15:22:43Z</time>
      </trkpt>
      <trkpt lat="46.05209" lon="3.66606">
        <ele>635.67676</ele>
        <time>2012-06-09T15:22:45Z</time>
      </trkpt>
      <trkpt lat="46.05231" lon="3.66611">
        <ele>633.6226</ele>
        <time>2012-06-09T15:22:47Z</time>
      </trkpt>
      <trkpt lat="46.0525" lon="3.66615">
        <ele>631.59216</ele>
        <time>2012-06-09T15:22:49Z</time>
      </trkpt>
      <trkpt lat="46.05268" lon="3.66621">
        <ele>628.5695</ele>
        <time>2012-06-09T15:22:52Z</time>
      </trkpt>
      <trkpt lat="46.05283" lon="3.66643">
        <ele>625.5118</ele>
        <time>2012-06-09T15:22:58Z</time>
      </trkpt>
      <trkpt lat="46.05285" lon="3.66671">
        <ele>623.218</ele>
        <time>2012-06-09T15:23:03Z</time>
      </trkpt>
      <trkpt lat="46.05282" lon="3.66697">
        <ele>619.58356</ele>
        <time>2012-06-09T15:23:06Z</time>
      </trkpt>
      <trkpt lat="46.05282" lon="3.66729">
        <ele>614.30096</ele>
        <time>2012-06-09T15:23:10Z</time>
      </trkpt>
      <trkpt lat="46.05295" lon="3.66748">
        <ele>609.7897</ele>
        <time>2012-06-09T15:23:14Z</time>
      </trkpt>
      <trkpt lat="46.05312" lon="3.66765">
        <ele>607.91846</ele>
        <time>2012-06-09T15:23:17Z</time>
      </trkpt>
      <trkpt lat="46.05321" lon="3.66795">
        <ele>606.879</ele>
        <time>2012-06-09T15:23:20Z</time>
      </trkpt>
      <trkpt lat="46.05325" lon="3.66823">
        <ele>605.6749</ele>
        <time>2012-06-09T15:23:23Z</time>
      </trkpt>
      <trkpt lat="46.05327" lon="3.66851">
        <ele>603.5107</ele>
        <time>2012-06-09T15:23:26Z</time>
      </trkpt>
      <trkpt lat="46.05325" lon="3.66883">
        <ele>598.4966</ele>
        <time>2012-06-09T15:23:33Z</time>
      </trkpt>
      <trkpt lat="46.0533" lon="3.66909">
        <ele>596.28644</ele>
        <time>2012-06-09T15:23:42Z</time>
      </trkpt>
      <trkpt lat="46.05346" lon="3.66928">
        <ele>594.24994</ele>
        <time>2012-06-09T15:23:48Z</time>
      </trkpt>
      <trkpt lat="46.05366" lon="3.66935">
        <ele>588.6744</ele>
        <time>2012-06-09T15:23:55Z</time>
      </trkpt>
      <trkpt lat="46.05386" lon="3.66933">
        <ele>587.1997</ele>
        <time>2012-06-09T15:24:04Z</time>
      </trkpt>
      <trkpt lat="46.05401" lon="3.66948">
        <ele>586.5076</ele>
        <time>2012-06-09T15:24:08Z</time>
      </trkpt>
      <trkpt lat="46.05416" lon="3.66965">
        <ele>583.9058</ele>
        <time>2012-06-09T15:24:12Z</time>
      </trkpt>
      <trkpt lat="46.05433" lon="3.66984">
        <ele>580.92633</ele>
        <time>2012-06-09T15:24:16Z</time>
      </trkpt>
      <trkpt lat="46.05446" lon="3.67006">
        <ele>579.30426</ele>
        <time>2012-06-09T15:24:19Z</time>
      </trkpt>
      <trkpt lat="46.05461" lon="3.67027">
        <ele>577.7137</ele>
        <time>2012-06-09T15:24:22Z</time>
      </trkpt>
      <trkpt lat="46.05479" lon="3.67049">
        <ele>576.46454</ele>
        <time>2012-06-09T15:24:25Z</time>
      </trkpt>
      <trkpt lat="46.05498" lon="3.67068">
        <ele>575.50006</ele>
        <time>2012-06-09T15:24:28Z</time>
      </trkpt>
      <trkpt lat="46.05512" lon="3.67085">
        <ele>574.6482</ele>
        <time>2012-06-09T15:24:30Z</time>
      </trkpt>
      <trkpt lat="46.05532" lon="3.67106">
        <ele>573.43695</ele>
        <time>2012-06-09T15:24:33Z</time>
      </trkpt>
      <trkpt lat="46.0555" lon="3.67113">
        <ele>571.8991</ele>
        <time>2012-06-09T15:24:37Z</time>
      </trkpt>
      <trkpt lat="46.05561" lon="3.67089">
        <ele>570.35986</ele>
        <time>2012-06-09T15:24:48Z</time>
      </trkpt>
      <trkpt lat="46.05567" lon="3.67059">
        <ele>569.23016</ele>
        <time>2012-06-09T15:24:52Z</time>
      </trkpt>
      <trkpt lat="46.05575" lon="3.67033">
        <ele>567.6462</ele>
        <time>2012-06-09T15:24:56Z</time>
      </trkpt>
      <trkpt lat="46.05581" lon="3.67008">
        <ele>566.32074</ele>
        <time>2012-06-09T15:25:00Z</time>
      </trkpt>
      <trkpt lat="46.0559" lon="3.66973">
        <ele>565.3584</ele>
        <time>2012-06-09T15:25:04Z</time>
      </trkpt>
      <trkpt lat="46.05596" lon="3.66939">
        <ele>564.31464</ele>
        <time>2012-06-09T15:25:07Z</time>
      </trkpt>
      <trkpt lat="46.05602" lon="3.66909">
        <ele>563.2962</ele>
        <time>2012-06-09T15:25:10Z</time>
      </trkpt>
      <trkpt lat="46.05615" lon="3.66881">
        <ele>562.10455</ele>
        <time>2012-06-09T15:25:14Z</time>
      </trkpt>
      <trkpt lat="46.05625" lon="3.66858">
        <ele>561.72754</ele>
        <time>2012-06-09T15:25:18Z</time>
      </trkpt>
      <trkpt lat="46.05633" lon="3.66834">
        <ele>561.58405</ele>
        <time>2012-06-09T15:25:24Z</time>
      </trkpt>
      <trkpt lat="46.05629" lon="3.66797">
        <ele>561.5543</ele>
        <time>2012-06-09T15:25:35Z</time>
      </trkpt>
      <trkpt lat="46.0562" lon="3.6677">
        <ele>561.5532</ele>
        <time>2012-06-09T15:25:41Z</time>
      </trkpt>
      <trkpt lat="46.05619" lon="3.66737">
        <ele>562.37506</ele>
        <time>2012-06-09T15:25:47Z</time>
      </trkpt>
      <trkpt lat="46.05619" lon="3.66709">
        <ele>562.5213</ele>
        <time>2012-06-09T15:25:53Z</time>
      </trkpt>
      <trkpt lat="46.05628" lon="3.66686">
        <ele>563.2342</ele>
        <time>2012-06-09T15:26:02Z</time>
      </trkpt>
      <trkpt lat="46.0564" lon="3.66664">
        <ele>564.3779</ele>
        <time>2012-06-09T15:26:18Z</time>
      </trkpt>
      <trkpt lat="46.05658" lon="3.66643">
        <ele>567.70856</ele>
        <time>2012-06-09T15:26:22Z</time>
      </trkpt>
      <trkpt lat="46.05674" lon="3.6663">
        <ele>569.79047</ele>
        <time>2012-06-09T15:26:25Z</time>
      </trkpt>
      <trkpt lat="46.05693" lon="3.66617">
        <ele>570.99536</ele>
        <time>2012-06-09T15:26:29Z</time>
      </trkpt>
      <trkpt lat="46.0571" lon="3.66604">
        <ele>571.06775</ele>
        <time>2012-06-09T15:26:32Z</time>
      </trkpt>
      <trkpt lat="46.05732" lon="3.66589">
        <ele>570.33264</ele>
        <time>2012-06-09T15:26:35Z</time>
      </trkpt>
      <trkpt lat="46.05753" lon="3.66568">
        <ele>569.3038</ele>
        <time>2012-06-09T15:26:38Z</time>
      </trkpt>
      <trkpt lat="46.05777" lon="3.66559">
        <ele>568.2916</ele>
        <time>2012-06-09T15:26:41Z</time>
      </trkpt>
      <trkpt lat="46.05799" lon="3.66568">
        <ele>567.4271</ele>
        <time>2012-06-09T15:26:44Z</time>
      </trkpt>
      <trkpt lat="46.0582" lon="3.66585">
        <ele>566.92175</ele>
        <time>2012-06-09T15:26:47Z</time>
      </trkpt>
      <trkpt lat="46.05839" lon="3.66609">
        <ele>566.27106</ele>
        <time>2012-06-09T15:26:50Z</time>
      </trkpt>
      <trkpt lat="46.05858" lon="3.66634">
        <ele>565.02783</ele>
        <time>2012-06-09T15:26:53Z</time>
      </trkpt>
      <trkpt lat="46.05874" lon="3.6666">
        <ele>563.9252</ele>
        <time>2012-06-09T15:26:56Z</time>
      </trkpt>
      <trkpt lat="46.05891" lon="3.66684">
        <ele>562.6944</ele>
        <time>2012-06-09T15:26:59Z</time>
      </trkpt>
      <trkpt lat="46.0591" lon="3.66707">
        <ele>561.4564</ele>
        <time>2012-06-09T15:27:02Z</time>
      </trkpt>
      <trkpt lat="46.05931" lon="3.66729">
        <ele>560.49664</ele>
        <time>2012-06-09T15:27:05Z</time>
      </trkpt>
      <trkpt lat="46.05947" lon="3.66742">
        <ele>560.0838</ele>
        <time>2012-06-09T15:27:07Z</time>
      </trkpt>
      <trkpt lat="46.05971" lon="3.66752">
        <ele>559.5269</ele>
        <time>2012-06-09T15:27:10Z</time>
      </trkpt>
      <trkpt lat="46.05996" lon="3.66763">
        <ele>558.71387</ele>
        <time>2012-06-09T15:27:13Z</time>
      </trkpt>
      <trkpt lat="46.0602" lon="3.6677">
        <ele>557.7927</ele>
        <time>2012-06-09T15:27:16Z</time>
      </trkpt>
      <trkpt lat="46.06045" lon="3.66778">
        <ele>557.076</ele>
        <time>2012-06-09T15:27:19Z</time>
      </trkpt>
      <trkpt lat="46.06072" lon="3.66782">
        <ele>556.7736</ele>
        <time>2012-06-09T15:27:22Z</time>
      </trkpt>
      <trkpt lat="46.06091" lon="3.66785">
        <ele>556.6771</ele>
        <time>2012-06-09T15:27:24Z</time>
      </trkpt>
      <trkpt lat="46.06111" lon="3.66787">
        <ele>556.1853</ele>
        <time>2012-06-09T15:27:26Z</time>
      </trkpt>
      <trkpt lat="46.06131" lon="3.66785">
        <ele>555.6587</ele>
        <time>2012-06-09T15:27:28Z</time>
      </trkpt>
      <trkpt lat="46.0615" lon="3.66785">
        <ele>554.9249</ele>
        <time>2012-06-09T15:27:30Z</time>
      </trkpt>
      <trkpt lat="46.06169" lon="3.66782">
        <ele>554.0747</ele>
        <time>2012-06-09T15:27:32Z</time>
      </trkpt>
      <trkpt lat="46.06189" lon="3.66782">
        <ele>553.159</ele>
        <time>2012-06-09T15:27:34Z</time>
      </trkpt>
      <trkpt lat="46.06207" lon="3.6678">
        <ele>552.45636</ele>
        <time>2012-06-09T15:27:36Z</time>
      </trkpt>
      <trkpt lat="46.06233" lon="3.66782">
        <ele>551.6841</ele>
        <time>2012-06-09T15:27:39Z</time>
      </trkpt>
      <trkpt lat="46.06257" lon="3.66787">
        <ele>551.0302</ele>
        <time>2012-06-09T15:27:42Z</time>
      </trkpt>
      <trkpt lat="46.06278" lon="3.66802">
        <ele>550.31683</ele>
        <time>2012-06-09T15:27:45Z</time>
      </trkpt>
      <trkpt lat="46.06296" lon="3.66819">
        <ele>549.43774</ele>
        <time>2012-06-09T15:27:48Z</time>
      </trkpt>
      <trkpt lat="46.06312" lon="3.66834">
        <ele>548.4888</ele>
        <time>2012-06-09T15:27:51Z</time>
      </trkpt>
      <trkpt lat="46.06325" lon="3.66855">
        <ele>547.69775</ele>
        <time>2012-06-09T15:27:54Z</time>
      </trkpt>
      <trkpt lat="46.06335" lon="3.66879">
        <ele>547.03595</ele>
        <time>2012-06-09T15:27:57Z</time>
      </trkpt>
      <trkpt lat="46.06347" lon="3.66903">
        <ele>545.7722</ele>
        <time>2012-06-09T15:28:01Z</time>
      </trkpt>
      <trkpt lat="46.06366" lon="3.66903">
        <ele>544.84235</ele>
        <time>2012-06-09T15:28:06Z</time>
      </trkpt>
      <trkpt lat="46.06386" lon="3.66903">
        <ele>543.8289</ele>
        <time>2012-06-09T15:28:13Z</time>
      </trkpt>
      <trkpt lat="46.06409" lon="3.66888">
        <ele>542.5833</ele>
        <time>2012-06-09T15:28:26Z</time>
      </trkpt>
      <trkpt lat="46.06424" lon="3.66868">
        <ele>541.73206</ele>
        <time>2012-06-09T15:28:31Z</time>
      </trkpt>
      <trkpt lat="46.06443" lon="3.66858">
        <ele>540.4886</ele>
        <time>2012-06-09T15:28:35Z</time>
      </trkpt>
      <trkpt lat="46.06463" lon="3.66853">
        <ele>539.5102</ele>
        <time>2012-06-09T15:28:38Z</time>
      </trkpt>
      <trkpt lat="46.06484" lon="3.66845">
        <ele>538.85583</ele>
        <time>2012-06-09T15:28:42Z</time>
      </trkpt>
      <trkpt lat="46.06505" lon="3.66843">
        <ele>538.6488</ele>
        <time>2012-06-09T15:28:46Z</time>
      </trkpt>
      <trkpt lat="46.06523" lon="3.66834">
        <ele>537.8997</ele>
        <time>2012-06-09T15:28:50Z</time>
      </trkpt>
      <trkpt lat="46.06539" lon="3.66819">
        <ele>537.6627</ele>
        <time>2012-06-09T15:28:54Z</time>
      </trkpt>
      <trkpt lat="46.0656" lon="3.66804">
        <ele>537.57904</ele>
        <time>2012-06-09T15:28:59Z</time>
      </trkpt>
      <trkpt lat="46.06578" lon="3.66791">
        <ele>537.5612</ele>
        <time>2012-06-09T15:29:03Z</time>
      </trkpt>
      <trkpt lat="46.06596" lon="3.66795">
        <ele>537.1181</ele>
        <time>2012-06-09T15:29:07Z</time>
      </trkpt>
      <trkpt lat="46.06616" lon="3.66789">
        <ele>536.0035</ele>
        <time>2012-06-09T15:29:12Z</time>
      </trkpt>
      <trkpt lat="46.06632" lon="3.66767">
        <ele>534.7263</ele>
        <time>2012-06-09T15:29:17Z</time>
      </trkpt>
      <trkpt lat="46.06648" lon="3.66755">
        <ele>533.23676</ele>
        <time>2012-06-09T15:29:21Z</time>
      </trkpt>
      <trkpt lat="46.06664" lon="3.66742">
        <ele>530.57404</ele>
        <time>2012-06-09T15:29:25Z</time>
      </trkpt>
      <trkpt lat="46.06684" lon="3.66737">
        <ele>529.44244</ele>
        <time>2012-06-09T15:29:29Z</time>
      </trkpt>
      <trkpt lat="46.06703" lon="3.66735">
        <ele>529.50635</ele>
        <time>2012-06-09T15:29:32Z</time>
      </trkpt>
      <trkpt lat="46.06724" lon="3.66733">
        <ele>529.28827</ele>
        <time>2012-06-09T15:29:36Z</time>
      </trkpt>
      <trkpt lat="46.06744" lon="3.66731">
        <ele>528.2075</ele>
        <time>2012-06-09T15:29:40Z</time>
      </trkpt>
      <trkpt lat="46.06771" lon="3.66727">
        <ele>526.56836</ele>
        <time>2012-06-09T15:29:47Z</time>
      </trkpt>
      <trkpt lat="46.06795" lon="3.66729">
        <ele>524.61255</ele>
        <time>2012-06-09T15:29:51Z</time>
      </trkpt>
      <trkpt lat="46.06816" lon="3.66731">
        <ele>523.88824</ele>
        <time>2012-06-09T15:29:55Z</time>
      </trkpt>
      <trkpt lat="46.06835" lon="3.66724">
        <ele>524.00464</ele>
        <time>2012-06-09T15:30:06Z</time>
      </trkpt>
      <trkpt lat="46.06856" lon="3.66724">
        <ele>524.9173</ele>
        <time>2012-06-09T15:30:13Z</time>
      </trkpt>
      <trkpt lat="46.06876" lon="3.66735">
        <ele>525.35187</ele>
        <time>2012-06-09T15:30:17Z</time>
      </trkpt>
      <trkpt lat="46.06896" lon="3.6674">
        <ele>526.755</ele>
        <time>2012-06-09T15:30:21Z</time>
      </trkpt>
      <trkpt lat="46.06917" lon="3.66737">
        <ele>529.35516</ele>
        <time>2012-06-09T15:30:25Z</time>
      </trkpt>
    </trkseg>
  </trk>
</gpx>